<?xml version="1.0" encoding="UTF-8" standalone="no" ?>
<gpx xmlns="http://www.topografix.com/GPX/1/1" xmlns:xsi="http://www.w3.org/2001/XMLSchema-instance" xsi:schemaLocation="http://www.topografix.com/GPX/1/1 http://www.topografix.com/GPX/1/1/gpx.xsd" version="1.1" creator="VisuGPX - https://www.visugpx.com">
  <metadata>
    <name>Tuca de Urmella</name>
    <desc><![CDATA[https://subircumbres.com/2026/01/19/tuca-de-urmella-2532m/]]></desc>
  </metadata>
  <trk>
    <name><![CDATA[2026-01-14 14:42:34]]></name>
    <trkseg>
      <trkpt lat="42.53033" lon="0.51695">
        <ele>1486.29</ele>
        <time>2026-01-14T08:00:33Z</time>
      </trkpt>
      <trkpt lat="42.53033" lon="0.51695">
        <ele>1485</ele>
        <time>2026-01-14T08:00:39Z</time>
      </trkpt>
      <trkpt lat="42.53032" lon="0.51695">
        <ele>1485</ele>
        <time>2026-01-14T08:01:01Z</time>
      </trkpt>
      <trkpt lat="42.53032" lon="0.51694">
        <ele>1485.06</ele>
        <time>2026-01-14T08:01:30Z</time>
      </trkpt>
      <trkpt lat="42.53032" lon="0.51694">
        <ele>1485.26</ele>
        <time>2026-01-14T08:01:59Z</time>
      </trkpt>
      <trkpt lat="42.53033" lon="0.51699">
        <ele>1485.33</ele>
        <time>2026-01-14T08:02:22Z</time>
      </trkpt>
      <trkpt lat="42.53036" lon="0.51713">
        <ele>1487.27</ele>
        <time>2026-01-14T08:02:43Z</time>
      </trkpt>
      <trkpt lat="42.53036" lon="0.51714">
        <ele>1487.37</ele>
        <time>2026-01-14T08:03:06Z</time>
      </trkpt>
      <trkpt lat="42.53037" lon="0.51731">
        <ele>1488.41</ele>
        <time>2026-01-14T08:03:27Z</time>
      </trkpt>
      <trkpt lat="42.53036" lon="0.51733">
        <ele>1489.39</ele>
        <time>2026-01-14T08:03:44Z</time>
      </trkpt>
      <trkpt lat="42.53039" lon="0.51731">
        <ele>1488.81</ele>
        <time>2026-01-14T08:04:07Z</time>
      </trkpt>
      <trkpt lat="42.5304" lon="0.5174">
        <ele>1489.96</ele>
        <time>2026-01-14T08:04:32Z</time>
      </trkpt>
      <trkpt lat="42.53034" lon="0.5176">
        <ele>1492.02</ele>
        <time>2026-01-14T08:04:52Z</time>
      </trkpt>
      <trkpt lat="42.53024" lon="0.5177">
        <ele>1495.23</ele>
        <time>2026-01-14T08:05:08Z</time>
      </trkpt>
      <trkpt lat="42.53022" lon="0.5175">
        <ele>1497.11</ele>
        <time>2026-01-14T08:05:28Z</time>
      </trkpt>
      <trkpt lat="42.53021" lon="0.51739">
        <ele>1498.25</ele>
        <time>2026-01-14T08:05:37Z</time>
      </trkpt>
      <trkpt lat="42.53018" lon="0.51725">
        <ele>1498.79</ele>
        <time>2026-01-14T08:05:48Z</time>
      </trkpt>
      <trkpt lat="42.53015" lon="0.51719">
        <ele>1499.29</ele>
        <time>2026-01-14T08:05:54Z</time>
      </trkpt>
      <trkpt lat="42.5301" lon="0.51715">
        <ele>1499.21</ele>
        <time>2026-01-14T08:05:59Z</time>
      </trkpt>
      <trkpt lat="42.53004" lon="0.51712">
        <ele>1499.85</ele>
        <time>2026-01-14T08:06:05Z</time>
      </trkpt>
      <trkpt lat="42.53001" lon="0.51708">
        <ele>1500.85</ele>
        <time>2026-01-14T08:06:09Z</time>
      </trkpt>
      <trkpt lat="42.52993" lon="0.51706">
        <ele>1501.37</ele>
        <time>2026-01-14T08:06:16Z</time>
      </trkpt>
      <trkpt lat="42.52978" lon="0.51708">
        <ele>1502.79</ele>
        <time>2026-01-14T08:06:29Z</time>
      </trkpt>
      <trkpt lat="42.52976" lon="0.51708">
        <ele>1503.05</ele>
        <time>2026-01-14T08:06:31Z</time>
      </trkpt>
      <trkpt lat="42.52958" lon="0.51702">
        <ele>1505.93</ele>
        <time>2026-01-14T08:06:48Z</time>
      </trkpt>
      <trkpt lat="42.52947" lon="0.51697">
        <ele>1507.07</ele>
        <time>2026-01-14T08:07:00Z</time>
      </trkpt>
      <trkpt lat="42.52944" lon="0.51692">
        <ele>1508.06</ele>
        <time>2026-01-14T08:07:06Z</time>
      </trkpt>
      <trkpt lat="42.5294" lon="0.51693">
        <ele>1508.31</ele>
        <time>2026-01-14T08:07:22Z</time>
      </trkpt>
      <trkpt lat="42.52938" lon="0.51694">
        <ele>1508.52</ele>
        <time>2026-01-14T08:07:31Z</time>
      </trkpt>
      <trkpt lat="42.52936" lon="0.51695">
        <ele>1508.73</ele>
        <time>2026-01-14T08:07:33Z</time>
      </trkpt>
      <trkpt lat="42.52931" lon="0.51699">
        <ele>1508.17</ele>
        <time>2026-01-14T08:07:37Z</time>
      </trkpt>
      <trkpt lat="42.52923" lon="0.51707">
        <ele>1509.08</ele>
        <time>2026-01-14T08:07:43Z</time>
      </trkpt>
      <trkpt lat="42.52919" lon="0.51716">
        <ele>1509.35</ele>
        <time>2026-01-14T08:07:49Z</time>
      </trkpt>
      <trkpt lat="42.52913" lon="0.51736">
        <ele>1510.37</ele>
        <time>2026-01-14T08:07:59Z</time>
      </trkpt>
      <trkpt lat="42.52908" lon="0.51751">
        <ele>1511.72</ele>
        <time>2026-01-14T08:08:08Z</time>
      </trkpt>
      <trkpt lat="42.52904" lon="0.51759">
        <ele>1512.57</ele>
        <time>2026-01-14T08:08:23Z</time>
      </trkpt>
      <trkpt lat="42.52902" lon="0.51763">
        <ele>1513.74</ele>
        <time>2026-01-14T08:08:26Z</time>
      </trkpt>
      <trkpt lat="42.52895" lon="0.51783">
        <ele>1515.77</ele>
        <time>2026-01-14T08:08:37Z</time>
      </trkpt>
      <trkpt lat="42.52905" lon="0.51796">
        <ele>1518.46</ele>
        <time>2026-01-14T08:08:48Z</time>
      </trkpt>
      <trkpt lat="42.52939" lon="0.51794">
        <ele>1521.09</ele>
        <time>2026-01-14T08:09:11Z</time>
      </trkpt>
      <trkpt lat="42.5296" lon="0.51808">
        <ele>1523.46</ele>
        <time>2026-01-14T08:09:26Z</time>
      </trkpt>
      <trkpt lat="42.52983" lon="0.51825">
        <ele>1526.59</ele>
        <time>2026-01-14T08:09:48Z</time>
      </trkpt>
      <trkpt lat="42.52997" lon="0.51839">
        <ele>1528.35</ele>
        <time>2026-01-14T08:10:04Z</time>
      </trkpt>
      <trkpt lat="42.53007" lon="0.51857">
        <ele>1530.45</ele>
        <time>2026-01-14T08:10:20Z</time>
      </trkpt>
      <trkpt lat="42.53015" lon="0.51873">
        <ele>1533.53</ele>
        <time>2026-01-14T08:10:35Z</time>
      </trkpt>
      <trkpt lat="42.53027" lon="0.51891">
        <ele>1535.15</ele>
        <time>2026-01-14T08:10:53Z</time>
      </trkpt>
      <trkpt lat="42.53045" lon="0.51898">
        <ele>1536.92</ele>
        <time>2026-01-14T08:11:11Z</time>
      </trkpt>
      <trkpt lat="42.53067" lon="0.51909">
        <ele>1539.06</ele>
        <time>2026-01-14T08:11:30Z</time>
      </trkpt>
      <trkpt lat="42.53086" lon="0.51932">
        <ele>1540.61</ele>
        <time>2026-01-14T08:11:51Z</time>
      </trkpt>
      <trkpt lat="42.53089" lon="0.51957">
        <ele>1543.87</ele>
        <time>2026-01-14T08:12:09Z</time>
      </trkpt>
      <trkpt lat="42.53088" lon="0.5196">
        <ele>1544.38</ele>
        <time>2026-01-14T08:12:12Z</time>
      </trkpt>
      <trkpt lat="42.53068" lon="0.51961">
        <ele>1546.69</ele>
        <time>2026-01-14T08:12:32Z</time>
      </trkpt>
      <trkpt lat="42.53046" lon="0.51943">
        <ele>1548.48</ele>
        <time>2026-01-14T08:12:53Z</time>
      </trkpt>
      <trkpt lat="42.53022" lon="0.51928">
        <ele>1549.97</ele>
        <time>2026-01-14T08:13:14Z</time>
      </trkpt>
      <trkpt lat="42.52998" lon="0.5194">
        <ele>1552.41</ele>
        <time>2026-01-14T08:13:35Z</time>
      </trkpt>
      <trkpt lat="42.52977" lon="0.51956">
        <ele>1553.59</ele>
        <time>2026-01-14T08:13:54Z</time>
      </trkpt>
      <trkpt lat="42.52954" lon="0.51979">
        <ele>1555.36</ele>
        <time>2026-01-14T08:14:17Z</time>
      </trkpt>
      <trkpt lat="42.52946" lon="0.51994">
        <ele>1555.82</ele>
        <time>2026-01-14T08:14:28Z</time>
      </trkpt>
      <trkpt lat="42.52949" lon="0.51999">
        <ele>1556.9</ele>
        <time>2026-01-14T08:14:32Z</time>
      </trkpt>
      <trkpt lat="42.52952" lon="0.51998">
        <ele>1557.09</ele>
        <time>2026-01-14T08:14:35Z</time>
      </trkpt>
      <trkpt lat="42.5297" lon="0.51987">
        <ele>1558.73</ele>
        <time>2026-01-14T08:14:56Z</time>
      </trkpt>
      <trkpt lat="42.52971" lon="0.51988">
        <ele>1559.33</ele>
        <time>2026-01-14T08:14:57Z</time>
      </trkpt>
      <trkpt lat="42.5296" lon="0.52012">
        <ele>1561.69</ele>
        <time>2026-01-14T08:15:16Z</time>
      </trkpt>
      <trkpt lat="42.52954" lon="0.52044">
        <ele>1564.29</ele>
        <time>2026-01-14T08:15:38Z</time>
      </trkpt>
      <trkpt lat="42.52947" lon="0.52071">
        <ele>1566.84</ele>
        <time>2026-01-14T08:15:58Z</time>
      </trkpt>
      <trkpt lat="42.52945" lon="0.52074">
        <ele>1567.36</ele>
        <time>2026-01-14T08:16:01Z</time>
      </trkpt>
      <trkpt lat="42.52933" lon="0.52082">
        <ele>1568.45</ele>
        <time>2026-01-14T08:16:15Z</time>
      </trkpt>
      <trkpt lat="42.5293" lon="0.52083">
        <ele>1569.08</ele>
        <time>2026-01-14T08:16:17Z</time>
      </trkpt>
      <trkpt lat="42.52927" lon="0.52083">
        <ele>1568.78</ele>
        <time>2026-01-14T08:16:20Z</time>
      </trkpt>
      <trkpt lat="42.52908" lon="0.52086">
        <ele>1572.23</ele>
        <time>2026-01-14T08:16:39Z</time>
      </trkpt>
      <trkpt lat="42.52887" lon="0.5209">
        <ele>1575.01</ele>
        <time>2026-01-14T08:16:59Z</time>
      </trkpt>
      <trkpt lat="42.52875" lon="0.52092">
        <ele>1576.68</ele>
        <time>2026-01-14T08:17:10Z</time>
      </trkpt>
      <trkpt lat="42.52859" lon="0.52088">
        <ele>1578.12</ele>
        <time>2026-01-14T08:17:24Z</time>
      </trkpt>
      <trkpt lat="42.52837" lon="0.52078">
        <ele>1581.06</ele>
        <time>2026-01-14T08:17:46Z</time>
      </trkpt>
      <trkpt lat="42.52812" lon="0.52074">
        <ele>1583.36</ele>
        <time>2026-01-14T08:18:08Z</time>
      </trkpt>
      <trkpt lat="42.52791" lon="0.5207">
        <ele>1585.5</ele>
        <time>2026-01-14T08:18:26Z</time>
      </trkpt>
      <trkpt lat="42.52779" lon="0.52077">
        <ele>1587.54</ele>
        <time>2026-01-14T08:18:40Z</time>
      </trkpt>
      <trkpt lat="42.52776" lon="0.52082">
        <ele>1588.38</ele>
        <time>2026-01-14T08:18:44Z</time>
      </trkpt>
      <trkpt lat="42.52761" lon="0.52105">
        <ele>1590.42</ele>
        <time>2026-01-14T08:19:03Z</time>
      </trkpt>
      <trkpt lat="42.52745" lon="0.52128">
        <ele>1593.35</ele>
        <time>2026-01-14T08:19:24Z</time>
      </trkpt>
      <trkpt lat="42.52734" lon="0.52147">
        <ele>1596.42</ele>
        <time>2026-01-14T08:19:39Z</time>
      </trkpt>
      <trkpt lat="42.52721" lon="0.52174">
        <ele>1598.42</ele>
        <time>2026-01-14T08:20:00Z</time>
      </trkpt>
      <trkpt lat="42.5271" lon="0.52202">
        <ele>1601.45</ele>
        <time>2026-01-14T08:20:20Z</time>
      </trkpt>
      <trkpt lat="42.52699" lon="0.52232">
        <ele>1604.34</ele>
        <time>2026-01-14T08:20:42Z</time>
      </trkpt>
      <trkpt lat="42.52691" lon="0.52251">
        <ele>1607.59</ele>
        <time>2026-01-14T08:20:58Z</time>
      </trkpt>
      <trkpt lat="42.5268" lon="0.52277">
        <ele>1609.78</ele>
        <time>2026-01-14T08:21:18Z</time>
      </trkpt>
      <trkpt lat="42.52668" lon="0.52305">
        <ele>1612.16</ele>
        <time>2026-01-14T08:21:38Z</time>
      </trkpt>
      <trkpt lat="42.52659" lon="0.52339">
        <ele>1615.04</ele>
        <time>2026-01-14T08:22:01Z</time>
      </trkpt>
      <trkpt lat="42.52654" lon="0.52359">
        <ele>1618.26</ele>
        <time>2026-01-14T08:22:15Z</time>
      </trkpt>
      <trkpt lat="42.52648" lon="0.52394">
        <ele>1620.6</ele>
        <time>2026-01-14T08:22:37Z</time>
      </trkpt>
      <trkpt lat="42.52643" lon="0.52424">
        <ele>1623.19</ele>
        <time>2026-01-14T08:22:56Z</time>
      </trkpt>
      <trkpt lat="42.5264" lon="0.52452">
        <ele>1625.19</ele>
        <time>2026-01-14T08:23:15Z</time>
      </trkpt>
      <trkpt lat="42.52635" lon="0.52477">
        <ele>1628.39</ele>
        <time>2026-01-14T08:23:33Z</time>
      </trkpt>
      <trkpt lat="42.52633" lon="0.52491">
        <ele>1630.16</ele>
        <time>2026-01-14T08:23:43Z</time>
      </trkpt>
      <trkpt lat="42.52637" lon="0.52497">
        <ele>1628.86</ele>
        <time>2026-01-14T08:23:49Z</time>
      </trkpt>
      <trkpt lat="42.52641" lon="0.52497">
        <ele>1630.07</ele>
        <time>2026-01-14T08:23:52Z</time>
      </trkpt>
      <trkpt lat="42.52642" lon="0.52497">
        <ele>1630.06</ele>
        <time>2026-01-14T08:23:53Z</time>
      </trkpt>
      <trkpt lat="42.52647" lon="0.52494">
        <ele>1632.25</ele>
        <time>2026-01-14T08:23:58Z</time>
      </trkpt>
      <trkpt lat="42.52649" lon="0.52492">
        <ele>1633.66</ele>
        <time>2026-01-14T08:24:01Z</time>
      </trkpt>
      <trkpt lat="42.52662" lon="0.5247">
        <ele>1635.45</ele>
        <time>2026-01-14T08:24:19Z</time>
      </trkpt>
      <trkpt lat="42.52672" lon="0.52448">
        <ele>1637.76</ele>
        <time>2026-01-14T08:24:36Z</time>
      </trkpt>
      <trkpt lat="42.52686" lon="0.52423">
        <ele>1639.9</ele>
        <time>2026-01-14T08:24:57Z</time>
      </trkpt>
      <trkpt lat="42.52704" lon="0.52401">
        <ele>1642.9</ele>
        <time>2026-01-14T08:25:18Z</time>
      </trkpt>
      <trkpt lat="42.52718" lon="0.52384">
        <ele>1645.95</ele>
        <time>2026-01-14T08:25:34Z</time>
      </trkpt>
      <trkpt lat="42.52734" lon="0.52361">
        <ele>1648.77</ele>
        <time>2026-01-14T08:25:54Z</time>
      </trkpt>
      <trkpt lat="42.52749" lon="0.52333">
        <ele>1650.89</ele>
        <time>2026-01-14T08:26:16Z</time>
      </trkpt>
      <trkpt lat="42.52763" lon="0.52314">
        <ele>1653.96</ele>
        <time>2026-01-14T08:26:33Z</time>
      </trkpt>
      <trkpt lat="42.52778" lon="0.52298">
        <ele>1655.59</ele>
        <time>2026-01-14T08:26:49Z</time>
      </trkpt>
      <trkpt lat="42.52784" lon="0.52289">
        <ele>1656.75</ele>
        <time>2026-01-14T08:26:56Z</time>
      </trkpt>
      <trkpt lat="42.52798" lon="0.52274">
        <ele>1659.37</ele>
        <time>2026-01-14T08:27:13Z</time>
      </trkpt>
      <trkpt lat="42.52803" lon="0.5227">
        <ele>1660.34</ele>
        <time>2026-01-14T08:27:18Z</time>
      </trkpt>
      <trkpt lat="42.52815" lon="0.52265">
        <ele>1662.25</ele>
        <time>2026-01-14T08:27:35Z</time>
      </trkpt>
      <trkpt lat="42.52816" lon="0.52265">
        <ele>1662.1</ele>
        <time>2026-01-14T08:27:37Z</time>
      </trkpt>
      <trkpt lat="42.52819" lon="0.52266">
        <ele>1662.76</ele>
        <time>2026-01-14T08:27:41Z</time>
      </trkpt>
      <trkpt lat="42.52821" lon="0.52269">
        <ele>1662.73</ele>
        <time>2026-01-14T08:27:44Z</time>
      </trkpt>
      <trkpt lat="42.5282" lon="0.52276">
        <ele>1662.99</ele>
        <time>2026-01-14T08:27:49Z</time>
      </trkpt>
      <trkpt lat="42.52804" lon="0.52297">
        <ele>1664.56</ele>
        <time>2026-01-14T08:28:09Z</time>
      </trkpt>
      <trkpt lat="42.52795" lon="0.52318">
        <ele>1666.11</ele>
        <time>2026-01-14T08:28:28Z</time>
      </trkpt>
      <trkpt lat="42.52795" lon="0.52316">
        <ele>1665.93</ele>
        <time>2026-01-14T08:28:43Z</time>
      </trkpt>
      <trkpt lat="42.52795" lon="0.5232">
        <ele>1665.86</ele>
        <time>2026-01-14T08:29:04Z</time>
      </trkpt>
      <trkpt lat="42.52793" lon="0.52326">
        <ele>1667.89</ele>
        <time>2026-01-14T08:29:08Z</time>
      </trkpt>
      <trkpt lat="42.52783" lon="0.52351">
        <ele>1668.77</ele>
        <time>2026-01-14T08:29:24Z</time>
      </trkpt>
      <trkpt lat="42.52778" lon="0.52379">
        <ele>1670.82</ele>
        <time>2026-01-14T08:29:39Z</time>
      </trkpt>
      <trkpt lat="42.52778" lon="0.52391">
        <ele>1672.26</ele>
        <time>2026-01-14T08:29:46Z</time>
      </trkpt>
      <trkpt lat="42.52781" lon="0.52391">
        <ele>1672.9</ele>
        <time>2026-01-14T08:29:49Z</time>
      </trkpt>
      <trkpt lat="42.52784" lon="0.52388">
        <ele>1673.91</ele>
        <time>2026-01-14T08:29:53Z</time>
      </trkpt>
      <trkpt lat="42.52787" lon="0.52384">
        <ele>1674.56</ele>
        <time>2026-01-14T08:29:56Z</time>
      </trkpt>
      <trkpt lat="42.52792" lon="0.52375">
        <ele>1674.98</ele>
        <time>2026-01-14T08:30:02Z</time>
      </trkpt>
      <trkpt lat="42.52795" lon="0.5237">
        <ele>1675.32</ele>
        <time>2026-01-14T08:30:06Z</time>
      </trkpt>
      <trkpt lat="42.528" lon="0.5236">
        <ele>1675.96</ele>
        <time>2026-01-14T08:30:12Z</time>
      </trkpt>
      <trkpt lat="42.52808" lon="0.52342">
        <ele>1676.28</ele>
        <time>2026-01-14T08:30:26Z</time>
      </trkpt>
      <trkpt lat="42.52809" lon="0.52341">
        <ele>1676.6</ele>
        <time>2026-01-14T08:30:29Z</time>
      </trkpt>
      <trkpt lat="42.52817" lon="0.52334">
        <ele>1677.22</ele>
        <time>2026-01-14T08:30:36Z</time>
      </trkpt>
      <trkpt lat="42.52824" lon="0.52329">
        <ele>1678.02</ele>
        <time>2026-01-14T08:30:41Z</time>
      </trkpt>
      <trkpt lat="42.5284" lon="0.52322">
        <ele>1680.48</ele>
        <time>2026-01-14T08:30:54Z</time>
      </trkpt>
      <trkpt lat="42.52841" lon="0.52322">
        <ele>1680.8</ele>
        <time>2026-01-14T08:30:55Z</time>
      </trkpt>
      <trkpt lat="42.52848" lon="0.5232">
        <ele>1681.36</ele>
        <time>2026-01-14T08:31:00Z</time>
      </trkpt>
      <trkpt lat="42.52859" lon="0.52333">
        <ele>1683.48</ele>
        <time>2026-01-14T08:31:12Z</time>
      </trkpt>
      <trkpt lat="42.52851" lon="0.52356">
        <ele>1686.09</ele>
        <time>2026-01-14T08:31:26Z</time>
      </trkpt>
      <trkpt lat="42.52845" lon="0.52379">
        <ele>1687.66</ele>
        <time>2026-01-14T08:31:39Z</time>
      </trkpt>
      <trkpt lat="42.52845" lon="0.52382">
        <ele>1687.36</ele>
        <time>2026-01-14T08:31:40Z</time>
      </trkpt>
      <trkpt lat="42.52844" lon="0.52392">
        <ele>1688.33</ele>
        <time>2026-01-14T08:31:46Z</time>
      </trkpt>
      <trkpt lat="42.52842" lon="0.52409">
        <ele>1690.21</ele>
        <time>2026-01-14T08:31:56Z</time>
      </trkpt>
      <trkpt lat="42.52841" lon="0.52425">
        <ele>1690.62</ele>
        <time>2026-01-14T08:32:04Z</time>
      </trkpt>
      <trkpt lat="42.52841" lon="0.52437">
        <ele>1690.97</ele>
        <time>2026-01-14T08:32:09Z</time>
      </trkpt>
      <trkpt lat="42.5284" lon="0.52452">
        <ele>1692.95</ele>
        <time>2026-01-14T08:32:18Z</time>
      </trkpt>
      <trkpt lat="42.52838" lon="0.52463">
        <ele>1693.8</ele>
        <time>2026-01-14T08:32:24Z</time>
      </trkpt>
      <trkpt lat="42.52832" lon="0.52481">
        <ele>1695.39</ele>
        <time>2026-01-14T08:32:36Z</time>
      </trkpt>
      <trkpt lat="42.52829" lon="0.52494">
        <ele>1696.67</ele>
        <time>2026-01-14T08:32:44Z</time>
      </trkpt>
      <trkpt lat="42.52824" lon="0.52511">
        <ele>1697.31</ele>
        <time>2026-01-14T08:32:54Z</time>
      </trkpt>
      <trkpt lat="42.52824" lon="0.52513">
        <ele>1697.56</ele>
        <time>2026-01-14T08:32:56Z</time>
      </trkpt>
      <trkpt lat="42.52816" lon="0.52527">
        <ele>1699.2</ele>
        <time>2026-01-14T08:33:06Z</time>
      </trkpt>
      <trkpt lat="42.52815" lon="0.52529">
        <ele>1699.28</ele>
        <time>2026-01-14T08:33:08Z</time>
      </trkpt>
      <trkpt lat="42.52813" lon="0.52533">
        <ele>1700.32</ele>
        <time>2026-01-14T08:33:11Z</time>
      </trkpt>
      <trkpt lat="42.52807" lon="0.52547">
        <ele>1701.33</ele>
        <time>2026-01-14T08:33:20Z</time>
      </trkpt>
      <trkpt lat="42.52805" lon="0.52552">
        <ele>1701.34</ele>
        <time>2026-01-14T08:33:24Z</time>
      </trkpt>
      <trkpt lat="42.528" lon="0.52576">
        <ele>1703.56</ele>
        <time>2026-01-14T08:33:41Z</time>
      </trkpt>
      <trkpt lat="42.52797" lon="0.52585">
        <ele>1704.42</ele>
        <time>2026-01-14T08:33:48Z</time>
      </trkpt>
      <trkpt lat="42.52792" lon="0.52598">
        <ele>1705.7</ele>
        <time>2026-01-14T08:33:56Z</time>
      </trkpt>
      <trkpt lat="42.5279" lon="0.52603">
        <ele>1706.59</ele>
        <time>2026-01-14T08:34:00Z</time>
      </trkpt>
      <trkpt lat="42.52786" lon="0.52615">
        <ele>1707.96</ele>
        <time>2026-01-14T08:34:08Z</time>
      </trkpt>
      <trkpt lat="42.52782" lon="0.52633">
        <ele>1709.42</ele>
        <time>2026-01-14T08:34:21Z</time>
      </trkpt>
      <trkpt lat="42.5278" lon="0.52642">
        <ele>1710.23</ele>
        <time>2026-01-14T08:34:29Z</time>
      </trkpt>
      <trkpt lat="42.52776" lon="0.52648">
        <ele>1710.95</ele>
        <time>2026-01-14T08:34:35Z</time>
      </trkpt>
      <trkpt lat="42.52771" lon="0.52655">
        <ele>1711.93</ele>
        <time>2026-01-14T08:34:41Z</time>
      </trkpt>
      <trkpt lat="42.52767" lon="0.52661">
        <ele>1712.04</ele>
        <time>2026-01-14T08:34:46Z</time>
      </trkpt>
      <trkpt lat="42.52766" lon="0.52664">
        <ele>1712.83</ele>
        <time>2026-01-14T08:34:48Z</time>
      </trkpt>
      <trkpt lat="42.52763" lon="0.52669">
        <ele>1712.93</ele>
        <time>2026-01-14T08:34:51Z</time>
      </trkpt>
      <trkpt lat="42.52761" lon="0.52676">
        <ele>1713.12</ele>
        <time>2026-01-14T08:34:56Z</time>
      </trkpt>
      <trkpt lat="42.52763" lon="0.52679">
        <ele>1713.83</ele>
        <time>2026-01-14T08:34:59Z</time>
      </trkpt>
      <trkpt lat="42.52764" lon="0.52682">
        <ele>1713.84</ele>
        <time>2026-01-14T08:35:01Z</time>
      </trkpt>
      <trkpt lat="42.52766" lon="0.52683">
        <ele>1714.49</ele>
        <time>2026-01-14T08:35:04Z</time>
      </trkpt>
      <trkpt lat="42.52772" lon="0.52677">
        <ele>1715.26</ele>
        <time>2026-01-14T08:35:12Z</time>
      </trkpt>
      <trkpt lat="42.52781" lon="0.52667">
        <ele>1716.41</ele>
        <time>2026-01-14T08:35:21Z</time>
      </trkpt>
      <trkpt lat="42.52783" lon="0.52666">
        <ele>1716.32</ele>
        <time>2026-01-14T08:35:23Z</time>
      </trkpt>
      <trkpt lat="42.5279" lon="0.52659">
        <ele>1717.84</ele>
        <time>2026-01-14T08:35:31Z</time>
      </trkpt>
      <trkpt lat="42.52798" lon="0.5265">
        <ele>1716.97</ele>
        <time>2026-01-14T08:35:39Z</time>
      </trkpt>
      <trkpt lat="42.52807" lon="0.52639">
        <ele>1718.31</ele>
        <time>2026-01-14T08:35:49Z</time>
      </trkpt>
      <trkpt lat="42.52819" lon="0.52627">
        <ele>1718.67</ele>
        <time>2026-01-14T08:36:00Z</time>
      </trkpt>
      <trkpt lat="42.52825" lon="0.52621">
        <ele>1719.52</ele>
        <time>2026-01-14T08:36:07Z</time>
      </trkpt>
      <trkpt lat="42.52832" lon="0.52617">
        <ele>1719.59</ele>
        <time>2026-01-14T08:36:13Z</time>
      </trkpt>
      <trkpt lat="42.52839" lon="0.52612">
        <ele>1721.05</ele>
        <time>2026-01-14T08:36:19Z</time>
      </trkpt>
      <trkpt lat="42.52843" lon="0.52609">
        <ele>1721.58</ele>
        <time>2026-01-14T08:36:23Z</time>
      </trkpt>
      <trkpt lat="42.5285" lon="0.52605">
        <ele>1721.98</ele>
        <time>2026-01-14T08:36:29Z</time>
      </trkpt>
      <trkpt lat="42.52869" lon="0.52601">
        <ele>1725.56</ele>
        <time>2026-01-14T08:36:45Z</time>
      </trkpt>
      <trkpt lat="42.52896" lon="0.52598">
        <ele>1728.13</ele>
        <time>2026-01-14T08:37:08Z</time>
      </trkpt>
      <trkpt lat="42.52917" lon="0.52599">
        <ele>1730.24</ele>
        <time>2026-01-14T08:37:28Z</time>
      </trkpt>
      <trkpt lat="42.52934" lon="0.52601">
        <ele>1733.25</ele>
        <time>2026-01-14T08:37:44Z</time>
      </trkpt>
      <trkpt lat="42.52939" lon="0.52596">
        <ele>1734.64</ele>
        <time>2026-01-14T08:37:50Z</time>
      </trkpt>
      <trkpt lat="42.52957" lon="0.52581">
        <ele>1735.75</ele>
        <time>2026-01-14T08:38:08Z</time>
      </trkpt>
      <trkpt lat="42.52969" lon="0.52573">
        <ele>1736.96</ele>
        <time>2026-01-14T08:38:25Z</time>
      </trkpt>
      <trkpt lat="42.52973" lon="0.52573">
        <ele>1736.96</ele>
        <time>2026-01-14T08:38:30Z</time>
      </trkpt>
      <trkpt lat="42.52994" lon="0.52587">
        <ele>1738.98</ele>
        <time>2026-01-14T08:38:51Z</time>
      </trkpt>
      <trkpt lat="42.52996" lon="0.5259">
        <ele>1739.15</ele>
        <time>2026-01-14T08:38:53Z</time>
      </trkpt>
      <trkpt lat="42.53014" lon="0.52605">
        <ele>1742.88</ele>
        <time>2026-01-14T08:39:13Z</time>
      </trkpt>
      <trkpt lat="42.53033" lon="0.52604">
        <ele>1746.06</ele>
        <time>2026-01-14T08:39:31Z</time>
      </trkpt>
      <trkpt lat="42.53036" lon="0.52606">
        <ele>1745.89</ele>
        <time>2026-01-14T08:39:34Z</time>
      </trkpt>
      <trkpt lat="42.53039" lon="0.52618">
        <ele>1746.98</ele>
        <time>2026-01-14T08:39:44Z</time>
      </trkpt>
      <trkpt lat="42.53037" lon="0.52621">
        <ele>1747.15</ele>
        <time>2026-01-14T08:39:48Z</time>
      </trkpt>
      <trkpt lat="42.53031" lon="0.52627">
        <ele>1748.21</ele>
        <time>2026-01-14T08:39:53Z</time>
      </trkpt>
      <trkpt lat="42.53019" lon="0.52637">
        <ele>1748.89</ele>
        <time>2026-01-14T08:40:03Z</time>
      </trkpt>
      <trkpt lat="42.53018" lon="0.52638">
        <ele>1748.65</ele>
        <time>2026-01-14T08:40:05Z</time>
      </trkpt>
      <trkpt lat="42.53013" lon="0.52641">
        <ele>1749.86</ele>
        <time>2026-01-14T08:40:10Z</time>
      </trkpt>
      <trkpt lat="42.53008" lon="0.52649">
        <ele>1750.37</ele>
        <time>2026-01-14T08:40:18Z</time>
      </trkpt>
      <trkpt lat="42.53004" lon="0.52655">
        <ele>1751.28</ele>
        <time>2026-01-14T08:40:24Z</time>
      </trkpt>
      <trkpt lat="42.52996" lon="0.52668">
        <ele>1751.97</ele>
        <time>2026-01-14T08:40:35Z</time>
      </trkpt>
      <trkpt lat="42.52993" lon="0.52678">
        <ele>1752.79</ele>
        <time>2026-01-14T08:40:42Z</time>
      </trkpt>
      <trkpt lat="42.52991" lon="0.52685">
        <ele>1753.62</ele>
        <time>2026-01-14T08:40:47Z</time>
      </trkpt>
      <trkpt lat="42.52987" lon="0.52693">
        <ele>1753.99</ele>
        <time>2026-01-14T08:40:54Z</time>
      </trkpt>
      <trkpt lat="42.52988" lon="0.52698">
        <ele>1754.48</ele>
        <time>2026-01-14T08:41:09Z</time>
      </trkpt>
      <trkpt lat="42.52993" lon="0.52703">
        <ele>1755.21</ele>
        <time>2026-01-14T08:41:20Z</time>
      </trkpt>
      <trkpt lat="42.52993" lon="0.52706">
        <ele>1757.01</ele>
        <time>2026-01-14T08:41:22Z</time>
      </trkpt>
      <trkpt lat="42.52992" lon="0.52714">
        <ele>1758.87</ele>
        <time>2026-01-14T08:41:31Z</time>
      </trkpt>
      <trkpt lat="42.52993" lon="0.52723">
        <ele>1760.33</ele>
        <time>2026-01-14T08:41:40Z</time>
      </trkpt>
      <trkpt lat="42.52994" lon="0.52735">
        <ele>1763.61</ele>
        <time>2026-01-14T08:41:53Z</time>
      </trkpt>
      <trkpt lat="42.52994" lon="0.5275">
        <ele>1766.59</ele>
        <time>2026-01-14T08:42:12Z</time>
      </trkpt>
      <trkpt lat="42.53002" lon="0.52758">
        <ele>1769.51</ele>
        <time>2026-01-14T08:42:27Z</time>
      </trkpt>
      <trkpt lat="42.53003" lon="0.52759">
        <ele>1768.85</ele>
        <time>2026-01-14T08:42:28Z</time>
      </trkpt>
      <trkpt lat="42.53023" lon="0.52766">
        <ele>1771.51</ele>
        <time>2026-01-14T08:42:49Z</time>
      </trkpt>
      <trkpt lat="42.5304" lon="0.52774">
        <ele>1773.78</ele>
        <time>2026-01-14T08:43:07Z</time>
      </trkpt>
      <trkpt lat="42.5306" lon="0.52776">
        <ele>1775.92</ele>
        <time>2026-01-14T08:43:28Z</time>
      </trkpt>
      <trkpt lat="42.5308" lon="0.52779">
        <ele>1777.62</ele>
        <time>2026-01-14T08:43:48Z</time>
      </trkpt>
      <trkpt lat="42.531" lon="0.52786">
        <ele>1779.81</ele>
        <time>2026-01-14T08:44:07Z</time>
      </trkpt>
      <trkpt lat="42.53119" lon="0.52801">
        <ele>1782.79</ele>
        <time>2026-01-14T08:44:29Z</time>
      </trkpt>
      <trkpt lat="42.53133" lon="0.52806">
        <ele>1785.93</ele>
        <time>2026-01-14T08:44:44Z</time>
      </trkpt>
      <trkpt lat="42.53152" lon="0.52802">
        <ele>1787.08</ele>
        <time>2026-01-14T08:45:04Z</time>
      </trkpt>
      <trkpt lat="42.53173" lon="0.52801">
        <ele>1789.33</ele>
        <time>2026-01-14T08:45:24Z</time>
      </trkpt>
      <trkpt lat="42.53186" lon="0.52809">
        <ele>1791.56</ele>
        <time>2026-01-14T08:45:39Z</time>
      </trkpt>
      <trkpt lat="42.532" lon="0.52828">
        <ele>1793.74</ele>
        <time>2026-01-14T08:45:58Z</time>
      </trkpt>
      <trkpt lat="42.53205" lon="0.52856">
        <ele>1795.17</ele>
        <time>2026-01-14T08:46:18Z</time>
      </trkpt>
      <trkpt lat="42.53207" lon="0.52863">
        <ele>1796.02</ele>
        <time>2026-01-14T08:46:24Z</time>
      </trkpt>
      <trkpt lat="42.53216" lon="0.52887">
        <ele>1799.01</ele>
        <time>2026-01-14T08:46:43Z</time>
      </trkpt>
      <trkpt lat="42.53221" lon="0.52907">
        <ele>1800.5</ele>
        <time>2026-01-14T08:46:59Z</time>
      </trkpt>
      <trkpt lat="42.53227" lon="0.52931">
        <ele>1803.28</ele>
        <time>2026-01-14T08:47:18Z</time>
      </trkpt>
      <trkpt lat="42.53232" lon="0.52956">
        <ele>1805.07</ele>
        <time>2026-01-14T08:47:36Z</time>
      </trkpt>
      <trkpt lat="42.53234" lon="0.52962">
        <ele>1806.01</ele>
        <time>2026-01-14T08:47:41Z</time>
      </trkpt>
      <trkpt lat="42.5324" lon="0.52966">
        <ele>1807.01</ele>
        <time>2026-01-14T08:47:49Z</time>
      </trkpt>
      <trkpt lat="42.53242" lon="0.52967">
        <ele>1807.35</ele>
        <time>2026-01-14T08:47:51Z</time>
      </trkpt>
      <trkpt lat="42.53252" lon="0.52949">
        <ele>1807.89</ele>
        <time>2026-01-14T08:48:06Z</time>
      </trkpt>
      <trkpt lat="42.5326" lon="0.52938">
        <ele>1809.61</ele>
        <time>2026-01-14T08:48:15Z</time>
      </trkpt>
      <trkpt lat="42.53272" lon="0.52917">
        <ele>1811.7</ele>
        <time>2026-01-14T08:48:33Z</time>
      </trkpt>
      <trkpt lat="42.53294" lon="0.52915">
        <ele>1814.24</ele>
        <time>2026-01-14T08:48:54Z</time>
      </trkpt>
      <trkpt lat="42.53313" lon="0.52921">
        <ele>1816.77</ele>
        <time>2026-01-14T08:49:14Z</time>
      </trkpt>
      <trkpt lat="42.53333" lon="0.52922">
        <ele>1819.21</ele>
        <time>2026-01-14T08:49:34Z</time>
      </trkpt>
      <trkpt lat="42.5334" lon="0.52927">
        <ele>1820.88</ele>
        <time>2026-01-14T08:49:43Z</time>
      </trkpt>
      <trkpt lat="42.53342" lon="0.52932">
        <ele>1822.02</ele>
        <time>2026-01-14T08:49:48Z</time>
      </trkpt>
      <trkpt lat="42.53339" lon="0.52939">
        <ele>1822.53</ele>
        <time>2026-01-14T08:49:54Z</time>
      </trkpt>
      <trkpt lat="42.53321" lon="0.52956">
        <ele>1824.5</ele>
        <time>2026-01-14T08:50:18Z</time>
      </trkpt>
      <trkpt lat="42.5332" lon="0.52958">
        <ele>1824.56</ele>
        <time>2026-01-14T08:50:20Z</time>
      </trkpt>
      <trkpt lat="42.53313" lon="0.52978">
        <ele>1827.58</ele>
        <time>2026-01-14T08:50:39Z</time>
      </trkpt>
      <trkpt lat="42.53312" lon="0.52991">
        <ele>1828.45</ele>
        <time>2026-01-14T08:50:55Z</time>
      </trkpt>
      <trkpt lat="42.53307" lon="0.53001">
        <ele>1830.4</ele>
        <time>2026-01-14T08:51:10Z</time>
      </trkpt>
      <trkpt lat="42.53298" lon="0.53013">
        <ele>1832.34</ele>
        <time>2026-01-14T08:51:27Z</time>
      </trkpt>
      <trkpt lat="42.53297" lon="0.53015">
        <ele>1833.34</ele>
        <time>2026-01-14T08:51:29Z</time>
      </trkpt>
      <trkpt lat="42.53294" lon="0.5302">
        <ele>1832.93</ele>
        <time>2026-01-14T08:51:35Z</time>
      </trkpt>
      <trkpt lat="42.53291" lon="0.5304">
        <ele>1834.48</ele>
        <time>2026-01-14T08:51:52Z</time>
      </trkpt>
      <trkpt lat="42.53291" lon="0.53066">
        <ele>1835.96</ele>
        <time>2026-01-14T08:52:12Z</time>
      </trkpt>
      <trkpt lat="42.53295" lon="0.5309">
        <ele>1835.96</ele>
        <time>2026-01-14T08:52:30Z</time>
      </trkpt>
      <trkpt lat="42.53295" lon="0.53095">
        <ele>1837.78</ele>
        <time>2026-01-14T08:52:34Z</time>
      </trkpt>
      <trkpt lat="42.53297" lon="0.53118">
        <ele>1839.54</ele>
        <time>2026-01-14T08:52:52Z</time>
      </trkpt>
      <trkpt lat="42.53297" lon="0.53128">
        <ele>1840.49</ele>
        <time>2026-01-14T08:53:01Z</time>
      </trkpt>
      <trkpt lat="42.53296" lon="0.53131">
        <ele>1841</ele>
        <time>2026-01-14T08:53:03Z</time>
      </trkpt>
      <trkpt lat="42.53293" lon="0.53149">
        <ele>1841.63</ele>
        <time>2026-01-14T08:53:18Z</time>
      </trkpt>
      <trkpt lat="42.53288" lon="0.53169">
        <ele>1843.25</ele>
        <time>2026-01-14T08:53:34Z</time>
      </trkpt>
      <trkpt lat="42.53278" lon="0.5319">
        <ele>1845.5</ele>
        <time>2026-01-14T08:53:50Z</time>
      </trkpt>
      <trkpt lat="42.53277" lon="0.53191">
        <ele>1845.83</ele>
        <time>2026-01-14T08:53:51Z</time>
      </trkpt>
      <trkpt lat="42.53276" lon="0.53193">
        <ele>1845.55</ele>
        <time>2026-01-14T08:54:06Z</time>
      </trkpt>
      <trkpt lat="42.53275" lon="0.53192">
        <ele>1846.51</ele>
        <time>2026-01-14T08:54:19Z</time>
      </trkpt>
      <trkpt lat="42.53275" lon="0.53196">
        <ele>1845.65</ele>
        <time>2026-01-14T08:54:33Z</time>
      </trkpt>
      <trkpt lat="42.53275" lon="0.53196">
        <ele>1844.5</ele>
        <time>2026-01-14T08:54:46Z</time>
      </trkpt>
      <trkpt lat="42.53274" lon="0.53196">
        <ele>1844.86</ele>
        <time>2026-01-14T08:55:13Z</time>
      </trkpt>
      <trkpt lat="42.53274" lon="0.53197">
        <ele>1844.86</ele>
        <time>2026-01-14T08:55:15Z</time>
      </trkpt>
      <trkpt lat="42.53275" lon="0.53196">
        <ele>1844.78</ele>
        <time>2026-01-14T08:55:28Z</time>
      </trkpt>
      <trkpt lat="42.53274" lon="0.53195">
        <ele>1845.28</ele>
        <time>2026-01-14T08:56:07Z</time>
      </trkpt>
      <trkpt lat="42.53274" lon="0.53194">
        <ele>1845.95</ele>
        <time>2026-01-14T08:56:47Z</time>
      </trkpt>
      <trkpt lat="42.53275" lon="0.53195">
        <ele>1845.43</ele>
        <time>2026-01-14T08:57:47Z</time>
      </trkpt>
      <trkpt lat="42.53276" lon="0.53195">
        <ele>1845.25</ele>
        <time>2026-01-14T08:58:27Z</time>
      </trkpt>
      <trkpt lat="42.53275" lon="0.53195">
        <ele>1846.16</ele>
        <time>2026-01-14T08:59:28Z</time>
      </trkpt>
      <trkpt lat="42.53275" lon="0.53195">
        <ele>1845.57</ele>
        <time>2026-01-14T09:00:18Z</time>
      </trkpt>
      <trkpt lat="42.53275" lon="0.53196">
        <ele>1845.64</ele>
        <time>2026-01-14T09:01:25Z</time>
      </trkpt>
      <trkpt lat="42.53276" lon="0.53196">
        <ele>1847.64</ele>
        <time>2026-01-14T09:01:56Z</time>
      </trkpt>
      <trkpt lat="42.53276" lon="0.53197">
        <ele>1844.54</ele>
        <time>2026-01-14T09:02:03Z</time>
      </trkpt>
      <trkpt lat="42.53276" lon="0.53197">
        <ele>1848.04</ele>
        <time>2026-01-14T09:02:04Z</time>
      </trkpt>
      <trkpt lat="42.53269" lon="0.53194">
        <ele>1847.19</ele>
        <time>2026-01-14T09:02:23Z</time>
      </trkpt>
      <trkpt lat="42.5326" lon="0.53192">
        <ele>1847.98</ele>
        <time>2026-01-14T09:02:39Z</time>
      </trkpt>
      <trkpt lat="42.53256" lon="0.53196">
        <ele>1851.55</ele>
        <time>2026-01-14T09:02:53Z</time>
      </trkpt>
      <trkpt lat="42.53252" lon="0.53204">
        <ele>1854.15</ele>
        <time>2026-01-14T09:03:16Z</time>
      </trkpt>
      <trkpt lat="42.5325" lon="0.53206">
        <ele>1855.84</ele>
        <time>2026-01-14T09:03:42Z</time>
      </trkpt>
      <trkpt lat="42.53251" lon="0.53205">
        <ele>1859.75</ele>
        <time>2026-01-14T09:03:50Z</time>
      </trkpt>
      <trkpt lat="42.53251" lon="0.53206">
        <ele>1855.96</ele>
        <time>2026-01-14T09:03:51Z</time>
      </trkpt>
      <trkpt lat="42.53249" lon="0.53209">
        <ele>1857.66</ele>
        <time>2026-01-14T09:04:02Z</time>
      </trkpt>
      <trkpt lat="42.53243" lon="0.53216">
        <ele>1860.72</ele>
        <time>2026-01-14T09:04:23Z</time>
      </trkpt>
      <trkpt lat="42.53237" lon="0.53226">
        <ele>1863.8</ele>
        <time>2026-01-14T09:04:43Z</time>
      </trkpt>
      <trkpt lat="42.5323" lon="0.53236">
        <ele>1866.8</ele>
        <time>2026-01-14T09:05:05Z</time>
      </trkpt>
      <trkpt lat="42.53222" lon="0.53244">
        <ele>1869.17</ele>
        <time>2026-01-14T09:05:26Z</time>
      </trkpt>
      <trkpt lat="42.53219" lon="0.53247">
        <ele>1872.19</ele>
        <time>2026-01-14T09:05:42Z</time>
      </trkpt>
      <trkpt lat="42.53214" lon="0.53252">
        <ele>1873.94</ele>
        <time>2026-01-14T09:06:05Z</time>
      </trkpt>
      <trkpt lat="42.53213" lon="0.53253">
        <ele>1875.42</ele>
        <time>2026-01-14T09:06:12Z</time>
      </trkpt>
      <trkpt lat="42.53209" lon="0.53262">
        <ele>1878.68</ele>
        <time>2026-01-14T09:06:36Z</time>
      </trkpt>
      <trkpt lat="42.53207" lon="0.53271">
        <ele>1881.91</ele>
        <time>2026-01-14T09:07:00Z</time>
      </trkpt>
      <trkpt lat="42.53205" lon="0.53281">
        <ele>1885.13</ele>
        <time>2026-01-14T09:07:25Z</time>
      </trkpt>
      <trkpt lat="42.53204" lon="0.53294">
        <ele>1888.41</ele>
        <time>2026-01-14T09:07:53Z</time>
      </trkpt>
      <trkpt lat="42.532" lon="0.53304">
        <ele>1891.64</ele>
        <time>2026-01-14T09:08:14Z</time>
      </trkpt>
      <trkpt lat="42.53198" lon="0.53314">
        <ele>1895.11</ele>
        <time>2026-01-14T09:08:32Z</time>
      </trkpt>
      <trkpt lat="42.53193" lon="0.53324">
        <ele>1898.25</ele>
        <time>2026-01-14T09:08:58Z</time>
      </trkpt>
      <trkpt lat="42.53193" lon="0.53334">
        <ele>1901.26</ele>
        <time>2026-01-14T09:09:19Z</time>
      </trkpt>
      <trkpt lat="42.53193" lon="0.53343">
        <ele>1904.42</ele>
        <time>2026-01-14T09:09:36Z</time>
      </trkpt>
      <trkpt lat="42.53192" lon="0.53352">
        <ele>1907.7</ele>
        <time>2026-01-14T09:10:00Z</time>
      </trkpt>
      <trkpt lat="42.53189" lon="0.53362">
        <ele>1910.73</ele>
        <time>2026-01-14T09:10:21Z</time>
      </trkpt>
      <trkpt lat="42.53189" lon="0.53371">
        <ele>1913.84</ele>
        <time>2026-01-14T09:10:40Z</time>
      </trkpt>
      <trkpt lat="42.53188" lon="0.53377">
        <ele>1916.97</ele>
        <time>2026-01-14T09:10:54Z</time>
      </trkpt>
      <trkpt lat="42.53186" lon="0.53389">
        <ele>1919.94</ele>
        <time>2026-01-14T09:11:21Z</time>
      </trkpt>
      <trkpt lat="42.53185" lon="0.53396">
        <ele>1924.54</ele>
        <time>2026-01-14T09:11:42Z</time>
      </trkpt>
      <trkpt lat="42.53185" lon="0.53399">
        <ele>1922.12</ele>
        <time>2026-01-14T09:11:59Z</time>
      </trkpt>
      <trkpt lat="42.53179" lon="0.53397">
        <ele>1921.22</ele>
        <time>2026-01-14T09:12:18Z</time>
      </trkpt>
      <trkpt lat="42.53177" lon="0.53397">
        <ele>1922.03</ele>
        <time>2026-01-14T09:12:39Z</time>
      </trkpt>
      <trkpt lat="42.53173" lon="0.53401">
        <ele>1925.28</ele>
        <time>2026-01-14T09:12:55Z</time>
      </trkpt>
      <trkpt lat="42.5317" lon="0.53411">
        <ele>1928.27</ele>
        <time>2026-01-14T09:13:18Z</time>
      </trkpt>
      <trkpt lat="42.53173" lon="0.53421">
        <ele>1931.35</ele>
        <time>2026-01-14T09:13:42Z</time>
      </trkpt>
      <trkpt lat="42.53172" lon="0.53432">
        <ele>1934.4</ele>
        <time>2026-01-14T09:14:07Z</time>
      </trkpt>
      <trkpt lat="42.53173" lon="0.53443">
        <ele>1937.67</ele>
        <time>2026-01-14T09:14:32Z</time>
      </trkpt>
      <trkpt lat="42.53173" lon="0.53456">
        <ele>1940.82</ele>
        <time>2026-01-14T09:14:54Z</time>
      </trkpt>
      <trkpt lat="42.5317" lon="0.53465">
        <ele>1943.89</ele>
        <time>2026-01-14T09:15:22Z</time>
      </trkpt>
      <trkpt lat="42.5317" lon="0.53467">
        <ele>1944.95</ele>
        <time>2026-01-14T09:15:27Z</time>
      </trkpt>
      <trkpt lat="42.53171" lon="0.53477">
        <ele>1947.01</ele>
        <time>2026-01-14T09:15:49Z</time>
      </trkpt>
      <trkpt lat="42.5317" lon="0.53478">
        <ele>1948.25</ele>
        <time>2026-01-14T09:15:52Z</time>
      </trkpt>
      <trkpt lat="42.53169" lon="0.53483">
        <ele>1950.57</ele>
        <time>2026-01-14T09:16:06Z</time>
      </trkpt>
      <trkpt lat="42.53165" lon="0.53492">
        <ele>1954.34</ele>
        <time>2026-01-14T09:16:32Z</time>
      </trkpt>
      <trkpt lat="42.53161" lon="0.535">
        <ele>1956.41</ele>
        <time>2026-01-14T09:16:53Z</time>
      </trkpt>
      <trkpt lat="42.53161" lon="0.53503">
        <ele>1959.44</ele>
        <time>2026-01-14T09:17:04Z</time>
      </trkpt>
      <trkpt lat="42.53156" lon="0.53511">
        <ele>1962.04</ele>
        <time>2026-01-14T09:17:27Z</time>
      </trkpt>
      <trkpt lat="42.53152" lon="0.53519">
        <ele>1964.75</ele>
        <time>2026-01-14T09:17:53Z</time>
      </trkpt>
      <trkpt lat="42.53147" lon="0.53525">
        <ele>1968.26</ele>
        <time>2026-01-14T09:18:17Z</time>
      </trkpt>
      <trkpt lat="42.5314" lon="0.53526">
        <ele>1970.71</ele>
        <time>2026-01-14T09:18:41Z</time>
      </trkpt>
      <trkpt lat="42.53137" lon="0.5353">
        <ele>1973.74</ele>
        <time>2026-01-14T09:18:55Z</time>
      </trkpt>
      <trkpt lat="42.53138" lon="0.53536">
        <ele>1976.64</ele>
        <time>2026-01-14T09:19:20Z</time>
      </trkpt>
      <trkpt lat="42.53138" lon="0.53547">
        <ele>1979.7</ele>
        <time>2026-01-14T09:19:42Z</time>
      </trkpt>
      <trkpt lat="42.53137" lon="0.53557">
        <ele>1981.56</ele>
        <time>2026-01-14T09:20:05Z</time>
      </trkpt>
      <trkpt lat="42.53131" lon="0.53562">
        <ele>1984.7</ele>
        <time>2026-01-14T09:20:26Z</time>
      </trkpt>
      <trkpt lat="42.53128" lon="0.53568">
        <ele>1987.05</ele>
        <time>2026-01-14T09:20:53Z</time>
      </trkpt>
      <trkpt lat="42.53125" lon="0.53571">
        <ele>1988.91</ele>
        <time>2026-01-14T09:21:13Z</time>
      </trkpt>
      <trkpt lat="42.5312" lon="0.5357">
        <ele>1991.29</ele>
        <time>2026-01-14T09:21:32Z</time>
      </trkpt>
      <trkpt lat="42.53115" lon="0.53573">
        <ele>1994.48</ele>
        <time>2026-01-14T09:21:51Z</time>
      </trkpt>
      <trkpt lat="42.53114" lon="0.53574">
        <ele>1995.51</ele>
        <time>2026-01-14T09:21:57Z</time>
      </trkpt>
      <trkpt lat="42.53113" lon="0.53575">
        <ele>1996.14</ele>
        <time>2026-01-14T09:22:26Z</time>
      </trkpt>
      <trkpt lat="42.5311" lon="0.53584">
        <ele>1998.55</ele>
        <time>2026-01-14T09:22:56Z</time>
      </trkpt>
      <trkpt lat="42.53106" lon="0.53591">
        <ele>2001.57</ele>
        <time>2026-01-14T09:23:13Z</time>
      </trkpt>
      <trkpt lat="42.53102" lon="0.53593">
        <ele>2004.06</ele>
        <time>2026-01-14T09:23:31Z</time>
      </trkpt>
      <trkpt lat="42.531" lon="0.536">
        <ele>2006.71</ele>
        <time>2026-01-14T09:23:54Z</time>
      </trkpt>
      <trkpt lat="42.53098" lon="0.53605">
        <ele>2008.99</ele>
        <time>2026-01-14T09:24:12Z</time>
      </trkpt>
      <trkpt lat="42.53095" lon="0.53612">
        <ele>2012.23</ele>
        <time>2026-01-14T09:24:32Z</time>
      </trkpt>
      <trkpt lat="42.53091" lon="0.53617">
        <ele>2014.7</ele>
        <time>2026-01-14T09:24:55Z</time>
      </trkpt>
      <trkpt lat="42.53086" lon="0.53622">
        <ele>2018.06</ele>
        <time>2026-01-14T09:25:18Z</time>
      </trkpt>
      <trkpt lat="42.53085" lon="0.53623">
        <ele>2018.69</ele>
        <time>2026-01-14T09:25:36Z</time>
      </trkpt>
      <trkpt lat="42.53084" lon="0.53624">
        <ele>2021.21</ele>
        <time>2026-01-14T09:25:57Z</time>
      </trkpt>
      <trkpt lat="42.53082" lon="0.53626">
        <ele>2022.2</ele>
        <time>2026-01-14T09:26:18Z</time>
      </trkpt>
      <trkpt lat="42.5308" lon="0.5363">
        <ele>2023.95</ele>
        <time>2026-01-14T09:26:43Z</time>
      </trkpt>
      <trkpt lat="42.53081" lon="0.53632">
        <ele>2024.74</ele>
        <time>2026-01-14T09:27:04Z</time>
      </trkpt>
      <trkpt lat="42.53081" lon="0.53631">
        <ele>2025.09</ele>
        <time>2026-01-14T09:27:31Z</time>
      </trkpt>
      <trkpt lat="42.53074" lon="0.53631">
        <ele>2025.53</ele>
        <time>2026-01-14T09:27:47Z</time>
      </trkpt>
      <trkpt lat="42.53063" lon="0.53628">
        <ele>2026.15</ele>
        <time>2026-01-14T09:28:06Z</time>
      </trkpt>
      <trkpt lat="42.53063" lon="0.53627">
        <ele>2026.44</ele>
        <time>2026-01-14T09:28:20Z</time>
      </trkpt>
      <trkpt lat="42.5306" lon="0.53625">
        <ele>2026.28</ele>
        <time>2026-01-14T09:28:41Z</time>
      </trkpt>
      <trkpt lat="42.5305" lon="0.53619">
        <ele>2026.65</ele>
        <time>2026-01-14T09:29:00Z</time>
      </trkpt>
      <trkpt lat="42.53044" lon="0.53613">
        <ele>2026.87</ele>
        <time>2026-01-14T09:29:21Z</time>
      </trkpt>
      <trkpt lat="42.53034" lon="0.53605">
        <ele>2027.56</ele>
        <time>2026-01-14T09:29:36Z</time>
      </trkpt>
      <trkpt lat="42.53031" lon="0.53603">
        <ele>2028.56</ele>
        <time>2026-01-14T09:29:57Z</time>
      </trkpt>
      <trkpt lat="42.53027" lon="0.53601">
        <ele>2027.83</ele>
        <time>2026-01-14T09:30:25Z</time>
      </trkpt>
      <trkpt lat="42.53026" lon="0.53601">
        <ele>2028.42</ele>
        <time>2026-01-14T09:30:27Z</time>
      </trkpt>
      <trkpt lat="42.53022" lon="0.53598">
        <ele>2029.01</ele>
        <time>2026-01-14T09:30:32Z</time>
      </trkpt>
      <trkpt lat="42.53005" lon="0.53587">
        <ele>2030.6</ele>
        <time>2026-01-14T09:30:50Z</time>
      </trkpt>
      <trkpt lat="42.5299" lon="0.53579">
        <ele>2032.47</ele>
        <time>2026-01-14T09:31:07Z</time>
      </trkpt>
      <trkpt lat="42.52988" lon="0.53578">
        <ele>2032.32</ele>
        <time>2026-01-14T09:31:27Z</time>
      </trkpt>
      <trkpt lat="42.52985" lon="0.53576">
        <ele>2033.26</ele>
        <time>2026-01-14T09:31:31Z</time>
      </trkpt>
      <trkpt lat="42.52977" lon="0.53572">
        <ele>2033.76</ele>
        <time>2026-01-14T09:31:40Z</time>
      </trkpt>
      <trkpt lat="42.52972" lon="0.53568">
        <ele>2034.23</ele>
        <time>2026-01-14T09:31:45Z</time>
      </trkpt>
      <trkpt lat="42.52955" lon="0.53564">
        <ele>2037.17</ele>
        <time>2026-01-14T09:32:04Z</time>
      </trkpt>
      <trkpt lat="42.52954" lon="0.53569">
        <ele>2038.66</ele>
        <time>2026-01-14T09:32:10Z</time>
      </trkpt>
      <trkpt lat="42.52955" lon="0.53569">
        <ele>2038.87</ele>
        <time>2026-01-14T09:32:34Z</time>
      </trkpt>
      <trkpt lat="42.52957" lon="0.53574">
        <ele>2042.12</ele>
        <time>2026-01-14T09:32:53Z</time>
      </trkpt>
      <trkpt lat="42.52964" lon="0.53587">
        <ele>2045.43</ele>
        <time>2026-01-14T09:33:15Z</time>
      </trkpt>
      <trkpt lat="42.52964" lon="0.53596">
        <ele>2048.6</ele>
        <time>2026-01-14T09:33:30Z</time>
      </trkpt>
      <trkpt lat="42.52964" lon="0.53607">
        <ele>2052.16</ele>
        <time>2026-01-14T09:33:51Z</time>
      </trkpt>
      <trkpt lat="42.52963" lon="0.53616">
        <ele>2055.25</ele>
        <time>2026-01-14T09:34:10Z</time>
      </trkpt>
      <trkpt lat="42.52961" lon="0.5362">
        <ele>2057.08</ele>
        <time>2026-01-14T09:34:20Z</time>
      </trkpt>
      <trkpt lat="42.52965" lon="0.53632">
        <ele>2060.69</ele>
        <time>2026-01-14T09:34:41Z</time>
      </trkpt>
      <trkpt lat="42.52966" lon="0.53641">
        <ele>2063.78</ele>
        <time>2026-01-14T09:35:00Z</time>
      </trkpt>
      <trkpt lat="42.52968" lon="0.53647">
        <ele>2064</ele>
        <time>2026-01-14T09:35:31Z</time>
      </trkpt>
      <trkpt lat="42.52969" lon="0.53655">
        <ele>2066.99</ele>
        <time>2026-01-14T09:35:58Z</time>
      </trkpt>
      <trkpt lat="42.5297" lon="0.53656">
        <ele>2067.51</ele>
        <time>2026-01-14T09:35:59Z</time>
      </trkpt>
      <trkpt lat="42.52975" lon="0.53676">
        <ele>2070.09</ele>
        <time>2026-01-14T09:36:20Z</time>
      </trkpt>
      <trkpt lat="42.52975" lon="0.53676">
        <ele>2068.58</ele>
        <time>2026-01-14T09:36:37Z</time>
      </trkpt>
      <trkpt lat="42.52975" lon="0.53676">
        <ele>2070.66</ele>
        <time>2026-01-14T09:37:17Z</time>
      </trkpt>
      <trkpt lat="42.52978" lon="0.53692">
        <ele>2073.98</ele>
        <time>2026-01-14T09:37:37Z</time>
      </trkpt>
      <trkpt lat="42.52981" lon="0.53709">
        <ele>2076.99</ele>
        <time>2026-01-14T09:37:56Z</time>
      </trkpt>
      <trkpt lat="42.52985" lon="0.53728">
        <ele>2080.34</ele>
        <time>2026-01-14T09:38:18Z</time>
      </trkpt>
      <trkpt lat="42.52986" lon="0.53742">
        <ele>2083.69</ele>
        <time>2026-01-14T09:38:37Z</time>
      </trkpt>
      <trkpt lat="42.52984" lon="0.53755">
        <ele>2087.18</ele>
        <time>2026-01-14T09:38:56Z</time>
      </trkpt>
      <trkpt lat="42.52981" lon="0.5377">
        <ele>2089.03</ele>
        <time>2026-01-14T09:39:16Z</time>
      </trkpt>
      <trkpt lat="42.52979" lon="0.53785">
        <ele>2092.35</ele>
        <time>2026-01-14T09:39:34Z</time>
      </trkpt>
      <trkpt lat="42.52976" lon="0.53801">
        <ele>2095.73</ele>
        <time>2026-01-14T09:39:56Z</time>
      </trkpt>
      <trkpt lat="42.5297" lon="0.53818">
        <ele>2098.84</ele>
        <time>2026-01-14T09:40:18Z</time>
      </trkpt>
      <trkpt lat="42.52963" lon="0.53837">
        <ele>2101.29</ele>
        <time>2026-01-14T09:40:40Z</time>
      </trkpt>
      <trkpt lat="42.52961" lon="0.53843">
        <ele>2101.95</ele>
        <time>2026-01-14T09:41:00Z</time>
      </trkpt>
      <trkpt lat="42.52957" lon="0.53864">
        <ele>2104.35</ele>
        <time>2026-01-14T09:41:20Z</time>
      </trkpt>
      <trkpt lat="42.52953" lon="0.53875">
        <ele>2106.13</ele>
        <time>2026-01-14T09:41:38Z</time>
      </trkpt>
      <trkpt lat="42.52952" lon="0.53881">
        <ele>2106.45</ele>
        <time>2026-01-14T09:41:46Z</time>
      </trkpt>
      <trkpt lat="42.52949" lon="0.53906">
        <ele>2109.18</ele>
        <time>2026-01-14T09:42:05Z</time>
      </trkpt>
      <trkpt lat="42.52946" lon="0.53924">
        <ele>2109.38</ele>
        <time>2026-01-14T09:42:22Z</time>
      </trkpt>
      <trkpt lat="42.52943" lon="0.53938">
        <ele>2109.73</ele>
        <time>2026-01-14T09:42:40Z</time>
      </trkpt>
      <trkpt lat="42.52942" lon="0.53939">
        <ele>2110.42</ele>
        <time>2026-01-14T09:43:05Z</time>
      </trkpt>
      <trkpt lat="42.52941" lon="0.53939">
        <ele>2110.64</ele>
        <time>2026-01-14T09:43:35Z</time>
      </trkpt>
      <trkpt lat="42.52941" lon="0.53939">
        <ele>2110.09</ele>
        <time>2026-01-14T09:44:02Z</time>
      </trkpt>
      <trkpt lat="42.52946" lon="0.53958">
        <ele>2112.69</ele>
        <time>2026-01-14T09:44:22Z</time>
      </trkpt>
      <trkpt lat="42.52948" lon="0.53962">
        <ele>2113.73</ele>
        <time>2026-01-14T09:44:45Z</time>
      </trkpt>
      <trkpt lat="42.5296" lon="0.5398">
        <ele>2116.26</ele>
        <time>2026-01-14T09:45:10Z</time>
      </trkpt>
      <trkpt lat="42.52963" lon="0.53988">
        <ele>2118.15</ele>
        <time>2026-01-14T09:45:31Z</time>
      </trkpt>
      <trkpt lat="42.52967" lon="0.53999">
        <ele>2119.16</ele>
        <time>2026-01-14T09:45:58Z</time>
      </trkpt>
      <trkpt lat="42.52972" lon="0.54014">
        <ele>2120.25</ele>
        <time>2026-01-14T09:46:24Z</time>
      </trkpt>
      <trkpt lat="42.52977" lon="0.54031">
        <ele>2123.38</ele>
        <time>2026-01-14T09:46:50Z</time>
      </trkpt>
      <trkpt lat="42.52984" lon="0.54046">
        <ele>2125.28</ele>
        <time>2026-01-14T09:47:15Z</time>
      </trkpt>
      <trkpt lat="42.52986" lon="0.54051">
        <ele>2125.77</ele>
        <time>2026-01-14T09:47:40Z</time>
      </trkpt>
      <trkpt lat="42.52985" lon="0.54053">
        <ele>2126.16</ele>
        <time>2026-01-14T09:48:02Z</time>
      </trkpt>
      <trkpt lat="42.52986" lon="0.54051">
        <ele>2125.49</ele>
        <time>2026-01-14T09:48:20Z</time>
      </trkpt>
      <trkpt lat="42.52988" lon="0.54057">
        <ele>2126.8</ele>
        <time>2026-01-14T09:48:42Z</time>
      </trkpt>
      <trkpt lat="42.52993" lon="0.54069">
        <ele>2128.31</ele>
        <time>2026-01-14T09:48:56Z</time>
      </trkpt>
      <trkpt lat="42.53003" lon="0.54086">
        <ele>2130.6</ele>
        <time>2026-01-14T09:49:17Z</time>
      </trkpt>
      <trkpt lat="42.53004" lon="0.54087">
        <ele>2131.55</ele>
        <time>2026-01-14T09:49:19Z</time>
      </trkpt>
      <trkpt lat="42.53017" lon="0.54098">
        <ele>2134.59</ele>
        <time>2026-01-14T09:49:43Z</time>
      </trkpt>
      <trkpt lat="42.53017" lon="0.541">
        <ele>2134.93</ele>
        <time>2026-01-14T09:50:10Z</time>
      </trkpt>
      <trkpt lat="42.53016" lon="0.54099">
        <ele>2134.46</ele>
        <time>2026-01-14T09:50:40Z</time>
      </trkpt>
      <trkpt lat="42.53019" lon="0.54101">
        <ele>2136.02</ele>
        <time>2026-01-14T09:51:13Z</time>
      </trkpt>
      <trkpt lat="42.53028" lon="0.54109">
        <ele>2136.79</ele>
        <time>2026-01-14T09:51:30Z</time>
      </trkpt>
      <trkpt lat="42.5303" lon="0.54109">
        <ele>2137.94</ele>
        <time>2026-01-14T09:51:59Z</time>
      </trkpt>
      <trkpt lat="42.5304" lon="0.54118">
        <ele>2141.4</ele>
        <time>2026-01-14T09:52:17Z</time>
      </trkpt>
      <trkpt lat="42.53052" lon="0.54131">
        <ele>2144.56</ele>
        <time>2026-01-14T09:52:39Z</time>
      </trkpt>
      <trkpt lat="42.53067" lon="0.54144">
        <ele>2147.67</ele>
        <time>2026-01-14T09:53:08Z</time>
      </trkpt>
      <trkpt lat="42.53073" lon="0.54141">
        <ele>2148.4</ele>
        <time>2026-01-14T09:53:20Z</time>
      </trkpt>
      <trkpt lat="42.53077" lon="0.54142">
        <ele>2149.83</ele>
        <time>2026-01-14T09:53:27Z</time>
      </trkpt>
      <trkpt lat="42.53087" lon="0.54154">
        <ele>2151.66</ele>
        <time>2026-01-14T09:53:49Z</time>
      </trkpt>
      <trkpt lat="42.5309" lon="0.54158">
        <ele>2153.35</ele>
        <time>2026-01-14T09:53:56Z</time>
      </trkpt>
      <trkpt lat="42.531" lon="0.54174">
        <ele>2155.73</ele>
        <time>2026-01-14T09:54:23Z</time>
      </trkpt>
      <trkpt lat="42.5311" lon="0.54185">
        <ele>2158.66</ele>
        <time>2026-01-14T09:54:49Z</time>
      </trkpt>
      <trkpt lat="42.53117" lon="0.54197">
        <ele>2161.69</ele>
        <time>2026-01-14T09:55:15Z</time>
      </trkpt>
      <trkpt lat="42.53126" lon="0.54205">
        <ele>2165.22</ele>
        <time>2026-01-14T09:55:39Z</time>
      </trkpt>
      <trkpt lat="42.53134" lon="0.54218">
        <ele>2169.14</ele>
        <time>2026-01-14T09:56:06Z</time>
      </trkpt>
      <trkpt lat="42.53143" lon="0.54232">
        <ele>2170.79</ele>
        <time>2026-01-14T09:56:33Z</time>
      </trkpt>
      <trkpt lat="42.53146" lon="0.54246">
        <ele>2173.81</ele>
        <time>2026-01-14T09:56:55Z</time>
      </trkpt>
      <trkpt lat="42.53151" lon="0.54265">
        <ele>2176.31</ele>
        <time>2026-01-14T09:57:25Z</time>
      </trkpt>
      <trkpt lat="42.53154" lon="0.54268">
        <ele>2177.86</ele>
        <time>2026-01-14T09:57:52Z</time>
      </trkpt>
      <trkpt lat="42.53161" lon="0.54279">
        <ele>2180.91</ele>
        <time>2026-01-14T09:58:14Z</time>
      </trkpt>
      <trkpt lat="42.53167" lon="0.54287">
        <ele>2183.5</ele>
        <time>2026-01-14T09:58:34Z</time>
      </trkpt>
      <trkpt lat="42.53173" lon="0.543">
        <ele>2186.58</ele>
        <time>2026-01-14T09:58:58Z</time>
      </trkpt>
      <trkpt lat="42.5318" lon="0.54304">
        <ele>2189.61</ele>
        <time>2026-01-14T09:59:18Z</time>
      </trkpt>
      <trkpt lat="42.53187" lon="0.54312">
        <ele>2192.65</ele>
        <time>2026-01-14T09:59:42Z</time>
      </trkpt>
      <trkpt lat="42.53193" lon="0.54314">
        <ele>2195.87</ele>
        <time>2026-01-14T10:00:00Z</time>
      </trkpt>
      <trkpt lat="42.532" lon="0.5432">
        <ele>2198.88</ele>
        <time>2026-01-14T10:00:21Z</time>
      </trkpt>
      <trkpt lat="42.5321" lon="0.54329">
        <ele>2201.55</ele>
        <time>2026-01-14T10:00:44Z</time>
      </trkpt>
      <trkpt lat="42.53217" lon="0.54335">
        <ele>2204.67</ele>
        <time>2026-01-14T10:01:02Z</time>
      </trkpt>
      <trkpt lat="42.5323" lon="0.54349">
        <ele>2205.38</ele>
        <time>2026-01-14T10:01:28Z</time>
      </trkpt>
      <trkpt lat="42.53241" lon="0.54365">
        <ele>2208.59</ele>
        <time>2026-01-14T10:01:56Z</time>
      </trkpt>
      <trkpt lat="42.53249" lon="0.54381">
        <ele>2211.07</ele>
        <time>2026-01-14T10:02:22Z</time>
      </trkpt>
      <trkpt lat="42.5325" lon="0.54382">
        <ele>2211.91</ele>
        <time>2026-01-14T10:02:24Z</time>
      </trkpt>
      <trkpt lat="42.53255" lon="0.54388">
        <ele>2213.04</ele>
        <time>2026-01-14T10:02:35Z</time>
      </trkpt>
      <trkpt lat="42.53268" lon="0.544">
        <ele>2215.07</ele>
        <time>2026-01-14T10:03:01Z</time>
      </trkpt>
      <trkpt lat="42.53276" lon="0.54413">
        <ele>2218.08</ele>
        <time>2026-01-14T10:03:23Z</time>
      </trkpt>
      <trkpt lat="42.53287" lon="0.5443">
        <ele>2220.87</ele>
        <time>2026-01-14T10:03:49Z</time>
      </trkpt>
      <trkpt lat="42.53292" lon="0.54445">
        <ele>2221.67</ele>
        <time>2026-01-14T10:04:08Z</time>
      </trkpt>
      <trkpt lat="42.53298" lon="0.54454">
        <ele>2223.5</ele>
        <time>2026-01-14T10:04:20Z</time>
      </trkpt>
      <trkpt lat="42.53303" lon="0.54466">
        <ele>2225.85</ele>
        <time>2026-01-14T10:04:38Z</time>
      </trkpt>
      <trkpt lat="42.53311" lon="0.54482">
        <ele>2225.94</ele>
        <time>2026-01-14T10:04:56Z</time>
      </trkpt>
      <trkpt lat="42.53312" lon="0.54482">
        <ele>2226.19</ele>
        <time>2026-01-14T10:04:57Z</time>
      </trkpt>
      <trkpt lat="42.53324" lon="0.54504">
        <ele>2223.79</ele>
        <time>2026-01-14T10:05:17Z</time>
      </trkpt>
      <trkpt lat="42.53333" lon="0.54526">
        <ele>2222.95</ele>
        <time>2026-01-14T10:05:36Z</time>
      </trkpt>
      <trkpt lat="42.53342" lon="0.54544">
        <ele>2223.16</ele>
        <time>2026-01-14T10:05:55Z</time>
      </trkpt>
      <trkpt lat="42.53353" lon="0.54561">
        <ele>2225.77</ele>
        <time>2026-01-14T10:06:18Z</time>
      </trkpt>
      <trkpt lat="42.53367" lon="0.54578">
        <ele>2228.74</ele>
        <time>2026-01-14T10:06:44Z</time>
      </trkpt>
      <trkpt lat="42.53378" lon="0.54593">
        <ele>2230.9</ele>
        <time>2026-01-14T10:07:08Z</time>
      </trkpt>
      <trkpt lat="42.53393" lon="0.54611">
        <ele>2233.68</ele>
        <time>2026-01-14T10:07:37Z</time>
      </trkpt>
      <trkpt lat="42.53405" lon="0.54634">
        <ele>2236.7</ele>
        <time>2026-01-14T10:08:11Z</time>
      </trkpt>
      <trkpt lat="42.53414" lon="0.54651">
        <ele>2240.09</ele>
        <time>2026-01-14T10:08:39Z</time>
      </trkpt>
      <trkpt lat="42.53422" lon="0.54664">
        <ele>2243.1</ele>
        <time>2026-01-14T10:09:07Z</time>
      </trkpt>
      <trkpt lat="42.53428" lon="0.54677">
        <ele>2246.64</ele>
        <time>2026-01-14T10:09:31Z</time>
      </trkpt>
      <trkpt lat="42.53431" lon="0.54683">
        <ele>2247.79</ele>
        <time>2026-01-14T10:09:44Z</time>
      </trkpt>
      <trkpt lat="42.53438" lon="0.54696">
        <ele>2251.34</ele>
        <time>2026-01-14T10:10:09Z</time>
      </trkpt>
      <trkpt lat="42.53447" lon="0.54708">
        <ele>2254.65</ele>
        <time>2026-01-14T10:10:37Z</time>
      </trkpt>
      <trkpt lat="42.53458" lon="0.54714">
        <ele>2257.87</ele>
        <time>2026-01-14T10:11:02Z</time>
      </trkpt>
      <trkpt lat="42.53464" lon="0.54717">
        <ele>2260.53</ele>
        <time>2026-01-14T10:11:18Z</time>
      </trkpt>
      <trkpt lat="42.53478" lon="0.54726">
        <ele>2263.9</ele>
        <time>2026-01-14T10:11:47Z</time>
      </trkpt>
      <trkpt lat="42.53488" lon="0.54734">
        <ele>2266.92</ele>
        <time>2026-01-14T10:12:09Z</time>
      </trkpt>
      <trkpt lat="42.53497" lon="0.54742">
        <ele>2269.98</ele>
        <time>2026-01-14T10:12:29Z</time>
      </trkpt>
      <trkpt lat="42.53508" lon="0.54752">
        <ele>2273.23</ele>
        <time>2026-01-14T10:12:51Z</time>
      </trkpt>
      <trkpt lat="42.53516" lon="0.54759">
        <ele>2275.87</ele>
        <time>2026-01-14T10:13:07Z</time>
      </trkpt>
      <trkpt lat="42.53531" lon="0.54767">
        <ele>2278.08</ele>
        <time>2026-01-14T10:13:32Z</time>
      </trkpt>
      <trkpt lat="42.53532" lon="0.54769">
        <ele>2276.48</ele>
        <time>2026-01-14T10:13:35Z</time>
      </trkpt>
      <trkpt lat="42.53536" lon="0.54785">
        <ele>2279.71</ele>
        <time>2026-01-14T10:13:58Z</time>
      </trkpt>
      <trkpt lat="42.53544" lon="0.54803">
        <ele>2282.95</ele>
        <time>2026-01-14T10:14:28Z</time>
      </trkpt>
      <trkpt lat="42.53552" lon="0.54823">
        <ele>2284.85</ele>
        <time>2026-01-14T10:14:57Z</time>
      </trkpt>
      <trkpt lat="42.53555" lon="0.54827">
        <ele>2286.7</ele>
        <time>2026-01-14T10:15:05Z</time>
      </trkpt>
      <trkpt lat="42.53559" lon="0.5484">
        <ele>2288.75</ele>
        <time>2026-01-14T10:15:25Z</time>
      </trkpt>
      <trkpt lat="42.5356" lon="0.54843">
        <ele>2289.79</ele>
        <time>2026-01-14T10:15:30Z</time>
      </trkpt>
      <trkpt lat="42.5356" lon="0.54851">
        <ele>2291.56</ele>
        <time>2026-01-14T10:15:53Z</time>
      </trkpt>
      <trkpt lat="42.53559" lon="0.54851">
        <ele>2291.78</ele>
        <time>2026-01-14T10:16:22Z</time>
      </trkpt>
      <trkpt lat="42.5356" lon="0.54853">
        <ele>2291.37</ele>
        <time>2026-01-14T10:16:42Z</time>
      </trkpt>
      <trkpt lat="42.53559" lon="0.54852">
        <ele>2290.28</ele>
        <time>2026-01-14T10:17:02Z</time>
      </trkpt>
      <trkpt lat="42.5356" lon="0.54853">
        <ele>2290.72</ele>
        <time>2026-01-14T10:17:38Z</time>
      </trkpt>
      <trkpt lat="42.53561" lon="0.54852">
        <ele>2290.41</ele>
        <time>2026-01-14T10:18:37Z</time>
      </trkpt>
      <trkpt lat="42.53561" lon="0.54853">
        <ele>2290.74</ele>
        <time>2026-01-14T10:19:09Z</time>
      </trkpt>
      <trkpt lat="42.53559" lon="0.54851">
        <ele>2290.33</ele>
        <time>2026-01-14T10:19:38Z</time>
      </trkpt>
      <trkpt lat="42.53559" lon="0.5485">
        <ele>2292.37</ele>
        <time>2026-01-14T10:19:58Z</time>
      </trkpt>
      <trkpt lat="42.53559" lon="0.5485">
        <ele>2292.67</ele>
        <time>2026-01-14T10:20:10Z</time>
      </trkpt>
      <trkpt lat="42.5356" lon="0.54849">
        <ele>2292.11</ele>
        <time>2026-01-14T10:20:24Z</time>
      </trkpt>
      <trkpt lat="42.5356" lon="0.54849">
        <ele>2291.51</ele>
        <time>2026-01-14T10:20:53Z</time>
      </trkpt>
      <trkpt lat="42.53553" lon="0.54864">
        <ele>2292.68</ele>
        <time>2026-01-14T10:21:18Z</time>
      </trkpt>
      <trkpt lat="42.53541" lon="0.54884">
        <ele>2293.47</ele>
        <time>2026-01-14T10:21:46Z</time>
      </trkpt>
      <trkpt lat="42.53528" lon="0.5491">
        <ele>2295.18</ele>
        <time>2026-01-14T10:22:17Z</time>
      </trkpt>
      <trkpt lat="42.53513" lon="0.54938">
        <ele>2296.85</ele>
        <time>2026-01-14T10:22:50Z</time>
      </trkpt>
      <trkpt lat="42.535" lon="0.54964">
        <ele>2299.1</ele>
        <time>2026-01-14T10:23:24Z</time>
      </trkpt>
      <trkpt lat="42.53492" lon="0.54985">
        <ele>2300.9</ele>
        <time>2026-01-14T10:23:48Z</time>
      </trkpt>
      <trkpt lat="42.53483" lon="0.55007">
        <ele>2302.84</ele>
        <time>2026-01-14T10:24:18Z</time>
      </trkpt>
      <trkpt lat="42.53477" lon="0.5503">
        <ele>2304.5</ele>
        <time>2026-01-14T10:24:38Z</time>
      </trkpt>
      <trkpt lat="42.53468" lon="0.55054">
        <ele>2306.13</ele>
        <time>2026-01-14T10:25:05Z</time>
      </trkpt>
      <trkpt lat="42.53461" lon="0.55071">
        <ele>2306.86</ele>
        <time>2026-01-14T10:25:26Z</time>
      </trkpt>
      <trkpt lat="42.53454" lon="0.55095">
        <ele>2308.01</ele>
        <time>2026-01-14T10:25:46Z</time>
      </trkpt>
      <trkpt lat="42.53444" lon="0.55116">
        <ele>2309.25</ele>
        <time>2026-01-14T10:26:10Z</time>
      </trkpt>
      <trkpt lat="42.53442" lon="0.55139">
        <ele>2311.77</ele>
        <time>2026-01-14T10:26:31Z</time>
      </trkpt>
      <trkpt lat="42.53439" lon="0.55163">
        <ele>2312.37</ele>
        <time>2026-01-14T10:26:53Z</time>
      </trkpt>
      <trkpt lat="42.53433" lon="0.55176">
        <ele>2313.45</ele>
        <time>2026-01-14T10:27:09Z</time>
      </trkpt>
      <trkpt lat="42.53424" lon="0.55186">
        <ele>2314.08</ele>
        <time>2026-01-14T10:27:25Z</time>
      </trkpt>
      <trkpt lat="42.53414" lon="0.55199">
        <ele>2314.68</ele>
        <time>2026-01-14T10:27:45Z</time>
      </trkpt>
      <trkpt lat="42.53411" lon="0.55215">
        <ele>2314.82</ele>
        <time>2026-01-14T10:28:02Z</time>
      </trkpt>
      <trkpt lat="42.5341" lon="0.55245">
        <ele>2316.2</ele>
        <time>2026-01-14T10:28:33Z</time>
      </trkpt>
      <trkpt lat="42.53414" lon="0.55272">
        <ele>2318.05</ele>
        <time>2026-01-14T10:29:02Z</time>
      </trkpt>
      <trkpt lat="42.53416" lon="0.55292">
        <ele>2319.7</ele>
        <time>2026-01-14T10:29:27Z</time>
      </trkpt>
      <trkpt lat="42.53426" lon="0.55317">
        <ele>2319.59</ele>
        <time>2026-01-14T10:29:54Z</time>
      </trkpt>
      <trkpt lat="42.53429" lon="0.55328">
        <ele>2319.92</ele>
        <time>2026-01-14T10:30:13Z</time>
      </trkpt>
      <trkpt lat="42.53437" lon="0.5534">
        <ele>2321.71</ele>
        <time>2026-01-14T10:30:36Z</time>
      </trkpt>
      <trkpt lat="42.53437" lon="0.5534">
        <ele>2321.47</ele>
        <time>2026-01-14T10:30:41Z</time>
      </trkpt>
      <trkpt lat="42.53431" lon="0.55356">
        <ele>2319.27</ele>
        <time>2026-01-14T10:31:05Z</time>
      </trkpt>
      <trkpt lat="42.5343" lon="0.55381">
        <ele>2316.98</ele>
        <time>2026-01-14T10:31:31Z</time>
      </trkpt>
      <trkpt lat="42.5343" lon="0.55388">
        <ele>2315.04</ele>
        <time>2026-01-14T10:31:38Z</time>
      </trkpt>
      <trkpt lat="42.53425" lon="0.55408">
        <ele>2313.21</ele>
        <time>2026-01-14T10:32:03Z</time>
      </trkpt>
      <trkpt lat="42.53415" lon="0.55432">
        <ele>2314.7</ele>
        <time>2026-01-14T10:32:37Z</time>
      </trkpt>
      <trkpt lat="42.53417" lon="0.55446">
        <ele>2314.93</ele>
        <time>2026-01-14T10:33:02Z</time>
      </trkpt>
      <trkpt lat="42.53415" lon="0.55461">
        <ele>2314.17</ele>
        <time>2026-01-14T10:33:22Z</time>
      </trkpt>
      <trkpt lat="42.53409" lon="0.55476">
        <ele>2315.4</ele>
        <time>2026-01-14T10:33:44Z</time>
      </trkpt>
      <trkpt lat="42.53401" lon="0.55491">
        <ele>2316.52</ele>
        <time>2026-01-14T10:34:12Z</time>
      </trkpt>
      <trkpt lat="42.53395" lon="0.55502">
        <ele>2318.04</ele>
        <time>2026-01-14T10:34:38Z</time>
      </trkpt>
      <trkpt lat="42.53389" lon="0.55513">
        <ele>2320.38</ele>
        <time>2026-01-14T10:35:05Z</time>
      </trkpt>
      <trkpt lat="42.53378" lon="0.55526">
        <ele>2321.74</ele>
        <time>2026-01-14T10:35:37Z</time>
      </trkpt>
      <trkpt lat="42.53371" lon="0.55548">
        <ele>2323.82</ele>
        <time>2026-01-14T10:36:05Z</time>
      </trkpt>
      <trkpt lat="42.53362" lon="0.55566">
        <ele>2325.33</ele>
        <time>2026-01-14T10:36:34Z</time>
      </trkpt>
      <trkpt lat="42.53355" lon="0.55582">
        <ele>2327.17</ele>
        <time>2026-01-14T10:37:00Z</time>
      </trkpt>
      <trkpt lat="42.53345" lon="0.55597">
        <ele>2329.38</ele>
        <time>2026-01-14T10:37:27Z</time>
      </trkpt>
      <trkpt lat="42.53335" lon="0.55606">
        <ele>2331.47</ele>
        <time>2026-01-14T10:37:51Z</time>
      </trkpt>
      <trkpt lat="42.53324" lon="0.55617">
        <ele>2333.72</ele>
        <time>2026-01-14T10:38:18Z</time>
      </trkpt>
      <trkpt lat="42.5331" lon="0.5563">
        <ele>2335.26</ele>
        <time>2026-01-14T10:38:45Z</time>
      </trkpt>
      <trkpt lat="42.53303" lon="0.55639">
        <ele>2336.07</ele>
        <time>2026-01-14T10:39:15Z</time>
      </trkpt>
      <trkpt lat="42.53297" lon="0.55651">
        <ele>2337.33</ele>
        <time>2026-01-14T10:39:39Z</time>
      </trkpt>
      <trkpt lat="42.53294" lon="0.55673">
        <ele>2339.62</ele>
        <time>2026-01-14T10:40:08Z</time>
      </trkpt>
      <trkpt lat="42.53293" lon="0.55698">
        <ele>2340.48</ele>
        <time>2026-01-14T10:40:36Z</time>
      </trkpt>
      <trkpt lat="42.53293" lon="0.5571">
        <ele>2341.55</ele>
        <time>2026-01-14T10:41:01Z</time>
      </trkpt>
      <trkpt lat="42.53291" lon="0.55719">
        <ele>2339.46</ele>
        <time>2026-01-14T10:41:25Z</time>
      </trkpt>
      <trkpt lat="42.53276" lon="0.55734">
        <ele>2340.12</ele>
        <time>2026-01-14T10:41:51Z</time>
      </trkpt>
      <trkpt lat="42.53268" lon="0.55754">
        <ele>2342.27</ele>
        <time>2026-01-14T10:42:19Z</time>
      </trkpt>
      <trkpt lat="42.53256" lon="0.55774">
        <ele>2343.86</ele>
        <time>2026-01-14T10:42:48Z</time>
      </trkpt>
      <trkpt lat="42.53243" lon="0.55783">
        <ele>2342.02</ele>
        <time>2026-01-14T10:43:05Z</time>
      </trkpt>
      <trkpt lat="42.5323" lon="0.55783">
        <ele>2341.19</ele>
        <time>2026-01-14T10:43:19Z</time>
      </trkpt>
      <trkpt lat="42.53218" lon="0.55785">
        <ele>2337.94</ele>
        <time>2026-01-14T10:43:33Z</time>
      </trkpt>
      <trkpt lat="42.53207" lon="0.5579">
        <ele>2338.35</ele>
        <time>2026-01-14T10:43:48Z</time>
      </trkpt>
      <trkpt lat="42.53194" lon="0.55789">
        <ele>2339.44</ele>
        <time>2026-01-14T10:44:09Z</time>
      </trkpt>
      <trkpt lat="42.53184" lon="0.55791">
        <ele>2342.64</ele>
        <time>2026-01-14T10:44:29Z</time>
      </trkpt>
      <trkpt lat="42.53171" lon="0.55806">
        <ele>2344.69</ele>
        <time>2026-01-14T10:45:00Z</time>
      </trkpt>
      <trkpt lat="42.53166" lon="0.55819">
        <ele>2347.91</ele>
        <time>2026-01-14T10:45:22Z</time>
      </trkpt>
      <trkpt lat="42.53158" lon="0.55826">
        <ele>2350.5</ele>
        <time>2026-01-14T10:45:42Z</time>
      </trkpt>
      <trkpt lat="42.53147" lon="0.55839">
        <ele>2353.33</ele>
        <time>2026-01-14T10:46:12Z</time>
      </trkpt>
      <trkpt lat="42.53148" lon="0.55841">
        <ele>2354.55</ele>
        <time>2026-01-14T10:46:35Z</time>
      </trkpt>
      <trkpt lat="42.53142" lon="0.55853">
        <ele>2357.72</ele>
        <time>2026-01-14T10:46:55Z</time>
      </trkpt>
      <trkpt lat="42.53128" lon="0.55863">
        <ele>2358.89</ele>
        <time>2026-01-14T10:47:17Z</time>
      </trkpt>
      <trkpt lat="42.53115" lon="0.55869">
        <ele>2362.01</ele>
        <time>2026-01-14T10:47:42Z</time>
      </trkpt>
      <trkpt lat="42.53102" lon="0.55872">
        <ele>2362.81</ele>
        <time>2026-01-14T10:48:09Z</time>
      </trkpt>
      <trkpt lat="42.53084" lon="0.55871">
        <ele>2364.24</ele>
        <time>2026-01-14T10:48:34Z</time>
      </trkpt>
      <trkpt lat="42.53071" lon="0.55879">
        <ele>2365.81</ele>
        <time>2026-01-14T10:48:58Z</time>
      </trkpt>
      <trkpt lat="42.53055" lon="0.55891">
        <ele>2367.82</ele>
        <time>2026-01-14T10:49:28Z</time>
      </trkpt>
      <trkpt lat="42.53043" lon="0.55899">
        <ele>2370.07</ele>
        <time>2026-01-14T10:49:51Z</time>
      </trkpt>
      <trkpt lat="42.53032" lon="0.55907">
        <ele>2372.05</ele>
        <time>2026-01-14T10:50:15Z</time>
      </trkpt>
      <trkpt lat="42.53019" lon="0.55918">
        <ele>2374.77</ele>
        <time>2026-01-14T10:50:41Z</time>
      </trkpt>
      <trkpt lat="42.53009" lon="0.55928">
        <ele>2377.97</ele>
        <time>2026-01-14T10:51:08Z</time>
      </trkpt>
      <trkpt lat="42.52998" lon="0.55935">
        <ele>2380.72</ele>
        <time>2026-01-14T10:51:33Z</time>
      </trkpt>
      <trkpt lat="42.5298" lon="0.55939">
        <ele>2384</ele>
        <time>2026-01-14T10:52:06Z</time>
      </trkpt>
      <trkpt lat="42.52971" lon="0.55945">
        <ele>2386.25</ele>
        <time>2026-01-14T10:52:28Z</time>
      </trkpt>
      <trkpt lat="42.52959" lon="0.5595">
        <ele>2388.77</ele>
        <time>2026-01-14T10:52:53Z</time>
      </trkpt>
      <trkpt lat="42.52946" lon="0.55955">
        <ele>2391.79</ele>
        <time>2026-01-14T10:53:19Z</time>
      </trkpt>
      <trkpt lat="42.52932" lon="0.5596">
        <ele>2394.57</ele>
        <time>2026-01-14T10:53:49Z</time>
      </trkpt>
      <trkpt lat="42.52921" lon="0.55966">
        <ele>2397.83</ele>
        <time>2026-01-14T10:54:10Z</time>
      </trkpt>
      <trkpt lat="42.52909" lon="0.55967">
        <ele>2400.99</ele>
        <time>2026-01-14T10:54:34Z</time>
      </trkpt>
      <trkpt lat="42.52903" lon="0.55968">
        <ele>2402.2</ele>
        <time>2026-01-14T10:54:45Z</time>
      </trkpt>
      <trkpt lat="42.52892" lon="0.55972">
        <ele>2404.07</ele>
        <time>2026-01-14T10:55:10Z</time>
      </trkpt>
      <trkpt lat="42.52888" lon="0.55975">
        <ele>2405.96</ele>
        <time>2026-01-14T10:55:28Z</time>
      </trkpt>
      <trkpt lat="42.52876" lon="0.55981">
        <ele>2409.27</ele>
        <time>2026-01-14T10:55:55Z</time>
      </trkpt>
      <trkpt lat="42.52868" lon="0.55986">
        <ele>2412.42</ele>
        <time>2026-01-14T10:56:17Z</time>
      </trkpt>
      <trkpt lat="42.52859" lon="0.55994">
        <ele>2415.84</ele>
        <time>2026-01-14T10:56:43Z</time>
      </trkpt>
      <trkpt lat="42.52851" lon="0.55998">
        <ele>2418.87</ele>
        <time>2026-01-14T10:57:05Z</time>
      </trkpt>
      <trkpt lat="42.52849" lon="0.56001">
        <ele>2419.96</ele>
        <time>2026-01-14T10:57:13Z</time>
      </trkpt>
      <trkpt lat="42.52841" lon="0.56006">
        <ele>2423.4</ele>
        <time>2026-01-14T10:57:34Z</time>
      </trkpt>
      <trkpt lat="42.52834" lon="0.56012">
        <ele>2426.45</ele>
        <time>2026-01-14T10:57:56Z</time>
      </trkpt>
      <trkpt lat="42.52827" lon="0.56017">
        <ele>2429.8</ele>
        <time>2026-01-14T10:58:18Z</time>
      </trkpt>
      <trkpt lat="42.52821" lon="0.56019">
        <ele>2431.68</ele>
        <time>2026-01-14T10:58:35Z</time>
      </trkpt>
      <trkpt lat="42.52815" lon="0.56023">
        <ele>2434.86</ele>
        <time>2026-01-14T10:58:53Z</time>
      </trkpt>
      <trkpt lat="42.5281" lon="0.56032">
        <ele>2438.29</ele>
        <time>2026-01-14T10:59:17Z</time>
      </trkpt>
      <trkpt lat="42.52802" lon="0.56037">
        <ele>2441.37</ele>
        <time>2026-01-14T10:59:38Z</time>
      </trkpt>
      <trkpt lat="42.52793" lon="0.56039">
        <ele>2444.38</ele>
        <time>2026-01-14T11:00:04Z</time>
      </trkpt>
      <trkpt lat="42.5279" lon="0.56045">
        <ele>2447.39</ele>
        <time>2026-01-14T11:00:23Z</time>
      </trkpt>
      <trkpt lat="42.52788" lon="0.56049">
        <ele>2448.72</ele>
        <time>2026-01-14T11:00:30Z</time>
      </trkpt>
      <trkpt lat="42.52786" lon="0.56058">
        <ele>2452.12</ele>
        <time>2026-01-14T11:00:49Z</time>
      </trkpt>
      <trkpt lat="42.52781" lon="0.56068">
        <ele>2455.47</ele>
        <time>2026-01-14T11:01:11Z</time>
      </trkpt>
      <trkpt lat="42.52779" lon="0.56075">
        <ele>2458.48</ele>
        <time>2026-01-14T11:01:28Z</time>
      </trkpt>
      <trkpt lat="42.52776" lon="0.56082">
        <ele>2461.55</ele>
        <time>2026-01-14T11:01:49Z</time>
      </trkpt>
      <trkpt lat="42.52774" lon="0.56092">
        <ele>2464.73</ele>
        <time>2026-01-14T11:02:06Z</time>
      </trkpt>
      <trkpt lat="42.52774" lon="0.561">
        <ele>2467.74</ele>
        <time>2026-01-14T11:02:29Z</time>
      </trkpt>
      <trkpt lat="42.52775" lon="0.56107">
        <ele>2470.76</ele>
        <time>2026-01-14T11:02:42Z</time>
      </trkpt>
      <trkpt lat="42.52773" lon="0.56115">
        <ele>2473.99</ele>
        <time>2026-01-14T11:03:05Z</time>
      </trkpt>
      <trkpt lat="42.52769" lon="0.56123">
        <ele>2477.45</ele>
        <time>2026-01-14T11:03:31Z</time>
      </trkpt>
      <trkpt lat="42.52769" lon="0.56123">
        <ele>2477.73</ele>
        <time>2026-01-14T11:03:32Z</time>
      </trkpt>
      <trkpt lat="42.5277" lon="0.56133">
        <ele>2479.24</ele>
        <time>2026-01-14T11:03:52Z</time>
      </trkpt>
      <trkpt lat="42.52766" lon="0.56142">
        <ele>2480.82</ele>
        <time>2026-01-14T11:04:13Z</time>
      </trkpt>
      <trkpt lat="42.52754" lon="0.56158">
        <ele>2482.95</ele>
        <time>2026-01-14T11:04:38Z</time>
      </trkpt>
      <trkpt lat="42.52749" lon="0.56162">
        <ele>2486.14</ele>
        <time>2026-01-14T11:05:04Z</time>
      </trkpt>
      <trkpt lat="42.52744" lon="0.5617">
        <ele>2487.28</ele>
        <time>2026-01-14T11:05:30Z</time>
      </trkpt>
      <trkpt lat="42.52742" lon="0.56178">
        <ele>2490.4</ele>
        <time>2026-01-14T11:05:53Z</time>
      </trkpt>
      <trkpt lat="42.5274" lon="0.56192">
        <ele>2493.76</ele>
        <time>2026-01-14T11:06:23Z</time>
      </trkpt>
      <trkpt lat="42.52733" lon="0.56203">
        <ele>2497.14</ele>
        <time>2026-01-14T11:06:47Z</time>
      </trkpt>
      <trkpt lat="42.52729" lon="0.56216">
        <ele>2500.4</ele>
        <time>2026-01-14T11:07:11Z</time>
      </trkpt>
      <trkpt lat="42.52726" lon="0.56219">
        <ele>2500.48</ele>
        <time>2026-01-14T11:07:18Z</time>
      </trkpt>
      <trkpt lat="42.52726" lon="0.56224">
        <ele>2501.01</ele>
        <time>2026-01-14T11:07:50Z</time>
      </trkpt>
      <trkpt lat="42.52719" lon="0.5623">
        <ele>2504.05</ele>
        <time>2026-01-14T11:08:11Z</time>
      </trkpt>
      <trkpt lat="42.52712" lon="0.56242">
        <ele>2507.4</ele>
        <time>2026-01-14T11:08:35Z</time>
      </trkpt>
      <trkpt lat="42.52707" lon="0.5625">
        <ele>2510.49</ele>
        <time>2026-01-14T11:08:53Z</time>
      </trkpt>
      <trkpt lat="42.52705" lon="0.56255">
        <ele>2513.57</ele>
        <time>2026-01-14T11:09:10Z</time>
      </trkpt>
      <trkpt lat="42.52704" lon="0.56267">
        <ele>2515.48</ele>
        <time>2026-01-14T11:09:28Z</time>
      </trkpt>
      <trkpt lat="42.527" lon="0.56274">
        <ele>2518.49</ele>
        <time>2026-01-14T11:09:49Z</time>
      </trkpt>
      <trkpt lat="42.52696" lon="0.56278">
        <ele>2520.18</ele>
        <time>2026-01-14T11:10:09Z</time>
      </trkpt>
      <trkpt lat="42.52689" lon="0.56279">
        <ele>2523.38</ele>
        <time>2026-01-14T11:10:30Z</time>
      </trkpt>
      <trkpt lat="42.52683" lon="0.56286">
        <ele>2526.45</ele>
        <time>2026-01-14T11:10:49Z</time>
      </trkpt>
      <trkpt lat="42.52677" lon="0.5629">
        <ele>2529.52</ele>
        <time>2026-01-14T11:11:03Z</time>
      </trkpt>
      <trkpt lat="42.52666" lon="0.56293">
        <ele>2531.03</ele>
        <time>2026-01-14T11:11:26Z</time>
      </trkpt>
      <trkpt lat="42.52664" lon="0.56295">
        <ele>2530.96</ele>
        <time>2026-01-14T11:11:31Z</time>
      </trkpt>
      <trkpt lat="42.5266" lon="0.56299">
        <ele>2533.31</ele>
        <time>2026-01-14T11:11:39Z</time>
      </trkpt>
      <trkpt lat="42.52658" lon="0.56302">
        <ele>2534.71</ele>
        <time>2026-01-14T11:11:46Z</time>
      </trkpt>
      <trkpt lat="42.5266" lon="0.56302">
        <ele>2533.94</ele>
        <time>2026-01-14T11:12:06Z</time>
      </trkpt>
      <trkpt lat="42.5266" lon="0.56302">
        <ele>2534.39</ele>
        <time>2026-01-14T11:12:07Z</time>
      </trkpt>
      <trkpt lat="42.5266" lon="0.56301">
        <ele>2534.18</ele>
        <time>2026-01-14T11:12:39Z</time>
      </trkpt>
      <trkpt lat="42.52661" lon="0.56301">
        <ele>2534.1</ele>
        <time>2026-01-14T11:13:31Z</time>
      </trkpt>
      <trkpt lat="42.52661" lon="0.56302">
        <ele>2533.61</ele>
        <time>2026-01-14T11:14:32Z</time>
      </trkpt>
      <trkpt lat="42.52662" lon="0.56303">
        <ele>2533.75</ele>
        <time>2026-01-14T11:15:09Z</time>
      </trkpt>
      <trkpt lat="42.52661" lon="0.56303">
        <ele>2534.06</ele>
        <time>2026-01-14T11:16:09Z</time>
      </trkpt>
      <trkpt lat="42.52661" lon="0.56304">
        <ele>2534.12</ele>
        <time>2026-01-14T11:16:48Z</time>
      </trkpt>
      <trkpt lat="42.52661" lon="0.56304">
        <ele>2535.4</ele>
        <time>2026-01-14T11:17:35Z</time>
      </trkpt>
      <trkpt lat="42.52662" lon="0.56304">
        <ele>2535.71</ele>
        <time>2026-01-14T11:18:08Z</time>
      </trkpt>
      <trkpt lat="42.5266" lon="0.56304">
        <ele>2536.39</ele>
        <time>2026-01-14T11:18:43Z</time>
      </trkpt>
      <trkpt lat="42.52661" lon="0.56306">
        <ele>2535.56</ele>
        <time>2026-01-14T11:19:14Z</time>
      </trkpt>
      <trkpt lat="42.52663" lon="0.56306">
        <ele>2535.49</ele>
        <time>2026-01-14T11:19:46Z</time>
      </trkpt>
      <trkpt lat="42.52662" lon="0.56305">
        <ele>2534.4</ele>
        <time>2026-01-14T11:20:19Z</time>
      </trkpt>
      <trkpt lat="42.52662" lon="0.56305">
        <ele>2534.83</ele>
        <time>2026-01-14T11:20:55Z</time>
      </trkpt>
      <trkpt lat="42.52662" lon="0.56304">
        <ele>2536.12</ele>
        <time>2026-01-14T11:21:30Z</time>
      </trkpt>
      <trkpt lat="42.52662" lon="0.56304">
        <ele>2536.93</ele>
        <time>2026-01-14T11:21:32Z</time>
      </trkpt>
      <trkpt lat="42.52661" lon="0.56305">
        <ele>2536.66</ele>
        <time>2026-01-14T11:22:16Z</time>
      </trkpt>
      <trkpt lat="42.5266" lon="0.56304">
        <ele>2536.12</ele>
        <time>2026-01-14T11:22:50Z</time>
      </trkpt>
      <trkpt lat="42.5266" lon="0.56304">
        <ele>2534.9</ele>
        <time>2026-01-14T11:22:52Z</time>
      </trkpt>
      <trkpt lat="42.5266" lon="0.56305">
        <ele>2535.63</ele>
        <time>2026-01-14T11:23:40Z</time>
      </trkpt>
      <trkpt lat="42.5266" lon="0.56305">
        <ele>2536.56</ele>
        <time>2026-01-14T11:24:34Z</time>
      </trkpt>
      <trkpt lat="42.5266" lon="0.56305">
        <ele>2535.71</ele>
        <time>2026-01-14T11:25:12Z</time>
      </trkpt>
      <trkpt lat="42.5266" lon="0.56305">
        <ele>2534.74</ele>
        <time>2026-01-14T11:26:22Z</time>
      </trkpt>
      <trkpt lat="42.5266" lon="0.56305">
        <ele>2535.11</ele>
        <time>2026-01-14T11:27:39Z</time>
      </trkpt>
      <trkpt lat="42.5266" lon="0.56305">
        <ele>2534.14</ele>
        <time>2026-01-14T11:28:25Z</time>
      </trkpt>
      <trkpt lat="42.5266" lon="0.56304">
        <ele>2536.21</ele>
        <time>2026-01-14T11:29:08Z</time>
      </trkpt>
      <trkpt lat="42.52659" lon="0.56305">
        <ele>2533.98</ele>
        <time>2026-01-14T11:29:57Z</time>
      </trkpt>
      <trkpt lat="42.5266" lon="0.56305">
        <ele>2535.54</ele>
        <time>2026-01-14T11:30:28Z</time>
      </trkpt>
      <trkpt lat="42.5266" lon="0.56303">
        <ele>2534.2</ele>
        <time>2026-01-14T11:30:40Z</time>
      </trkpt>
      <trkpt lat="42.5266" lon="0.56301">
        <ele>2537.64</ele>
        <time>2026-01-14T11:30:47Z</time>
      </trkpt>
      <trkpt lat="42.5266" lon="0.56302">
        <ele>2535.17</ele>
        <time>2026-01-14T11:31:08Z</time>
      </trkpt>
      <trkpt lat="42.52661" lon="0.56301">
        <ele>2535.34</ele>
        <time>2026-01-14T11:31:29Z</time>
      </trkpt>
      <trkpt lat="42.52659" lon="0.56299">
        <ele>2534.22</ele>
        <time>2026-01-14T11:31:58Z</time>
      </trkpt>
      <trkpt lat="42.5266" lon="0.563">
        <ele>2533.87</ele>
        <time>2026-01-14T11:32:18Z</time>
      </trkpt>
      <trkpt lat="42.52661" lon="0.563">
        <ele>2534.24</ele>
        <time>2026-01-14T11:32:39Z</time>
      </trkpt>
      <trkpt lat="42.52662" lon="0.56301">
        <ele>2534.8</ele>
        <time>2026-01-14T11:33:11Z</time>
      </trkpt>
      <trkpt lat="42.52661" lon="0.56301">
        <ele>2535.82</ele>
        <time>2026-01-14T11:33:36Z</time>
      </trkpt>
      <trkpt lat="42.52662" lon="0.56302">
        <ele>2534.04</ele>
        <time>2026-01-14T11:34:02Z</time>
      </trkpt>
      <trkpt lat="42.5267" lon="0.56297">
        <ele>2531.84</ele>
        <time>2026-01-14T11:34:18Z</time>
      </trkpt>
      <trkpt lat="42.52674" lon="0.56289">
        <ele>2531.01</ele>
        <time>2026-01-14T11:34:33Z</time>
      </trkpt>
      <trkpt lat="42.52673" lon="0.56292">
        <ele>2530.74</ele>
        <time>2026-01-14T11:34:55Z</time>
      </trkpt>
      <trkpt lat="42.52673" lon="0.56291">
        <ele>2531.4</ele>
        <time>2026-01-14T11:35:25Z</time>
      </trkpt>
      <trkpt lat="42.52678" lon="0.5629">
        <ele>2530.08</ele>
        <time>2026-01-14T11:35:54Z</time>
      </trkpt>
      <trkpt lat="42.5268" lon="0.56289">
        <ele>2528.62</ele>
        <time>2026-01-14T11:35:57Z</time>
      </trkpt>
      <trkpt lat="42.52688" lon="0.56278">
        <ele>2525.55</ele>
        <time>2026-01-14T11:36:16Z</time>
      </trkpt>
      <trkpt lat="42.52693" lon="0.56276">
        <ele>2522.38</ele>
        <time>2026-01-14T11:36:27Z</time>
      </trkpt>
      <trkpt lat="42.52698" lon="0.56271">
        <ele>2518.79</ele>
        <time>2026-01-14T11:36:41Z</time>
      </trkpt>
      <trkpt lat="42.52698" lon="0.56271">
        <ele>2518.66</ele>
        <time>2026-01-14T11:36:42Z</time>
      </trkpt>
      <trkpt lat="42.52703" lon="0.56261">
        <ele>2514.92</ele>
        <time>2026-01-14T11:36:54Z</time>
      </trkpt>
      <trkpt lat="42.52703" lon="0.56255">
        <ele>2513.71</ele>
        <time>2026-01-14T11:37:00Z</time>
      </trkpt>
      <trkpt lat="42.52709" lon="0.56246">
        <ele>2510.56</ele>
        <time>2026-01-14T11:37:12Z</time>
      </trkpt>
      <trkpt lat="42.52714" lon="0.56238">
        <ele>2507.34</ele>
        <time>2026-01-14T11:37:22Z</time>
      </trkpt>
      <trkpt lat="42.52716" lon="0.56232">
        <ele>2504.79</ele>
        <time>2026-01-14T11:37:29Z</time>
      </trkpt>
      <trkpt lat="42.52725" lon="0.56221">
        <ele>2501.42</ele>
        <time>2026-01-14T11:37:44Z</time>
      </trkpt>
      <trkpt lat="42.5273" lon="0.56214">
        <ele>2499.14</ele>
        <time>2026-01-14T11:37:55Z</time>
      </trkpt>
      <trkpt lat="42.52735" lon="0.56202">
        <ele>2495.46</ele>
        <time>2026-01-14T11:38:08Z</time>
      </trkpt>
      <trkpt lat="42.52739" lon="0.56188">
        <ele>2492.34</ele>
        <time>2026-01-14T11:38:21Z</time>
      </trkpt>
      <trkpt lat="42.52743" lon="0.56174">
        <ele>2488.63</ele>
        <time>2026-01-14T11:38:35Z</time>
      </trkpt>
      <trkpt lat="42.52748" lon="0.56161">
        <ele>2485.47</ele>
        <time>2026-01-14T11:38:49Z</time>
      </trkpt>
      <trkpt lat="42.52756" lon="0.56148">
        <ele>2481.92</ele>
        <time>2026-01-14T11:39:07Z</time>
      </trkpt>
      <trkpt lat="42.52763" lon="0.56144">
        <ele>2481.25</ele>
        <time>2026-01-14T11:39:25Z</time>
      </trkpt>
      <trkpt lat="42.52768" lon="0.56136">
        <ele>2479.97</ele>
        <time>2026-01-14T11:39:47Z</time>
      </trkpt>
      <trkpt lat="42.52769" lon="0.56131">
        <ele>2478.77</ele>
        <time>2026-01-14T11:40:08Z</time>
      </trkpt>
      <trkpt lat="42.52768" lon="0.56119">
        <ele>2476.68</ele>
        <time>2026-01-14T11:40:41Z</time>
      </trkpt>
      <trkpt lat="42.5277" lon="0.56111">
        <ele>2473.56</ele>
        <time>2026-01-14T11:40:51Z</time>
      </trkpt>
      <trkpt lat="42.52774" lon="0.56103">
        <ele>2470.41</ele>
        <time>2026-01-14T11:41:03Z</time>
      </trkpt>
      <trkpt lat="42.52774" lon="0.56098">
        <ele>2468.32</ele>
        <time>2026-01-14T11:41:08Z</time>
      </trkpt>
      <trkpt lat="42.52774" lon="0.56091">
        <ele>2464.89</ele>
        <time>2026-01-14T11:41:17Z</time>
      </trkpt>
      <trkpt lat="42.52776" lon="0.56079">
        <ele>2461.34</ele>
        <time>2026-01-14T11:41:31Z</time>
      </trkpt>
      <trkpt lat="42.52774" lon="0.56065">
        <ele>2458.23</ele>
        <time>2026-01-14T11:41:48Z</time>
      </trkpt>
      <trkpt lat="42.52776" lon="0.56061">
        <ele>2455.06</ele>
        <time>2026-01-14T11:41:55Z</time>
      </trkpt>
      <trkpt lat="42.52781" lon="0.56054">
        <ele>2451.54</ele>
        <time>2026-01-14T11:42:06Z</time>
      </trkpt>
      <trkpt lat="42.52788" lon="0.56046">
        <ele>2448.44</ele>
        <time>2026-01-14T11:42:18Z</time>
      </trkpt>
      <trkpt lat="42.52793" lon="0.56039">
        <ele>2445.34</ele>
        <time>2026-01-14T11:42:28Z</time>
      </trkpt>
      <trkpt lat="42.52798" lon="0.56034">
        <ele>2442.77</ele>
        <time>2026-01-14T11:42:37Z</time>
      </trkpt>
      <trkpt lat="42.52807" lon="0.56028">
        <ele>2439.65</ele>
        <time>2026-01-14T11:42:50Z</time>
      </trkpt>
      <trkpt lat="42.52811" lon="0.56022">
        <ele>2436.57</ele>
        <time>2026-01-14T11:43:00Z</time>
      </trkpt>
      <trkpt lat="42.52816" lon="0.56019">
        <ele>2435.08</ele>
        <time>2026-01-14T11:43:07Z</time>
      </trkpt>
      <trkpt lat="42.52822" lon="0.56015">
        <ele>2431.61</ele>
        <time>2026-01-14T11:43:19Z</time>
      </trkpt>
      <trkpt lat="42.5283" lon="0.56011">
        <ele>2428.04</ele>
        <time>2026-01-14T11:43:31Z</time>
      </trkpt>
      <trkpt lat="42.52836" lon="0.56008">
        <ele>2425.34</ele>
        <time>2026-01-14T11:43:39Z</time>
      </trkpt>
      <trkpt lat="42.52845" lon="0.56003">
        <ele>2422.19</ele>
        <time>2026-01-14T11:43:51Z</time>
      </trkpt>
      <trkpt lat="42.52846" lon="0.56002">
        <ele>2421.43</ele>
        <time>2026-01-14T11:43:53Z</time>
      </trkpt>
      <trkpt lat="42.52852" lon="0.55998">
        <ele>2419.58</ele>
        <time>2026-01-14T11:44:02Z</time>
      </trkpt>
      <trkpt lat="42.52854" lon="0.55996">
        <ele>2418.34</ele>
        <time>2026-01-14T11:44:05Z</time>
      </trkpt>
      <trkpt lat="42.5286" lon="0.5599">
        <ele>2415.28</ele>
        <time>2026-01-14T11:44:15Z</time>
      </trkpt>
      <trkpt lat="42.5287" lon="0.55983">
        <ele>2412.15</ele>
        <time>2026-01-14T11:44:28Z</time>
      </trkpt>
      <trkpt lat="42.52876" lon="0.55978">
        <ele>2409</ele>
        <time>2026-01-14T11:44:38Z</time>
      </trkpt>
      <trkpt lat="42.52889" lon="0.55973">
        <ele>2405.73</ele>
        <time>2026-01-14T11:44:53Z</time>
      </trkpt>
      <trkpt lat="42.529" lon="0.55967">
        <ele>2402.67</ele>
        <time>2026-01-14T11:45:10Z</time>
      </trkpt>
      <trkpt lat="42.52909" lon="0.55963">
        <ele>2399.65</ele>
        <time>2026-01-14T11:45:25Z</time>
      </trkpt>
      <trkpt lat="42.52918" lon="0.55956">
        <ele>2396.51</ele>
        <time>2026-01-14T11:45:38Z</time>
      </trkpt>
      <trkpt lat="42.52928" lon="0.55952">
        <ele>2394.32</ele>
        <time>2026-01-14T11:45:51Z</time>
      </trkpt>
      <trkpt lat="42.52943" lon="0.55948">
        <ele>2390.66</ele>
        <time>2026-01-14T11:46:09Z</time>
      </trkpt>
      <trkpt lat="42.52957" lon="0.55945">
        <ele>2388.72</ele>
        <time>2026-01-14T11:46:27Z</time>
      </trkpt>
      <trkpt lat="42.52971" lon="0.55942">
        <ele>2386.35</ele>
        <time>2026-01-14T11:46:45Z</time>
      </trkpt>
      <trkpt lat="42.52983" lon="0.55936">
        <ele>2384.32</ele>
        <time>2026-01-14T11:47:02Z</time>
      </trkpt>
      <trkpt lat="42.52994" lon="0.55932">
        <ele>2382.79</ele>
        <time>2026-01-14T11:47:16Z</time>
      </trkpt>
      <trkpt lat="42.53008" lon="0.55926">
        <ele>2380.51</ele>
        <time>2026-01-14T11:47:34Z</time>
      </trkpt>
      <trkpt lat="42.53019" lon="0.55913">
        <ele>2377.41</ele>
        <time>2026-01-14T11:47:51Z</time>
      </trkpt>
      <trkpt lat="42.5303" lon="0.55904">
        <ele>2374.99</ele>
        <time>2026-01-14T11:48:07Z</time>
      </trkpt>
      <trkpt lat="42.53044" lon="0.55894">
        <ele>2372.11</ele>
        <time>2026-01-14T11:48:27Z</time>
      </trkpt>
      <trkpt lat="42.53056" lon="0.55886">
        <ele>2370.39</ele>
        <time>2026-01-14T11:48:44Z</time>
      </trkpt>
      <trkpt lat="42.53069" lon="0.55878">
        <ele>2369.25</ele>
        <time>2026-01-14T11:49:00Z</time>
      </trkpt>
      <trkpt lat="42.53078" lon="0.55869">
        <ele>2366.61</ele>
        <time>2026-01-14T11:49:18Z</time>
      </trkpt>
      <trkpt lat="42.53079" lon="0.55869">
        <ele>2366.32</ele>
        <time>2026-01-14T11:49:40Z</time>
      </trkpt>
      <trkpt lat="42.53079" lon="0.55867">
        <ele>2365.45</ele>
        <time>2026-01-14T11:50:14Z</time>
      </trkpt>
      <trkpt lat="42.53078" lon="0.55867">
        <ele>2365.34</ele>
        <time>2026-01-14T11:50:45Z</time>
      </trkpt>
      <trkpt lat="42.53077" lon="0.55865">
        <ele>2365.33</ele>
        <time>2026-01-14T11:51:17Z</time>
      </trkpt>
      <trkpt lat="42.53079" lon="0.55866">
        <ele>2366.08</ele>
        <time>2026-01-14T11:51:48Z</time>
      </trkpt>
      <trkpt lat="42.53078" lon="0.55872">
        <ele>2365.71</ele>
        <time>2026-01-14T11:52:11Z</time>
      </trkpt>
      <trkpt lat="42.53079" lon="0.55872">
        <ele>2365.82</ele>
        <time>2026-01-14T11:52:12Z</time>
      </trkpt>
      <trkpt lat="42.5308" lon="0.55872">
        <ele>2365.88</ele>
        <time>2026-01-14T11:52:18Z</time>
      </trkpt>
      <trkpt lat="42.53088" lon="0.5587">
        <ele>2365.91</ele>
        <time>2026-01-14T11:52:41Z</time>
      </trkpt>
      <trkpt lat="42.53104" lon="0.55868">
        <ele>2364.49</ele>
        <time>2026-01-14T11:53:00Z</time>
      </trkpt>
      <trkpt lat="42.53127" lon="0.55862">
        <ele>2361.7</ele>
        <time>2026-01-14T11:53:23Z</time>
      </trkpt>
      <trkpt lat="42.53142" lon="0.55851">
        <ele>2358.68</ele>
        <time>2026-01-14T11:53:43Z</time>
      </trkpt>
      <trkpt lat="42.53149" lon="0.55833">
        <ele>2355.65</ele>
        <time>2026-01-14T11:54:01Z</time>
      </trkpt>
      <trkpt lat="42.53159" lon="0.55818">
        <ele>2352.59</ele>
        <time>2026-01-14T11:54:18Z</time>
      </trkpt>
      <trkpt lat="42.53169" lon="0.55805">
        <ele>2349.27</ele>
        <time>2026-01-14T11:54:35Z</time>
      </trkpt>
      <trkpt lat="42.53171" lon="0.55801">
        <ele>2347.87</ele>
        <time>2026-01-14T11:54:39Z</time>
      </trkpt>
      <trkpt lat="42.53177" lon="0.55793">
        <ele>2346.46</ele>
        <time>2026-01-14T11:54:47Z</time>
      </trkpt>
      <trkpt lat="42.53181" lon="0.55789">
        <ele>2345.06</ele>
        <time>2026-01-14T11:54:53Z</time>
      </trkpt>
      <trkpt lat="42.53184" lon="0.55785">
        <ele>2344.11</ele>
        <time>2026-01-14T11:54:57Z</time>
      </trkpt>
      <trkpt lat="42.53194" lon="0.55785">
        <ele>2341.73</ele>
        <time>2026-01-14T11:55:08Z</time>
      </trkpt>
      <trkpt lat="42.53208" lon="0.55787">
        <ele>2340.78</ele>
        <time>2026-01-14T11:55:25Z</time>
      </trkpt>
      <trkpt lat="42.53209" lon="0.55786">
        <ele>2340.5</ele>
        <time>2026-01-14T11:55:26Z</time>
      </trkpt>
      <trkpt lat="42.53211" lon="0.55785">
        <ele>2339.81</ele>
        <time>2026-01-14T11:55:29Z</time>
      </trkpt>
      <trkpt lat="42.53214" lon="0.55782">
        <ele>2339.95</ele>
        <time>2026-01-14T11:55:32Z</time>
      </trkpt>
      <trkpt lat="42.53225" lon="0.5578">
        <ele>2341.17</ele>
        <time>2026-01-14T11:55:48Z</time>
      </trkpt>
      <trkpt lat="42.53242" lon="0.55779">
        <ele>2342.88</ele>
        <time>2026-01-14T11:56:12Z</time>
      </trkpt>
      <trkpt lat="42.53252" lon="0.55771">
        <ele>2345.95</ele>
        <time>2026-01-14T11:56:32Z</time>
      </trkpt>
      <trkpt lat="42.53266" lon="0.55752">
        <ele>2344.77</ele>
        <time>2026-01-14T11:56:55Z</time>
      </trkpt>
      <trkpt lat="42.53276" lon="0.55731">
        <ele>2342.04</ele>
        <time>2026-01-14T11:57:20Z</time>
      </trkpt>
      <trkpt lat="42.53276" lon="0.5573">
        <ele>2342.06</ele>
        <time>2026-01-14T11:57:21Z</time>
      </trkpt>
      <trkpt lat="42.53285" lon="0.55713">
        <ele>2340.49</ele>
        <time>2026-01-14T11:57:41Z</time>
      </trkpt>
      <trkpt lat="42.5329" lon="0.55707">
        <ele>2344.03</ele>
        <time>2026-01-14T11:57:55Z</time>
      </trkpt>
      <trkpt lat="42.5329" lon="0.55685">
        <ele>2344.67</ele>
        <time>2026-01-14T11:58:20Z</time>
      </trkpt>
      <trkpt lat="42.53295" lon="0.55663">
        <ele>2341.89</ele>
        <time>2026-01-14T11:58:44Z</time>
      </trkpt>
      <trkpt lat="42.53301" lon="0.55637">
        <ele>2339.55</ele>
        <time>2026-01-14T11:59:10Z</time>
      </trkpt>
      <trkpt lat="42.53312" lon="0.55624">
        <ele>2337.02</ele>
        <time>2026-01-14T11:59:30Z</time>
      </trkpt>
      <trkpt lat="42.53325" lon="0.5561">
        <ele>2335.54</ele>
        <time>2026-01-14T11:59:51Z</time>
      </trkpt>
      <trkpt lat="42.53345" lon="0.55594">
        <ele>2333.09</ele>
        <time>2026-01-14T12:00:18Z</time>
      </trkpt>
      <trkpt lat="42.53357" lon="0.55571">
        <ele>2331.48</ele>
        <time>2026-01-14T12:00:45Z</time>
      </trkpt>
      <trkpt lat="42.5337" lon="0.55548">
        <ele>2328.46</ele>
        <time>2026-01-14T12:01:14Z</time>
      </trkpt>
      <trkpt lat="42.53379" lon="0.55525">
        <ele>2326.06</ele>
        <time>2026-01-14T12:01:38Z</time>
      </trkpt>
      <trkpt lat="42.53389" lon="0.55511">
        <ele>2324.07</ele>
        <time>2026-01-14T12:01:55Z</time>
      </trkpt>
      <trkpt lat="42.53402" lon="0.55492">
        <ele>2320.78</ele>
        <time>2026-01-14T12:02:19Z</time>
      </trkpt>
      <trkpt lat="42.53403" lon="0.55488">
        <ele>2320.74</ele>
        <time>2026-01-14T12:02:25Z</time>
      </trkpt>
      <trkpt lat="42.5341" lon="0.55475">
        <ele>2319.5</ele>
        <time>2026-01-14T12:02:42Z</time>
      </trkpt>
      <trkpt lat="42.53418" lon="0.55452">
        <ele>2318.42</ele>
        <time>2026-01-14T12:03:07Z</time>
      </trkpt>
      <trkpt lat="42.53415" lon="0.55438">
        <ele>2318.87</ele>
        <time>2026-01-14T12:03:30Z</time>
      </trkpt>
      <trkpt lat="42.53416" lon="0.55438">
        <ele>2318.07</ele>
        <time>2026-01-14T12:03:42Z</time>
      </trkpt>
      <trkpt lat="42.53419" lon="0.55438">
        <ele>2317.42</ele>
        <time>2026-01-14T12:04:01Z</time>
      </trkpt>
      <trkpt lat="42.53419" lon="0.5544">
        <ele>2317.63</ele>
        <time>2026-01-14T12:04:48Z</time>
      </trkpt>
      <trkpt lat="42.53419" lon="0.55438">
        <ele>2319.09</ele>
        <time>2026-01-14T12:05:02Z</time>
      </trkpt>
      <trkpt lat="42.53421" lon="0.55425">
        <ele>2318.01</ele>
        <time>2026-01-14T12:05:25Z</time>
      </trkpt>
      <trkpt lat="42.53424" lon="0.55421">
        <ele>2317.33</ele>
        <time>2026-01-14T12:05:30Z</time>
      </trkpt>
      <trkpt lat="42.53433" lon="0.55403">
        <ele>2316.96</ele>
        <time>2026-01-14T12:05:50Z</time>
      </trkpt>
      <trkpt lat="42.53431" lon="0.55382">
        <ele>2320.37</ele>
        <time>2026-01-14T12:06:13Z</time>
      </trkpt>
      <trkpt lat="42.53429" lon="0.55372">
        <ele>2322.41</ele>
        <time>2026-01-14T12:06:25Z</time>
      </trkpt>
      <trkpt lat="42.53431" lon="0.55347">
        <ele>2323.68</ele>
        <time>2026-01-14T12:06:54Z</time>
      </trkpt>
      <trkpt lat="42.53429" lon="0.55329">
        <ele>2323.94</ele>
        <time>2026-01-14T12:07:18Z</time>
      </trkpt>
      <trkpt lat="42.53422" lon="0.55303">
        <ele>2324.52</ele>
        <time>2026-01-14T12:07:47Z</time>
      </trkpt>
      <trkpt lat="42.53421" lon="0.553">
        <ele>2324.77</ele>
        <time>2026-01-14T12:07:50Z</time>
      </trkpt>
      <trkpt lat="42.53414" lon="0.55283">
        <ele>2324.36</ele>
        <time>2026-01-14T12:08:08Z</time>
      </trkpt>
      <trkpt lat="42.53411" lon="0.55262">
        <ele>2323.37</ele>
        <time>2026-01-14T12:08:30Z</time>
      </trkpt>
      <trkpt lat="42.5341" lon="0.55245">
        <ele>2322.59</ele>
        <time>2026-01-14T12:08:46Z</time>
      </trkpt>
      <trkpt lat="42.53408" lon="0.5523">
        <ele>2321.55</ele>
        <time>2026-01-14T12:09:01Z</time>
      </trkpt>
      <trkpt lat="42.53408" lon="0.55225">
        <ele>2322.37</ele>
        <time>2026-01-14T12:09:05Z</time>
      </trkpt>
      <trkpt lat="42.53408" lon="0.5522">
        <ele>2322.08</ele>
        <time>2026-01-14T12:09:09Z</time>
      </trkpt>
      <trkpt lat="42.5341" lon="0.55199">
        <ele>2321.13</ele>
        <time>2026-01-14T12:09:26Z</time>
      </trkpt>
      <trkpt lat="42.53413" lon="0.55193">
        <ele>2321.11</ele>
        <time>2026-01-14T12:09:32Z</time>
      </trkpt>
      <trkpt lat="42.53422" lon="0.55184">
        <ele>2320.62</ele>
        <time>2026-01-14T12:09:53Z</time>
      </trkpt>
      <trkpt lat="42.53431" lon="0.55174">
        <ele>2317.98</ele>
        <time>2026-01-14T12:10:13Z</time>
      </trkpt>
      <trkpt lat="42.53433" lon="0.55173">
        <ele>2317.54</ele>
        <time>2026-01-14T12:10:15Z</time>
      </trkpt>
      <trkpt lat="42.5344" lon="0.55149">
        <ele>2316</ele>
        <time>2026-01-14T12:10:33Z</time>
      </trkpt>
      <trkpt lat="42.53441" lon="0.55124">
        <ele>2314.94</ele>
        <time>2026-01-14T12:10:49Z</time>
      </trkpt>
      <trkpt lat="42.5345" lon="0.55098">
        <ele>2313.75</ele>
        <time>2026-01-14T12:11:08Z</time>
      </trkpt>
      <trkpt lat="42.53458" lon="0.55072">
        <ele>2312.34</ele>
        <time>2026-01-14T12:11:28Z</time>
      </trkpt>
      <trkpt lat="42.53467" lon="0.55051">
        <ele>2310.84</ele>
        <time>2026-01-14T12:11:45Z</time>
      </trkpt>
      <trkpt lat="42.53473" lon="0.5504">
        <ele>2310.43</ele>
        <time>2026-01-14T12:11:56Z</time>
      </trkpt>
      <trkpt lat="42.5348" lon="0.5501">
        <ele>2308.24</ele>
        <time>2026-01-14T12:12:16Z</time>
      </trkpt>
      <trkpt lat="42.53488" lon="0.5499">
        <ele>2305.78</ele>
        <time>2026-01-14T12:12:34Z</time>
      </trkpt>
      <trkpt lat="42.53496" lon="0.54969">
        <ele>2304.29</ele>
        <time>2026-01-14T12:12:51Z</time>
      </trkpt>
      <trkpt lat="42.53507" lon="0.54945">
        <ele>2301.95</ele>
        <time>2026-01-14T12:13:12Z</time>
      </trkpt>
      <trkpt lat="42.53516" lon="0.54928">
        <ele>2301.45</ele>
        <time>2026-01-14T12:13:30Z</time>
      </trkpt>
      <trkpt lat="42.53518" lon="0.54923">
        <ele>2300.84</ele>
        <time>2026-01-14T12:13:35Z</time>
      </trkpt>
      <trkpt lat="42.53527" lon="0.54904">
        <ele>2299.83</ele>
        <time>2026-01-14T12:13:53Z</time>
      </trkpt>
      <trkpt lat="42.53536" lon="0.54889">
        <ele>2298.47</ele>
        <time>2026-01-14T12:14:08Z</time>
      </trkpt>
      <trkpt lat="42.53546" lon="0.54873">
        <ele>2297.07</ele>
        <time>2026-01-14T12:14:25Z</time>
      </trkpt>
      <trkpt lat="42.53556" lon="0.54858">
        <ele>2295.45</ele>
        <time>2026-01-14T12:14:41Z</time>
      </trkpt>
      <trkpt lat="42.53559" lon="0.54841">
        <ele>2292.61</ele>
        <time>2026-01-14T12:14:58Z</time>
      </trkpt>
      <trkpt lat="42.53558" lon="0.5484">
        <ele>2292.89</ele>
        <time>2026-01-14T12:14:59Z</time>
      </trkpt>
      <trkpt lat="42.53551" lon="0.54821">
        <ele>2289.34</ele>
        <time>2026-01-14T12:15:13Z</time>
      </trkpt>
      <trkpt lat="42.53551" lon="0.5482">
        <ele>2289.04</ele>
        <time>2026-01-14T12:15:14Z</time>
      </trkpt>
      <trkpt lat="42.53542" lon="0.54799">
        <ele>2286.34</ele>
        <time>2026-01-14T12:15:32Z</time>
      </trkpt>
      <trkpt lat="42.53535" lon="0.54781">
        <ele>2284.14</ele>
        <time>2026-01-14T12:15:47Z</time>
      </trkpt>
      <trkpt lat="42.53528" lon="0.5476">
        <ele>2281.79</ele>
        <time>2026-01-14T12:16:05Z</time>
      </trkpt>
      <trkpt lat="42.53526" lon="0.54758">
        <ele>2281.11</ele>
        <time>2026-01-14T12:16:08Z</time>
      </trkpt>
      <trkpt lat="42.53522" lon="0.54751">
        <ele>2279.49</ele>
        <time>2026-01-14T12:16:14Z</time>
      </trkpt>
      <trkpt lat="42.53508" lon="0.54735">
        <ele>2276.4</ele>
        <time>2026-01-14T12:16:30Z</time>
      </trkpt>
      <trkpt lat="42.53497" lon="0.54727">
        <ele>2272.41</ele>
        <time>2026-01-14T12:16:42Z</time>
      </trkpt>
      <trkpt lat="42.53493" lon="0.54724">
        <ele>2271.64</ele>
        <time>2026-01-14T12:16:46Z</time>
      </trkpt>
      <trkpt lat="42.53479" lon="0.54719">
        <ele>2267.92</ele>
        <time>2026-01-14T12:17:00Z</time>
      </trkpt>
      <trkpt lat="42.53478" lon="0.54718">
        <ele>2267.65</ele>
        <time>2026-01-14T12:17:01Z</time>
      </trkpt>
      <trkpt lat="42.53472" lon="0.54715">
        <ele>2265.64</ele>
        <time>2026-01-14T12:17:07Z</time>
      </trkpt>
      <trkpt lat="42.53462" lon="0.5471">
        <ele>2262.45</ele>
        <time>2026-01-14T12:17:16Z</time>
      </trkpt>
      <trkpt lat="42.53451" lon="0.54705">
        <ele>2259.25</ele>
        <time>2026-01-14T12:17:27Z</time>
      </trkpt>
      <trkpt lat="42.53449" lon="0.54704">
        <ele>2258.64</ele>
        <time>2026-01-14T12:17:29Z</time>
      </trkpt>
      <trkpt lat="42.53441" lon="0.54696">
        <ele>2255.52</ele>
        <time>2026-01-14T12:17:38Z</time>
      </trkpt>
      <trkpt lat="42.53435" lon="0.54685">
        <ele>2252.2</ele>
        <time>2026-01-14T12:17:48Z</time>
      </trkpt>
      <trkpt lat="42.53431" lon="0.54679">
        <ele>2250.14</ele>
        <time>2026-01-14T12:17:54Z</time>
      </trkpt>
      <trkpt lat="42.53428" lon="0.54672">
        <ele>2248.97</ele>
        <time>2026-01-14T12:18:00Z</time>
      </trkpt>
      <trkpt lat="42.53423" lon="0.54662">
        <ele>2247.07</ele>
        <time>2026-01-14T12:18:08Z</time>
      </trkpt>
      <trkpt lat="42.53417" lon="0.5465">
        <ele>2243.92</ele>
        <time>2026-01-14T12:18:19Z</time>
      </trkpt>
      <trkpt lat="42.53415" lon="0.54647">
        <ele>2244.1</ele>
        <time>2026-01-14T12:18:22Z</time>
      </trkpt>
      <trkpt lat="42.53406" lon="0.54629">
        <ele>2240.82</ele>
        <time>2026-01-14T12:18:38Z</time>
      </trkpt>
      <trkpt lat="42.53395" lon="0.5461">
        <ele>2238.45</ele>
        <time>2026-01-14T12:18:55Z</time>
      </trkpt>
      <trkpt lat="42.53381" lon="0.54593">
        <ele>2235.22</ele>
        <time>2026-01-14T12:19:11Z</time>
      </trkpt>
      <trkpt lat="42.53367" lon="0.54576">
        <ele>2233.8</ele>
        <time>2026-01-14T12:19:29Z</time>
      </trkpt>
      <trkpt lat="42.53355" lon="0.5456">
        <ele>2230.46</ele>
        <time>2026-01-14T12:19:43Z</time>
      </trkpt>
      <trkpt lat="42.53343" lon="0.54539">
        <ele>2227.33</ele>
        <time>2026-01-14T12:20:02Z</time>
      </trkpt>
      <trkpt lat="42.53332" lon="0.54518">
        <ele>2227.74</ele>
        <time>2026-01-14T12:20:19Z</time>
      </trkpt>
      <trkpt lat="42.53323" lon="0.545">
        <ele>2229.29</ele>
        <time>2026-01-14T12:20:35Z</time>
      </trkpt>
      <trkpt lat="42.53311" lon="0.5448">
        <ele>2230.75</ele>
        <time>2026-01-14T12:20:55Z</time>
      </trkpt>
      <trkpt lat="42.53306" lon="0.54468">
        <ele>2232.18</ele>
        <time>2026-01-14T12:21:08Z</time>
      </trkpt>
      <trkpt lat="42.53303" lon="0.54457">
        <ele>2231.18</ele>
        <time>2026-01-14T12:21:25Z</time>
      </trkpt>
      <trkpt lat="42.53301" lon="0.54454">
        <ele>2227.92</ele>
        <time>2026-01-14T12:21:28Z</time>
      </trkpt>
      <trkpt lat="42.53301" lon="0.54453">
        <ele>2231.78</ele>
        <time>2026-01-14T12:21:29Z</time>
      </trkpt>
      <trkpt lat="42.53301" lon="0.54453">
        <ele>2231.84</ele>
        <time>2026-01-14T12:21:30Z</time>
      </trkpt>
      <trkpt lat="42.53301" lon="0.54451">
        <ele>2230.31</ele>
        <time>2026-01-14T12:21:31Z</time>
      </trkpt>
      <trkpt lat="42.533" lon="0.54448">
        <ele>2228.53</ele>
        <time>2026-01-14T12:21:33Z</time>
      </trkpt>
      <trkpt lat="42.53299" lon="0.54441">
        <ele>2228.54</ele>
        <time>2026-01-14T12:21:38Z</time>
      </trkpt>
      <trkpt lat="42.53298" lon="0.54438">
        <ele>2227.09</ele>
        <time>2026-01-14T12:21:41Z</time>
      </trkpt>
      <trkpt lat="42.5329" lon="0.54413">
        <ele>2225.62</ele>
        <time>2026-01-14T12:21:58Z</time>
      </trkpt>
      <trkpt lat="42.5328" lon="0.54392">
        <ele>2222.61</ele>
        <time>2026-01-14T12:22:14Z</time>
      </trkpt>
      <trkpt lat="42.53274" lon="0.54383">
        <ele>2219.83</ele>
        <time>2026-01-14T12:22:23Z</time>
      </trkpt>
      <trkpt lat="42.53273" lon="0.54382">
        <ele>2223.58</ele>
        <time>2026-01-14T12:22:24Z</time>
      </trkpt>
      <trkpt lat="42.53271" lon="0.54379">
        <ele>2220.19</ele>
        <time>2026-01-14T12:22:27Z</time>
      </trkpt>
      <trkpt lat="42.53256" lon="0.54363">
        <ele>2217.1</ele>
        <time>2026-01-14T12:22:45Z</time>
      </trkpt>
      <trkpt lat="42.53246" lon="0.54356">
        <ele>2214.28</ele>
        <time>2026-01-14T12:22:56Z</time>
      </trkpt>
      <trkpt lat="42.5324" lon="0.54355">
        <ele>2213.34</ele>
        <time>2026-01-14T12:23:01Z</time>
      </trkpt>
      <trkpt lat="42.53226" lon="0.54339">
        <ele>2210.99</ele>
        <time>2026-01-14T12:23:19Z</time>
      </trkpt>
      <trkpt lat="42.53216" lon="0.54329">
        <ele>2209.16</ele>
        <time>2026-01-14T12:23:31Z</time>
      </trkpt>
      <trkpt lat="42.53207" lon="0.54317">
        <ele>2206.08</ele>
        <time>2026-01-14T12:23:42Z</time>
      </trkpt>
      <trkpt lat="42.53203" lon="0.54307">
        <ele>2204.11</ele>
        <time>2026-01-14T12:23:51Z</time>
      </trkpt>
      <trkpt lat="42.532" lon="0.54286">
        <ele>2200.68</ele>
        <time>2026-01-14T12:24:08Z</time>
      </trkpt>
      <trkpt lat="42.53193" lon="0.54269">
        <ele>2196.58</ele>
        <time>2026-01-14T12:24:23Z</time>
      </trkpt>
      <trkpt lat="42.53185" lon="0.5426">
        <ele>2193.14</ele>
        <time>2026-01-14T12:24:34Z</time>
      </trkpt>
      <trkpt lat="42.53185" lon="0.54259">
        <ele>2192.66</ele>
        <time>2026-01-14T12:24:35Z</time>
      </trkpt>
      <trkpt lat="42.53177" lon="0.54242">
        <ele>2189.38</ele>
        <time>2026-01-14T12:24:50Z</time>
      </trkpt>
      <trkpt lat="42.53175" lon="0.54239">
        <ele>2188.1</ele>
        <time>2026-01-14T12:24:53Z</time>
      </trkpt>
      <trkpt lat="42.53169" lon="0.54224">
        <ele>2184.77</ele>
        <time>2026-01-14T12:25:05Z</time>
      </trkpt>
      <trkpt lat="42.53163" lon="0.54216">
        <ele>2182.17</ele>
        <time>2026-01-14T12:25:14Z</time>
      </trkpt>
      <trkpt lat="42.53161" lon="0.54212">
        <ele>2180.88</ele>
        <time>2026-01-14T12:25:17Z</time>
      </trkpt>
      <trkpt lat="42.53155" lon="0.54202">
        <ele>2177.06</ele>
        <time>2026-01-14T12:25:26Z</time>
      </trkpt>
      <trkpt lat="42.53154" lon="0.54201">
        <ele>2176.78</ele>
        <time>2026-01-14T12:25:27Z</time>
      </trkpt>
      <trkpt lat="42.53144" lon="0.54189">
        <ele>2173.08</ele>
        <time>2026-01-14T12:25:41Z</time>
      </trkpt>
      <trkpt lat="42.53136" lon="0.54176">
        <ele>2169.66</ele>
        <time>2026-01-14T12:25:55Z</time>
      </trkpt>
      <trkpt lat="42.53127" lon="0.54164">
        <ele>2166.53</ele>
        <time>2026-01-14T12:26:07Z</time>
      </trkpt>
      <trkpt lat="42.53119" lon="0.54153">
        <ele>2163.39</ele>
        <time>2026-01-14T12:26:19Z</time>
      </trkpt>
      <trkpt lat="42.53113" lon="0.54139">
        <ele>2160.26</ele>
        <time>2026-01-14T12:26:31Z</time>
      </trkpt>
      <trkpt lat="42.53111" lon="0.54138">
        <ele>2159.87</ele>
        <time>2026-01-14T12:26:33Z</time>
      </trkpt>
      <trkpt lat="42.53101" lon="0.54121">
        <ele>2155.73</ele>
        <time>2026-01-14T12:26:49Z</time>
      </trkpt>
      <trkpt lat="42.53089" lon="0.54104">
        <ele>2152.65</ele>
        <time>2026-01-14T12:27:06Z</time>
      </trkpt>
      <trkpt lat="42.53076" lon="0.54082">
        <ele>2149.13</ele>
        <time>2026-01-14T12:27:23Z</time>
      </trkpt>
      <trkpt lat="42.53067" lon="0.54068">
        <ele>2146.04</ele>
        <time>2026-01-14T12:27:35Z</time>
      </trkpt>
      <trkpt lat="42.53058" lon="0.54054">
        <ele>2142.76</ele>
        <time>2026-01-14T12:27:47Z</time>
      </trkpt>
      <trkpt lat="42.53056" lon="0.5405">
        <ele>2141.3</ele>
        <time>2026-01-14T12:27:50Z</time>
      </trkpt>
      <trkpt lat="42.53052" lon="0.54047">
        <ele>2140.04</ele>
        <time>2026-01-14T12:27:54Z</time>
      </trkpt>
      <trkpt lat="42.53044" lon="0.54036">
        <ele>2136.73</ele>
        <time>2026-01-14T12:28:06Z</time>
      </trkpt>
      <trkpt lat="42.53033" lon="0.54023">
        <ele>2133.18</ele>
        <time>2026-01-14T12:28:19Z</time>
      </trkpt>
      <trkpt lat="42.53024" lon="0.54012">
        <ele>2131.52</ele>
        <time>2026-01-14T12:28:30Z</time>
      </trkpt>
      <trkpt lat="42.53022" lon="0.54011">
        <ele>2130.1</ele>
        <time>2026-01-14T12:28:32Z</time>
      </trkpt>
      <trkpt lat="42.53018" lon="0.54004">
        <ele>2129.19</ele>
        <time>2026-01-14T12:28:38Z</time>
      </trkpt>
      <trkpt lat="42.53015" lon="0.54002">
        <ele>2127.48</ele>
        <time>2026-01-14T12:28:42Z</time>
      </trkpt>
      <trkpt lat="42.52996" lon="0.53989">
        <ele>2123.91</ele>
        <time>2026-01-14T12:29:01Z</time>
      </trkpt>
      <trkpt lat="42.52979" lon="0.53972">
        <ele>2121.53</ele>
        <time>2026-01-14T12:29:20Z</time>
      </trkpt>
      <trkpt lat="42.52965" lon="0.53956">
        <ele>2118.23</ele>
        <time>2026-01-14T12:29:37Z</time>
      </trkpt>
      <trkpt lat="42.52958" lon="0.53932">
        <ele>2115.33</ele>
        <time>2026-01-14T12:29:57Z</time>
      </trkpt>
      <trkpt lat="42.52958" lon="0.53927">
        <ele>2113.95</ele>
        <time>2026-01-14T12:30:01Z</time>
      </trkpt>
      <trkpt lat="42.52955" lon="0.5391">
        <ele>2112.72</ele>
        <time>2026-01-14T12:30:16Z</time>
      </trkpt>
      <trkpt lat="42.52955" lon="0.53908">
        <ele>2112.58</ele>
        <time>2026-01-14T12:30:18Z</time>
      </trkpt>
      <trkpt lat="42.52956" lon="0.53895">
        <ele>2112.44</ele>
        <time>2026-01-14T12:30:27Z</time>
      </trkpt>
      <trkpt lat="42.52956" lon="0.53889">
        <ele>2111.91</ele>
        <time>2026-01-14T12:30:31Z</time>
      </trkpt>
      <trkpt lat="42.5296" lon="0.53863">
        <ele>2108.77</ele>
        <time>2026-01-14T12:30:48Z</time>
      </trkpt>
      <trkpt lat="42.52963" lon="0.53848">
        <ele>2106.06</ele>
        <time>2026-01-14T12:30:58Z</time>
      </trkpt>
      <trkpt lat="42.52967" lon="0.53833">
        <ele>2104.91</ele>
        <time>2026-01-14T12:31:09Z</time>
      </trkpt>
      <trkpt lat="42.52968" lon="0.53827">
        <ele>2103.56</ele>
        <time>2026-01-14T12:31:15Z</time>
      </trkpt>
      <trkpt lat="42.52968" lon="0.53824">
        <ele>2103.2</ele>
        <time>2026-01-14T12:31:17Z</time>
      </trkpt>
      <trkpt lat="42.52969" lon="0.53807">
        <ele>2099.87</ele>
        <time>2026-01-14T12:31:30Z</time>
      </trkpt>
      <trkpt lat="42.52974" lon="0.53791">
        <ele>2096.87</ele>
        <time>2026-01-14T12:31:42Z</time>
      </trkpt>
      <trkpt lat="42.52981" lon="0.53772">
        <ele>2093.47</ele>
        <time>2026-01-14T12:31:57Z</time>
      </trkpt>
      <trkpt lat="42.52983" lon="0.53767">
        <ele>2093.08</ele>
        <time>2026-01-14T12:32:00Z</time>
      </trkpt>
      <trkpt lat="42.52988" lon="0.53753">
        <ele>2089.72</ele>
        <time>2026-01-14T12:32:12Z</time>
      </trkpt>
      <trkpt lat="42.52989" lon="0.53741">
        <ele>2086.71</ele>
        <time>2026-01-14T12:32:21Z</time>
      </trkpt>
      <trkpt lat="42.5299" lon="0.53739">
        <ele>2086.72</ele>
        <time>2026-01-14T12:32:23Z</time>
      </trkpt>
      <trkpt lat="42.5299" lon="0.53724">
        <ele>2083.48</ele>
        <time>2026-01-14T12:32:34Z</time>
      </trkpt>
      <trkpt lat="42.52991" lon="0.53711">
        <ele>2080.06</ele>
        <time>2026-01-14T12:32:44Z</time>
      </trkpt>
      <trkpt lat="42.52991" lon="0.5371">
        <ele>2080.41</ele>
        <time>2026-01-14T12:32:45Z</time>
      </trkpt>
      <trkpt lat="42.52994" lon="0.53693">
        <ele>2075.11</ele>
        <time>2026-01-14T12:33:01Z</time>
      </trkpt>
      <trkpt lat="42.52998" lon="0.53679">
        <ele>2072.07</ele>
        <time>2026-01-14T12:33:12Z</time>
      </trkpt>
      <trkpt lat="42.53" lon="0.53674">
        <ele>2070.51</ele>
        <time>2026-01-14T12:33:16Z</time>
      </trkpt>
      <trkpt lat="42.53005" lon="0.5366">
        <ele>2067.02</ele>
        <time>2026-01-14T12:33:27Z</time>
      </trkpt>
      <trkpt lat="42.53009" lon="0.53649">
        <ele>2063.68</ele>
        <time>2026-01-14T12:33:37Z</time>
      </trkpt>
      <trkpt lat="42.5301" lon="0.53647">
        <ele>2062.41</ele>
        <time>2026-01-14T12:33:40Z</time>
      </trkpt>
      <trkpt lat="42.53013" lon="0.53641">
        <ele>2059.32</ele>
        <time>2026-01-14T12:33:47Z</time>
      </trkpt>
      <trkpt lat="42.53015" lon="0.53636">
        <ele>2056.95</ele>
        <time>2026-01-14T12:34:08Z</time>
      </trkpt>
      <trkpt lat="42.5301" lon="0.5363">
        <ele>2055.55</ele>
        <time>2026-01-14T12:34:33Z</time>
      </trkpt>
      <trkpt lat="42.53002" lon="0.53626">
        <ele>2054.93</ele>
        <time>2026-01-14T12:34:51Z</time>
      </trkpt>
      <trkpt lat="42.52994" lon="0.5362">
        <ele>2053.56</ele>
        <time>2026-01-14T12:35:17Z</time>
      </trkpt>
      <trkpt lat="42.52987" lon="0.5361">
        <ele>2050.46</ele>
        <time>2026-01-14T12:35:36Z</time>
      </trkpt>
      <trkpt lat="42.52981" lon="0.53597">
        <ele>2047.81</ele>
        <time>2026-01-14T12:36:00Z</time>
      </trkpt>
      <trkpt lat="42.52973" lon="0.53584">
        <ele>2045.66</ele>
        <time>2026-01-14T12:36:22Z</time>
      </trkpt>
      <trkpt lat="42.52964" lon="0.5357">
        <ele>2043.18</ele>
        <time>2026-01-14T12:36:44Z</time>
      </trkpt>
      <trkpt lat="42.52963" lon="0.53558">
        <ele>2039.65</ele>
        <time>2026-01-14T12:37:00Z</time>
      </trkpt>
      <trkpt lat="42.52965" lon="0.53556">
        <ele>2038.65</ele>
        <time>2026-01-14T12:37:12Z</time>
      </trkpt>
      <trkpt lat="42.52982" lon="0.53566">
        <ele>2036.81</ele>
        <time>2026-01-14T12:37:28Z</time>
      </trkpt>
      <trkpt lat="42.52993" lon="0.53573">
        <ele>2036.61</ele>
        <time>2026-01-14T12:37:37Z</time>
      </trkpt>
      <trkpt lat="42.53008" lon="0.53581">
        <ele>2035.43</ele>
        <time>2026-01-14T12:37:51Z</time>
      </trkpt>
      <trkpt lat="42.53024" lon="0.5359">
        <ele>2034.47</ele>
        <time>2026-01-14T12:38:06Z</time>
      </trkpt>
      <trkpt lat="42.53039" lon="0.53599">
        <ele>2032.12</ele>
        <time>2026-01-14T12:38:20Z</time>
      </trkpt>
      <trkpt lat="42.53052" lon="0.53606">
        <ele>2031.16</ele>
        <time>2026-01-14T12:38:39Z</time>
      </trkpt>
      <trkpt lat="42.53053" lon="0.53605">
        <ele>2030.26</ele>
        <time>2026-01-14T12:38:49Z</time>
      </trkpt>
      <trkpt lat="42.53058" lon="0.53601">
        <ele>2026.87</ele>
        <time>2026-01-14T12:39:01Z</time>
      </trkpt>
      <trkpt lat="42.53058" lon="0.53594">
        <ele>2023.38</ele>
        <time>2026-01-14T12:39:14Z</time>
      </trkpt>
      <trkpt lat="42.53057" lon="0.53584">
        <ele>2020.2</ele>
        <time>2026-01-14T12:39:30Z</time>
      </trkpt>
      <trkpt lat="42.5306" lon="0.53577">
        <ele>2017.95</ele>
        <time>2026-01-14T12:39:52Z</time>
      </trkpt>
      <trkpt lat="42.53064" lon="0.5357">
        <ele>2014.73</ele>
        <time>2026-01-14T12:40:03Z</time>
      </trkpt>
      <trkpt lat="42.53067" lon="0.53564">
        <ele>2011.97</ele>
        <time>2026-01-14T12:40:13Z</time>
      </trkpt>
      <trkpt lat="42.5307" lon="0.53557">
        <ele>2008.8</ele>
        <time>2026-01-14T12:40:28Z</time>
      </trkpt>
      <trkpt lat="42.53071" lon="0.53556">
        <ele>2007.52</ele>
        <time>2026-01-14T12:40:31Z</time>
      </trkpt>
      <trkpt lat="42.53074" lon="0.5355">
        <ele>2004.27</ele>
        <time>2026-01-14T12:40:43Z</time>
      </trkpt>
      <trkpt lat="42.53077" lon="0.53542">
        <ele>2000.87</ele>
        <time>2026-01-14T12:40:57Z</time>
      </trkpt>
      <trkpt lat="42.53078" lon="0.53542">
        <ele>2000.94</ele>
        <time>2026-01-14T12:41:19Z</time>
      </trkpt>
      <trkpt lat="42.53081" lon="0.53533">
        <ele>1997.35</ele>
        <time>2026-01-14T12:41:33Z</time>
      </trkpt>
      <trkpt lat="42.53083" lon="0.53524">
        <ele>1993.42</ele>
        <time>2026-01-14T12:41:47Z</time>
      </trkpt>
      <trkpt lat="42.53083" lon="0.53524">
        <ele>1993.43</ele>
        <time>2026-01-14T12:41:48Z</time>
      </trkpt>
      <trkpt lat="42.53086" lon="0.53516">
        <ele>1990.27</ele>
        <time>2026-01-14T12:42:03Z</time>
      </trkpt>
      <trkpt lat="42.53088" lon="0.53512">
        <ele>1988.94</ele>
        <time>2026-01-14T12:42:25Z</time>
      </trkpt>
      <trkpt lat="42.53088" lon="0.53509">
        <ele>1988.2</ele>
        <time>2026-01-14T12:43:02Z</time>
      </trkpt>
      <trkpt lat="42.53089" lon="0.53508">
        <ele>1986.86</ele>
        <time>2026-01-14T12:43:05Z</time>
      </trkpt>
      <trkpt lat="42.53091" lon="0.535">
        <ele>1983.7</ele>
        <time>2026-01-14T12:43:15Z</time>
      </trkpt>
      <trkpt lat="42.53092" lon="0.53493">
        <ele>1980.69</ele>
        <time>2026-01-14T12:43:27Z</time>
      </trkpt>
      <trkpt lat="42.53094" lon="0.53484">
        <ele>1977.34</ele>
        <time>2026-01-14T12:43:41Z</time>
      </trkpt>
      <trkpt lat="42.53094" lon="0.53474">
        <ele>1974.13</ele>
        <time>2026-01-14T12:43:55Z</time>
      </trkpt>
      <trkpt lat="42.53096" lon="0.53467">
        <ele>1971.11</ele>
        <time>2026-01-14T12:44:11Z</time>
      </trkpt>
      <trkpt lat="42.531" lon="0.53462">
        <ele>1967.87</ele>
        <time>2026-01-14T12:44:24Z</time>
      </trkpt>
      <trkpt lat="42.53102" lon="0.5345">
        <ele>1964.18</ele>
        <time>2026-01-14T12:44:44Z</time>
      </trkpt>
      <trkpt lat="42.53106" lon="0.53444">
        <ele>1960.98</ele>
        <time>2026-01-14T12:44:57Z</time>
      </trkpt>
      <trkpt lat="42.53108" lon="0.53434">
        <ele>1957.65</ele>
        <time>2026-01-14T12:45:10Z</time>
      </trkpt>
      <trkpt lat="42.5311" lon="0.53426">
        <ele>1954.34</ele>
        <time>2026-01-14T12:45:22Z</time>
      </trkpt>
      <trkpt lat="42.53111" lon="0.53425">
        <ele>1953.71</ele>
        <time>2026-01-14T12:45:24Z</time>
      </trkpt>
      <trkpt lat="42.53114" lon="0.5342">
        <ele>1951.42</ele>
        <time>2026-01-14T12:45:35Z</time>
      </trkpt>
      <trkpt lat="42.53118" lon="0.53414">
        <ele>1948.21</ele>
        <time>2026-01-14T12:45:45Z</time>
      </trkpt>
      <trkpt lat="42.5312" lon="0.53407">
        <ele>1945.05</ele>
        <time>2026-01-14T12:45:56Z</time>
      </trkpt>
      <trkpt lat="42.53122" lon="0.53402">
        <ele>1941.95</ele>
        <time>2026-01-14T12:46:09Z</time>
      </trkpt>
      <trkpt lat="42.53125" lon="0.534">
        <ele>1940.5</ele>
        <time>2026-01-14T12:46:33Z</time>
      </trkpt>
      <trkpt lat="42.53129" lon="0.53396">
        <ele>1937.47</ele>
        <time>2026-01-14T12:46:44Z</time>
      </trkpt>
      <trkpt lat="42.53131" lon="0.53388">
        <ele>1934.16</ele>
        <time>2026-01-14T12:46:53Z</time>
      </trkpt>
      <trkpt lat="42.53133" lon="0.53383">
        <ele>1932.66</ele>
        <time>2026-01-14T12:47:00Z</time>
      </trkpt>
      <trkpt lat="42.53135" lon="0.53376">
        <ele>1929.31</ele>
        <time>2026-01-14T12:47:09Z</time>
      </trkpt>
      <trkpt lat="42.53136" lon="0.53371">
        <ele>1927.25</ele>
        <time>2026-01-14T12:47:15Z</time>
      </trkpt>
      <trkpt lat="42.5314" lon="0.53363">
        <ele>1923.84</ele>
        <time>2026-01-14T12:47:25Z</time>
      </trkpt>
      <trkpt lat="42.53144" lon="0.53358">
        <ele>1921.05</ele>
        <time>2026-01-14T12:47:42Z</time>
      </trkpt>
      <trkpt lat="42.53148" lon="0.53357">
        <ele>1918.04</ele>
        <time>2026-01-14T12:47:51Z</time>
      </trkpt>
      <trkpt lat="42.53152" lon="0.53356">
        <ele>1917.6</ele>
        <time>2026-01-14T12:48:03Z</time>
      </trkpt>
      <trkpt lat="42.53152" lon="0.53358">
        <ele>1918.9</ele>
        <time>2026-01-14T12:48:08Z</time>
      </trkpt>
      <trkpt lat="42.53156" lon="0.53367">
        <ele>1917.68</ele>
        <time>2026-01-14T12:48:22Z</time>
      </trkpt>
      <trkpt lat="42.53156" lon="0.53367">
        <ele>1919.21</ele>
        <time>2026-01-14T12:48:27Z</time>
      </trkpt>
      <trkpt lat="42.53157" lon="0.53367">
        <ele>1919.28</ele>
        <time>2026-01-14T12:48:28Z</time>
      </trkpt>
      <trkpt lat="42.53166" lon="0.53373">
        <ele>1920.21</ele>
        <time>2026-01-14T12:48:40Z</time>
      </trkpt>
      <trkpt lat="42.53176" lon="0.53379">
        <ele>1922.14</ele>
        <time>2026-01-14T12:48:55Z</time>
      </trkpt>
      <trkpt lat="42.53184" lon="0.53383">
        <ele>1922.83</ele>
        <time>2026-01-14T12:49:12Z</time>
      </trkpt>
      <trkpt lat="42.53193" lon="0.5339">
        <ele>1924.99</ele>
        <time>2026-01-14T12:49:28Z</time>
      </trkpt>
      <trkpt lat="42.53201" lon="0.53401">
        <ele>1926.89</ele>
        <time>2026-01-14T12:49:46Z</time>
      </trkpt>
      <trkpt lat="42.53205" lon="0.534">
        <ele>1925.79</ele>
        <time>2026-01-14T12:49:53Z</time>
      </trkpt>
      <trkpt lat="42.53207" lon="0.53399">
        <ele>1924.55</ele>
        <time>2026-01-14T12:50:03Z</time>
      </trkpt>
      <trkpt lat="42.53209" lon="0.53396">
        <ele>1923.97</ele>
        <time>2026-01-14T12:50:08Z</time>
      </trkpt>
      <trkpt lat="42.53211" lon="0.53386">
        <ele>1920.13</ele>
        <time>2026-01-14T12:50:18Z</time>
      </trkpt>
      <trkpt lat="42.53217" lon="0.53378">
        <ele>1916.92</ele>
        <time>2026-01-14T12:50:32Z</time>
      </trkpt>
      <trkpt lat="42.5322" lon="0.53372">
        <ele>1914.25</ele>
        <time>2026-01-14T12:50:40Z</time>
      </trkpt>
      <trkpt lat="42.53223" lon="0.53366">
        <ele>1911.16</ele>
        <time>2026-01-14T12:50:51Z</time>
      </trkpt>
      <trkpt lat="42.53227" lon="0.53357">
        <ele>1908.3</ele>
        <time>2026-01-14T12:51:10Z</time>
      </trkpt>
      <trkpt lat="42.53228" lon="0.5335">
        <ele>1905.27</ele>
        <time>2026-01-14T12:51:20Z</time>
      </trkpt>
      <trkpt lat="42.5323" lon="0.53341">
        <ele>1901.77</ele>
        <time>2026-01-14T12:51:32Z</time>
      </trkpt>
      <trkpt lat="42.53233" lon="0.5333">
        <ele>1898.68</ele>
        <time>2026-01-14T12:51:44Z</time>
      </trkpt>
      <trkpt lat="42.53233" lon="0.53328">
        <ele>1897.98</ele>
        <time>2026-01-14T12:51:46Z</time>
      </trkpt>
      <trkpt lat="42.53232" lon="0.53321">
        <ele>1896.88</ele>
        <time>2026-01-14T12:51:52Z</time>
      </trkpt>
      <trkpt lat="42.53232" lon="0.53308">
        <ele>1892.87</ele>
        <time>2026-01-14T12:52:03Z</time>
      </trkpt>
      <trkpt lat="42.53233" lon="0.53297">
        <ele>1889.74</ele>
        <time>2026-01-14T12:52:15Z</time>
      </trkpt>
      <trkpt lat="42.53234" lon="0.53289">
        <ele>1886.17</ele>
        <time>2026-01-14T12:52:25Z</time>
      </trkpt>
      <trkpt lat="42.53235" lon="0.53286">
        <ele>1885.2</ele>
        <time>2026-01-14T12:52:29Z</time>
      </trkpt>
      <trkpt lat="42.53238" lon="0.53278">
        <ele>1882.88</ele>
        <time>2026-01-14T12:52:41Z</time>
      </trkpt>
      <trkpt lat="42.5324" lon="0.5327">
        <ele>1880.13</ele>
        <time>2026-01-14T12:52:49Z</time>
      </trkpt>
      <trkpt lat="42.53241" lon="0.53261">
        <ele>1876.68</ele>
        <time>2026-01-14T12:52:57Z</time>
      </trkpt>
      <trkpt lat="42.53246" lon="0.5325">
        <ele>1873.7</ele>
        <time>2026-01-14T12:53:13Z</time>
      </trkpt>
      <trkpt lat="42.53246" lon="0.53239">
        <ele>1870.35</ele>
        <time>2026-01-14T12:53:24Z</time>
      </trkpt>
      <trkpt lat="42.53247" lon="0.53233">
        <ele>1868.74</ele>
        <time>2026-01-14T12:53:31Z</time>
      </trkpt>
      <trkpt lat="42.53246" lon="0.53228">
        <ele>1866.83</ele>
        <time>2026-01-14T12:53:35Z</time>
      </trkpt>
      <trkpt lat="42.53246" lon="0.53227">
        <ele>1866.62</ele>
        <time>2026-01-14T12:53:36Z</time>
      </trkpt>
      <trkpt lat="42.53248" lon="0.53221">
        <ele>1864.7</ele>
        <time>2026-01-14T12:53:42Z</time>
      </trkpt>
      <trkpt lat="42.5325" lon="0.53218">
        <ele>1863.35</ele>
        <time>2026-01-14T12:53:46Z</time>
      </trkpt>
      <trkpt lat="42.53255" lon="0.53205">
        <ele>1860.03</ele>
        <time>2026-01-14T12:54:00Z</time>
      </trkpt>
      <trkpt lat="42.53258" lon="0.53201">
        <ele>1858.18</ele>
        <time>2026-01-14T12:54:05Z</time>
      </trkpt>
      <trkpt lat="42.53261" lon="0.53195">
        <ele>1854.21</ele>
        <time>2026-01-14T12:54:13Z</time>
      </trkpt>
      <trkpt lat="42.53264" lon="0.53187">
        <ele>1850.9</ele>
        <time>2026-01-14T12:54:25Z</time>
      </trkpt>
      <trkpt lat="42.53263" lon="0.53179">
        <ele>1851.82</ele>
        <time>2026-01-14T12:54:43Z</time>
      </trkpt>
      <trkpt lat="42.53262" lon="0.5318">
        <ele>1850.21</ele>
        <time>2026-01-14T12:55:07Z</time>
      </trkpt>
      <trkpt lat="42.53259" lon="0.53183">
        <ele>1850.69</ele>
        <time>2026-01-14T12:55:39Z</time>
      </trkpt>
      <trkpt lat="42.5326" lon="0.53182">
        <ele>1850.73</ele>
        <time>2026-01-14T12:56:23Z</time>
      </trkpt>
      <trkpt lat="42.5326" lon="0.53181">
        <ele>1850.88</ele>
        <time>2026-01-14T12:56:56Z</time>
      </trkpt>
      <trkpt lat="42.53264" lon="0.53179">
        <ele>1851.02</ele>
        <time>2026-01-14T12:57:28Z</time>
      </trkpt>
      <trkpt lat="42.53266" lon="0.5318">
        <ele>1851.34</ele>
        <time>2026-01-14T12:58:13Z</time>
      </trkpt>
      <trkpt lat="42.53262" lon="0.53181">
        <ele>1851.63</ele>
        <time>2026-01-14T12:58:33Z</time>
      </trkpt>
      <trkpt lat="42.5326" lon="0.5318">
        <ele>1851.03</ele>
        <time>2026-01-14T12:58:52Z</time>
      </trkpt>
      <trkpt lat="42.53261" lon="0.53179">
        <ele>1850.47</ele>
        <time>2026-01-14T12:59:16Z</time>
      </trkpt>
      <trkpt lat="42.53261" lon="0.53179">
        <ele>1854.06</ele>
        <time>2026-01-14T12:59:17Z</time>
      </trkpt>
      <trkpt lat="42.53261" lon="0.53179">
        <ele>1852.03</ele>
        <time>2026-01-14T12:59:18Z</time>
      </trkpt>
      <trkpt lat="42.53262" lon="0.5318">
        <ele>1851.77</ele>
        <time>2026-01-14T12:59:38Z</time>
      </trkpt>
      <trkpt lat="42.53263" lon="0.53181">
        <ele>1851.36</ele>
        <time>2026-01-14T13:00:12Z</time>
      </trkpt>
      <trkpt lat="42.5326" lon="0.53181">
        <ele>1852.4</ele>
        <time>2026-01-14T13:00:36Z</time>
      </trkpt>
      <trkpt lat="42.53256" lon="0.53184">
        <ele>1852.57</ele>
        <time>2026-01-14T13:01:01Z</time>
      </trkpt>
      <trkpt lat="42.53258" lon="0.53183">
        <ele>1851.92</ele>
        <time>2026-01-14T13:01:26Z</time>
      </trkpt>
      <trkpt lat="42.53259" lon="0.53181">
        <ele>1852.33</ele>
        <time>2026-01-14T13:01:49Z</time>
      </trkpt>
      <trkpt lat="42.5326" lon="0.53181">
        <ele>1852.19</ele>
        <time>2026-01-14T13:02:16Z</time>
      </trkpt>
      <trkpt lat="42.53265" lon="0.53184">
        <ele>1851.14</ele>
        <time>2026-01-14T13:02:32Z</time>
      </trkpt>
      <trkpt lat="42.53266" lon="0.53185">
        <ele>1850.98</ele>
        <time>2026-01-14T13:02:34Z</time>
      </trkpt>
      <trkpt lat="42.53285" lon="0.53183">
        <ele>1848.83</ele>
        <time>2026-01-14T13:02:56Z</time>
      </trkpt>
      <trkpt lat="42.53286" lon="0.5318">
        <ele>1848.39</ele>
        <time>2026-01-14T13:02:59Z</time>
      </trkpt>
      <trkpt lat="42.53293" lon="0.53156">
        <ele>1847.15</ele>
        <time>2026-01-14T13:03:18Z</time>
      </trkpt>
      <trkpt lat="42.53295" lon="0.53148">
        <ele>1845.63</ele>
        <time>2026-01-14T13:03:25Z</time>
      </trkpt>
      <trkpt lat="42.53299" lon="0.53127">
        <ele>1842.01</ele>
        <time>2026-01-14T13:03:40Z</time>
      </trkpt>
      <trkpt lat="42.53299" lon="0.53124">
        <ele>1845.08</ele>
        <time>2026-01-14T13:03:42Z</time>
      </trkpt>
      <trkpt lat="42.533" lon="0.53115">
        <ele>1841.53</ele>
        <time>2026-01-14T13:03:48Z</time>
      </trkpt>
      <trkpt lat="42.533" lon="0.53114">
        <ele>1842.54</ele>
        <time>2026-01-14T13:03:49Z</time>
      </trkpt>
      <trkpt lat="42.53299" lon="0.53103">
        <ele>1840.71</ele>
        <time>2026-01-14T13:03:57Z</time>
      </trkpt>
      <trkpt lat="42.53299" lon="0.53102">
        <ele>1846.18</ele>
        <time>2026-01-14T13:03:58Z</time>
      </trkpt>
      <trkpt lat="42.53299" lon="0.531">
        <ele>1842.21</ele>
        <time>2026-01-14T13:03:59Z</time>
      </trkpt>
      <trkpt lat="42.53299" lon="0.53096">
        <ele>1838.39</ele>
        <time>2026-01-14T13:04:02Z</time>
      </trkpt>
      <trkpt lat="42.53299" lon="0.53095">
        <ele>1841.9</ele>
        <time>2026-01-14T13:04:03Z</time>
      </trkpt>
      <trkpt lat="42.53295" lon="0.5307">
        <ele>1839.69</ele>
        <time>2026-01-14T13:04:19Z</time>
      </trkpt>
      <trkpt lat="42.53294" lon="0.53045">
        <ele>1838.51</ele>
        <time>2026-01-14T13:04:35Z</time>
      </trkpt>
      <trkpt lat="42.53295" lon="0.53025">
        <ele>1837.8</ele>
        <time>2026-01-14T13:04:48Z</time>
      </trkpt>
      <trkpt lat="42.5331" lon="0.53002">
        <ele>1834.44</ele>
        <time>2026-01-14T13:05:08Z</time>
      </trkpt>
      <trkpt lat="42.53318" lon="0.52982">
        <ele>1831.57</ele>
        <time>2026-01-14T13:05:23Z</time>
      </trkpt>
      <trkpt lat="42.53323" lon="0.52955">
        <ele>1828.9</ele>
        <time>2026-01-14T13:05:42Z</time>
      </trkpt>
      <trkpt lat="42.53345" lon="0.52935">
        <ele>1826.25</ele>
        <time>2026-01-14T13:06:05Z</time>
      </trkpt>
      <trkpt lat="42.53343" lon="0.52921">
        <ele>1822.18</ele>
        <time>2026-01-14T13:06:18Z</time>
      </trkpt>
      <trkpt lat="42.53328" lon="0.52921">
        <ele>1822.94</ele>
        <time>2026-01-14T13:06:30Z</time>
      </trkpt>
      <trkpt lat="42.53309" lon="0.52916">
        <ele>1819.59</ele>
        <time>2026-01-14T13:06:45Z</time>
      </trkpt>
      <trkpt lat="42.53291" lon="0.52911">
        <ele>1815.91</ele>
        <time>2026-01-14T13:06:59Z</time>
      </trkpt>
      <trkpt lat="42.53272" lon="0.52919">
        <ele>1815.58</ele>
        <time>2026-01-14T13:07:15Z</time>
      </trkpt>
      <trkpt lat="42.5326" lon="0.52941">
        <ele>1813.5</ele>
        <time>2026-01-14T13:07:31Z</time>
      </trkpt>
      <trkpt lat="42.53246" lon="0.5296">
        <ele>1811.28</ele>
        <time>2026-01-14T13:07:47Z</time>
      </trkpt>
      <trkpt lat="42.53244" lon="0.52961">
        <ele>1811.04</ele>
        <time>2026-01-14T13:07:49Z</time>
      </trkpt>
      <trkpt lat="42.53238" lon="0.52962">
        <ele>1809.8</ele>
        <time>2026-01-14T13:07:54Z</time>
      </trkpt>
      <trkpt lat="42.53233" lon="0.52958">
        <ele>1809.44</ele>
        <time>2026-01-14T13:07:59Z</time>
      </trkpt>
      <trkpt lat="42.53228" lon="0.52931">
        <ele>1807.04</ele>
        <time>2026-01-14T13:08:18Z</time>
      </trkpt>
      <trkpt lat="42.53222" lon="0.52905">
        <ele>1803.88</ele>
        <time>2026-01-14T13:08:35Z</time>
      </trkpt>
      <trkpt lat="42.53221" lon="0.52899">
        <ele>1803.36</ele>
        <time>2026-01-14T13:08:40Z</time>
      </trkpt>
      <trkpt lat="42.5322" lon="0.52896">
        <ele>1803.17</ele>
        <time>2026-01-14T13:08:43Z</time>
      </trkpt>
      <trkpt lat="42.53212" lon="0.52874">
        <ele>1801</ele>
        <time>2026-01-14T13:09:00Z</time>
      </trkpt>
      <trkpt lat="42.5321" lon="0.52871">
        <ele>1800.59</ele>
        <time>2026-01-14T13:09:03Z</time>
      </trkpt>
      <trkpt lat="42.53203" lon="0.52848">
        <ele>1798.55</ele>
        <time>2026-01-14T13:09:19Z</time>
      </trkpt>
      <trkpt lat="42.53197" lon="0.52825">
        <ele>1796.38</ele>
        <time>2026-01-14T13:09:35Z</time>
      </trkpt>
      <trkpt lat="42.53178" lon="0.52807">
        <ele>1794.4</ele>
        <time>2026-01-14T13:09:53Z</time>
      </trkpt>
      <trkpt lat="42.53159" lon="0.52804">
        <ele>1791.06</ele>
        <time>2026-01-14T13:10:09Z</time>
      </trkpt>
      <trkpt lat="42.53132" lon="0.52809">
        <ele>1788.48</ele>
        <time>2026-01-14T13:10:30Z</time>
      </trkpt>
      <trkpt lat="42.53128" lon="0.52808">
        <ele>1788.49</ele>
        <time>2026-01-14T13:10:36Z</time>
      </trkpt>
      <trkpt lat="42.53125" lon="0.52808">
        <ele>1787.61</ele>
        <time>2026-01-14T13:10:39Z</time>
      </trkpt>
      <trkpt lat="42.53104" lon="0.52795">
        <ele>1784.32</ele>
        <time>2026-01-14T13:10:58Z</time>
      </trkpt>
      <trkpt lat="42.53084" lon="0.52785">
        <ele>1781.77</ele>
        <time>2026-01-14T13:11:16Z</time>
      </trkpt>
      <trkpt lat="42.53069" lon="0.5278">
        <ele>1780.15</ele>
        <time>2026-01-14T13:11:32Z</time>
      </trkpt>
      <trkpt lat="42.53059" lon="0.52768">
        <ele>1776.96</ele>
        <time>2026-01-14T13:11:47Z</time>
      </trkpt>
      <trkpt lat="42.53049" lon="0.52751">
        <ele>1773.86</ele>
        <time>2026-01-14T13:12:02Z</time>
      </trkpt>
      <trkpt lat="42.53041" lon="0.52736">
        <ele>1770.35</ele>
        <time>2026-01-14T13:12:15Z</time>
      </trkpt>
      <trkpt lat="42.53035" lon="0.52727">
        <ele>1769.54</ele>
        <time>2026-01-14T13:12:23Z</time>
      </trkpt>
      <trkpt lat="42.5303" lon="0.52724">
        <ele>1768.48</ele>
        <time>2026-01-14T13:12:28Z</time>
      </trkpt>
      <trkpt lat="42.53024" lon="0.52715">
        <ele>1767.05</ele>
        <time>2026-01-14T13:12:36Z</time>
      </trkpt>
      <trkpt lat="42.53022" lon="0.52696">
        <ele>1764.48</ele>
        <time>2026-01-14T13:12:48Z</time>
      </trkpt>
      <trkpt lat="42.53019" lon="0.52683">
        <ele>1761.93</ele>
        <time>2026-01-14T13:12:57Z</time>
      </trkpt>
      <trkpt lat="42.53019" lon="0.52667">
        <ele>1758.75</ele>
        <time>2026-01-14T13:13:07Z</time>
      </trkpt>
      <trkpt lat="42.53018" lon="0.52659">
        <ele>1757.42</ele>
        <time>2026-01-14T13:13:12Z</time>
      </trkpt>
      <trkpt lat="42.53017" lon="0.52655">
        <ele>1755.88</ele>
        <time>2026-01-14T13:13:15Z</time>
      </trkpt>
      <trkpt lat="42.53013" lon="0.52652">
        <ele>1755.56</ele>
        <time>2026-01-14T13:13:19Z</time>
      </trkpt>
      <trkpt lat="42.5301" lon="0.52649">
        <ele>1754.05</ele>
        <time>2026-01-14T13:13:23Z</time>
      </trkpt>
      <trkpt lat="42.53006" lon="0.52643">
        <ele>1754.09</ele>
        <time>2026-01-14T13:13:29Z</time>
      </trkpt>
      <trkpt lat="42.52995" lon="0.52627">
        <ele>1750.72</ele>
        <time>2026-01-14T13:13:44Z</time>
      </trkpt>
      <trkpt lat="42.52988" lon="0.52614">
        <ele>1747.58</ele>
        <time>2026-01-14T13:13:55Z</time>
      </trkpt>
      <trkpt lat="42.52986" lon="0.52593">
        <ele>1744.81</ele>
        <time>2026-01-14T13:14:10Z</time>
      </trkpt>
      <trkpt lat="42.52982" lon="0.52587">
        <ele>1744.52</ele>
        <time>2026-01-14T13:14:15Z</time>
      </trkpt>
      <trkpt lat="42.52975" lon="0.52578">
        <ele>1742.33</ele>
        <time>2026-01-14T13:14:29Z</time>
      </trkpt>
      <trkpt lat="42.52973" lon="0.52574">
        <ele>1741.85</ele>
        <time>2026-01-14T13:14:35Z</time>
      </trkpt>
      <trkpt lat="42.52973" lon="0.5257">
        <ele>1741.68</ele>
        <time>2026-01-14T13:14:39Z</time>
      </trkpt>
      <trkpt lat="42.52971" lon="0.52563">
        <ele>1738.29</ele>
        <time>2026-01-14T13:14:45Z</time>
      </trkpt>
      <trkpt lat="42.52963" lon="0.52543">
        <ele>1735.31</ele>
        <time>2026-01-14T13:15:02Z</time>
      </trkpt>
      <trkpt lat="42.52954" lon="0.5253">
        <ele>1731.61</ele>
        <time>2026-01-14T13:15:14Z</time>
      </trkpt>
      <trkpt lat="42.52945" lon="0.5252">
        <ele>1728.32</ele>
        <time>2026-01-14T13:15:25Z</time>
      </trkpt>
      <trkpt lat="42.52943" lon="0.52518">
        <ele>1727.69</ele>
        <time>2026-01-14T13:15:27Z</time>
      </trkpt>
      <trkpt lat="42.52935" lon="0.52504">
        <ele>1723.18</ele>
        <time>2026-01-14T13:15:40Z</time>
      </trkpt>
      <trkpt lat="42.52926" lon="0.52488">
        <ele>1719.84</ele>
        <time>2026-01-14T13:15:54Z</time>
      </trkpt>
      <trkpt lat="42.52923" lon="0.52484">
        <ele>1719.65</ele>
        <time>2026-01-14T13:15:57Z</time>
      </trkpt>
      <trkpt lat="42.52911" lon="0.5247">
        <ele>1715.35</ele>
        <time>2026-01-14T13:16:12Z</time>
      </trkpt>
      <trkpt lat="42.52903" lon="0.52453">
        <ele>1714.41</ele>
        <time>2026-01-14T13:16:26Z</time>
      </trkpt>
      <trkpt lat="42.52902" lon="0.52452">
        <ele>1714.42</ele>
        <time>2026-01-14T13:16:27Z</time>
      </trkpt>
      <trkpt lat="42.52891" lon="0.52442">
        <ele>1711.12</ele>
        <time>2026-01-14T13:16:41Z</time>
      </trkpt>
      <trkpt lat="42.52887" lon="0.52439">
        <ele>1708.99</ele>
        <time>2026-01-14T13:16:45Z</time>
      </trkpt>
      <trkpt lat="42.52879" lon="0.52427">
        <ele>1705.88</ele>
        <time>2026-01-14T13:16:57Z</time>
      </trkpt>
      <trkpt lat="42.52879" lon="0.52423">
        <ele>1705.94</ele>
        <time>2026-01-14T13:17:00Z</time>
      </trkpt>
      <trkpt lat="42.52878" lon="0.5242">
        <ele>1705.43</ele>
        <time>2026-01-14T13:17:02Z</time>
      </trkpt>
      <trkpt lat="42.52858" lon="0.52421">
        <ele>1699.69</ele>
        <time>2026-01-14T13:17:19Z</time>
      </trkpt>
      <trkpt lat="42.52857" lon="0.52421">
        <ele>1699.74</ele>
        <time>2026-01-14T13:17:20Z</time>
      </trkpt>
      <trkpt lat="42.52851" lon="0.52419">
        <ele>1696.67</ele>
        <time>2026-01-14T13:17:27Z</time>
      </trkpt>
      <trkpt lat="42.52847" lon="0.52414">
        <ele>1695.14</ele>
        <time>2026-01-14T13:17:36Z</time>
      </trkpt>
      <trkpt lat="42.52844" lon="0.52412">
        <ele>1694.1</ele>
        <time>2026-01-14T13:17:38Z</time>
      </trkpt>
      <trkpt lat="42.52839" lon="0.52411">
        <ele>1694.7</ele>
        <time>2026-01-14T13:17:46Z</time>
      </trkpt>
      <trkpt lat="42.52837" lon="0.5241">
        <ele>1693</ele>
        <time>2026-01-14T13:17:48Z</time>
      </trkpt>
      <trkpt lat="42.52827" lon="0.52402">
        <ele>1690.03</ele>
        <time>2026-01-14T13:18:00Z</time>
      </trkpt>
      <trkpt lat="42.52825" lon="0.52401">
        <ele>1689.21</ele>
        <time>2026-01-14T13:18:02Z</time>
      </trkpt>
      <trkpt lat="42.52814" lon="0.52395">
        <ele>1686.06</ele>
        <time>2026-01-14T13:18:14Z</time>
      </trkpt>
      <trkpt lat="42.52797" lon="0.52391">
        <ele>1682.42</ele>
        <time>2026-01-14T13:18:30Z</time>
      </trkpt>
      <trkpt lat="42.52797" lon="0.52391">
        <ele>1682.13</ele>
        <time>2026-01-14T13:18:31Z</time>
      </trkpt>
      <trkpt lat="42.5279" lon="0.52399">
        <ele>1679.59</ele>
        <time>2026-01-14T13:18:45Z</time>
      </trkpt>
      <trkpt lat="42.52787" lon="0.524">
        <ele>1679.07</ele>
        <time>2026-01-14T13:18:49Z</time>
      </trkpt>
      <trkpt lat="42.52785" lon="0.52398">
        <ele>1677.39</ele>
        <time>2026-01-14T13:18:52Z</time>
      </trkpt>
      <trkpt lat="42.52777" lon="0.52386">
        <ele>1676.21</ele>
        <time>2026-01-14T13:19:07Z</time>
      </trkpt>
      <trkpt lat="42.52777" lon="0.52383">
        <ele>1675.64</ele>
        <time>2026-01-14T13:19:13Z</time>
      </trkpt>
      <trkpt lat="42.52785" lon="0.52346">
        <ele>1673.39</ele>
        <time>2026-01-14T13:19:36Z</time>
      </trkpt>
      <trkpt lat="42.52796" lon="0.52319">
        <ele>1671.11</ele>
        <time>2026-01-14T13:19:54Z</time>
      </trkpt>
      <trkpt lat="42.52812" lon="0.5229">
        <ele>1669.56</ele>
        <time>2026-01-14T13:20:14Z</time>
      </trkpt>
      <trkpt lat="42.52823" lon="0.52266">
        <ele>1666.76</ele>
        <time>2026-01-14T13:20:32Z</time>
      </trkpt>
      <trkpt lat="42.52815" lon="0.52263">
        <ele>1664.96</ele>
        <time>2026-01-14T13:20:43Z</time>
      </trkpt>
      <trkpt lat="42.52805" lon="0.5227">
        <ele>1663.13</ele>
        <time>2026-01-14T13:20:53Z</time>
      </trkpt>
      <trkpt lat="42.528" lon="0.52272">
        <ele>1663.09</ele>
        <time>2026-01-14T13:20:58Z</time>
      </trkpt>
      <trkpt lat="42.52796" lon="0.52277">
        <ele>1662.2</ele>
        <time>2026-01-14T13:21:03Z</time>
      </trkpt>
      <trkpt lat="42.52783" lon="0.52292">
        <ele>1659.04</ele>
        <time>2026-01-14T13:21:17Z</time>
      </trkpt>
      <trkpt lat="42.52766" lon="0.52311">
        <ele>1656.73</ele>
        <time>2026-01-14T13:21:36Z</time>
      </trkpt>
      <trkpt lat="42.52752" lon="0.52329">
        <ele>1654.78</ele>
        <time>2026-01-14T13:21:52Z</time>
      </trkpt>
      <trkpt lat="42.52749" lon="0.52336">
        <ele>1653.84</ele>
        <time>2026-01-14T13:21:57Z</time>
      </trkpt>
      <trkpt lat="42.52742" lon="0.52347">
        <ele>1653.33</ele>
        <time>2026-01-14T13:22:05Z</time>
      </trkpt>
      <trkpt lat="42.52727" lon="0.52372">
        <ele>1649.75</ele>
        <time>2026-01-14T13:22:24Z</time>
      </trkpt>
      <trkpt lat="42.52709" lon="0.52393">
        <ele>1646.51</ele>
        <time>2026-01-14T13:22:42Z</time>
      </trkpt>
      <trkpt lat="42.52696" lon="0.52411">
        <ele>1643.74</ele>
        <time>2026-01-14T13:22:57Z</time>
      </trkpt>
      <trkpt lat="42.52694" lon="0.52413">
        <ele>1643.73</ele>
        <time>2026-01-14T13:22:59Z</time>
      </trkpt>
      <trkpt lat="42.52679" lon="0.52432">
        <ele>1640.94</ele>
        <time>2026-01-14T13:23:15Z</time>
      </trkpt>
      <trkpt lat="42.52667" lon="0.52459">
        <ele>1638.71</ele>
        <time>2026-01-14T13:23:33Z</time>
      </trkpt>
      <trkpt lat="42.52654" lon="0.52483">
        <ele>1635.84</ele>
        <time>2026-01-14T13:23:51Z</time>
      </trkpt>
      <trkpt lat="42.52643" lon="0.5249">
        <ele>1634.73</ele>
        <time>2026-01-14T13:24:00Z</time>
      </trkpt>
      <trkpt lat="42.52638" lon="0.52488">
        <ele>1632.87</ele>
        <time>2026-01-14T13:24:05Z</time>
      </trkpt>
      <trkpt lat="42.52637" lon="0.52481">
        <ele>1632.26</ele>
        <time>2026-01-14T13:24:10Z</time>
      </trkpt>
      <trkpt lat="42.52642" lon="0.52456">
        <ele>1629.17</ele>
        <time>2026-01-14T13:24:26Z</time>
      </trkpt>
      <trkpt lat="42.52645" lon="0.52427">
        <ele>1626.05</ele>
        <time>2026-01-14T13:24:44Z</time>
      </trkpt>
      <trkpt lat="42.52651" lon="0.52392">
        <ele>1623.58</ele>
        <time>2026-01-14T13:25:06Z</time>
      </trkpt>
      <trkpt lat="42.52657" lon="0.52358">
        <ele>1620.69</ele>
        <time>2026-01-14T13:25:26Z</time>
      </trkpt>
      <trkpt lat="42.52665" lon="0.52324">
        <ele>1617.57</ele>
        <time>2026-01-14T13:25:47Z</time>
      </trkpt>
      <trkpt lat="42.52674" lon="0.52296">
        <ele>1614.55</ele>
        <time>2026-01-14T13:26:05Z</time>
      </trkpt>
      <trkpt lat="42.52685" lon="0.5227">
        <ele>1612.48</ele>
        <time>2026-01-14T13:26:23Z</time>
      </trkpt>
      <trkpt lat="42.52694" lon="0.52249">
        <ele>1609.23</ele>
        <time>2026-01-14T13:26:37Z</time>
      </trkpt>
      <trkpt lat="42.52707" lon="0.52219">
        <ele>1606.1</ele>
        <time>2026-01-14T13:26:57Z</time>
      </trkpt>
      <trkpt lat="42.52716" lon="0.52192">
        <ele>1603.76</ele>
        <time>2026-01-14T13:27:15Z</time>
      </trkpt>
      <trkpt lat="42.52727" lon="0.52166">
        <ele>1600.63</ele>
        <time>2026-01-14T13:27:33Z</time>
      </trkpt>
      <trkpt lat="42.52745" lon="0.52132">
        <ele>1597.15</ele>
        <time>2026-01-14T13:27:57Z</time>
      </trkpt>
      <trkpt lat="42.52749" lon="0.52125">
        <ele>1595.93</ele>
        <time>2026-01-14T13:28:02Z</time>
      </trkpt>
      <trkpt lat="42.52768" lon="0.52097">
        <ele>1592.83</ele>
        <time>2026-01-14T13:28:23Z</time>
      </trkpt>
      <trkpt lat="42.52781" lon="0.52076">
        <ele>1590.38</ele>
        <time>2026-01-14T13:28:41Z</time>
      </trkpt>
      <trkpt lat="42.52796" lon="0.52069">
        <ele>1587.11</ele>
        <time>2026-01-14T13:28:56Z</time>
      </trkpt>
      <trkpt lat="42.52816" lon="0.52072">
        <ele>1586.21</ele>
        <time>2026-01-14T13:29:14Z</time>
      </trkpt>
      <trkpt lat="42.52842" lon="0.52076">
        <ele>1584.07</ele>
        <time>2026-01-14T13:29:35Z</time>
      </trkpt>
      <trkpt lat="42.52863" lon="0.52083">
        <ele>1581.81</ele>
        <time>2026-01-14T13:29:52Z</time>
      </trkpt>
      <trkpt lat="42.52886" lon="0.52087">
        <ele>1578.58</ele>
        <time>2026-01-14T13:30:11Z</time>
      </trkpt>
      <trkpt lat="42.52903" lon="0.52085">
        <ele>1576.92</ele>
        <time>2026-01-14T13:30:25Z</time>
      </trkpt>
      <trkpt lat="42.52921" lon="0.52086">
        <ele>1573.82</ele>
        <time>2026-01-14T13:30:39Z</time>
      </trkpt>
      <trkpt lat="42.5294" lon="0.52081">
        <ele>1571.54</ele>
        <time>2026-01-14T13:30:56Z</time>
      </trkpt>
      <trkpt lat="42.52953" lon="0.52068">
        <ele>1570.06</ele>
        <time>2026-01-14T13:31:10Z</time>
      </trkpt>
      <trkpt lat="42.52959" lon="0.5203">
        <ele>1566.51</ele>
        <time>2026-01-14T13:31:32Z</time>
      </trkpt>
      <trkpt lat="42.52971" lon="0.51998">
        <ele>1564.13</ele>
        <time>2026-01-14T13:31:52Z</time>
      </trkpt>
      <trkpt lat="42.52966" lon="0.51981">
        <ele>1562.73</ele>
        <time>2026-01-14T13:32:07Z</time>
      </trkpt>
      <trkpt lat="42.52953" lon="0.51989">
        <ele>1561.57</ele>
        <time>2026-01-14T13:32:19Z</time>
      </trkpt>
      <trkpt lat="42.5295" lon="0.51987">
        <ele>1559.38</ele>
        <time>2026-01-14T13:32:24Z</time>
      </trkpt>
      <trkpt lat="42.5295" lon="0.51986">
        <ele>1559.59</ele>
        <time>2026-01-14T13:32:25Z</time>
      </trkpt>
      <trkpt lat="42.52962" lon="0.51968">
        <ele>1559</ele>
        <time>2026-01-14T13:32:40Z</time>
      </trkpt>
      <trkpt lat="42.52967" lon="0.51963">
        <ele>1559.69</ele>
        <time>2026-01-14T13:32:44Z</time>
      </trkpt>
      <trkpt lat="42.52992" lon="0.51945">
        <ele>1557.66</ele>
        <time>2026-01-14T13:33:05Z</time>
      </trkpt>
      <trkpt lat="42.52994" lon="0.51942">
        <ele>1556.29</ele>
        <time>2026-01-14T13:33:07Z</time>
      </trkpt>
      <trkpt lat="42.53013" lon="0.51929">
        <ele>1554.64</ele>
        <time>2026-01-14T13:33:25Z</time>
      </trkpt>
      <trkpt lat="42.53018" lon="0.51927">
        <ele>1554.33</ele>
        <time>2026-01-14T13:33:29Z</time>
      </trkpt>
      <trkpt lat="42.53044" lon="0.51934">
        <ele>1552.33</ele>
        <time>2026-01-14T13:33:51Z</time>
      </trkpt>
      <trkpt lat="42.53066" lon="0.51952">
        <ele>1550.96</ele>
        <time>2026-01-14T13:34:11Z</time>
      </trkpt>
      <trkpt lat="42.53088" lon="0.51958">
        <ele>1549.16</ele>
        <time>2026-01-14T13:34:31Z</time>
      </trkpt>
      <trkpt lat="42.53094" lon="0.51944">
        <ele>1546.67</ele>
        <time>2026-01-14T13:34:43Z</time>
      </trkpt>
      <trkpt lat="42.5308" lon="0.51917">
        <ele>1544.31</ele>
        <time>2026-01-14T13:35:03Z</time>
      </trkpt>
      <trkpt lat="42.53054" lon="0.51896">
        <ele>1541.59</ele>
        <time>2026-01-14T13:35:27Z</time>
      </trkpt>
      <trkpt lat="42.53027" lon="0.51886">
        <ele>1539.62</ele>
        <time>2026-01-14T13:35:49Z</time>
      </trkpt>
      <trkpt lat="42.53014" lon="0.51867">
        <ele>1536.62</ele>
        <time>2026-01-14T13:36:05Z</time>
      </trkpt>
      <trkpt lat="42.53013" lon="0.51865">
        <ele>1536.39</ele>
        <time>2026-01-14T13:36:06Z</time>
      </trkpt>
      <trkpt lat="42.53" lon="0.51841">
        <ele>1532.7</ele>
        <time>2026-01-14T13:36:24Z</time>
      </trkpt>
      <trkpt lat="42.52986" lon="0.51824">
        <ele>1530.18</ele>
        <time>2026-01-14T13:36:41Z</time>
      </trkpt>
      <trkpt lat="42.52985" lon="0.51823">
        <ele>1529.93</ele>
        <time>2026-01-14T13:36:42Z</time>
      </trkpt>
      <trkpt lat="42.52965" lon="0.51811">
        <ele>1526.69</ele>
        <time>2026-01-14T13:36:59Z</time>
      </trkpt>
      <trkpt lat="42.52944" lon="0.51793">
        <ele>1525.51</ele>
        <time>2026-01-14T13:37:18Z</time>
      </trkpt>
      <trkpt lat="42.52925" lon="0.51789">
        <ele>1523.71</ele>
        <time>2026-01-14T13:37:33Z</time>
      </trkpt>
      <trkpt lat="42.52916" lon="0.5179">
        <ele>1522.29</ele>
        <time>2026-01-14T13:37:43Z</time>
      </trkpt>
      <trkpt lat="42.52899" lon="0.5179">
        <ele>1519.95</ele>
        <time>2026-01-14T13:38:00Z</time>
      </trkpt>
      <trkpt lat="42.52898" lon="0.5179">
        <ele>1520.34</ele>
        <time>2026-01-14T13:38:01Z</time>
      </trkpt>
      <trkpt lat="42.52902" lon="0.51767">
        <ele>1517.16</ele>
        <time>2026-01-14T13:38:18Z</time>
      </trkpt>
      <trkpt lat="42.52916" lon="0.51735">
        <ele>1513.68</ele>
        <time>2026-01-14T13:38:40Z</time>
      </trkpt>
      <trkpt lat="42.52931" lon="0.51704">
        <ele>1512.45</ele>
        <time>2026-01-14T13:39:02Z</time>
      </trkpt>
      <trkpt lat="42.52957" lon="0.51703">
        <ele>1510.25</ele>
        <time>2026-01-14T13:39:25Z</time>
      </trkpt>
      <trkpt lat="42.52978" lon="0.51712">
        <ele>1507.2</ele>
        <time>2026-01-14T13:39:45Z</time>
      </trkpt>
      <trkpt lat="42.52996" lon="0.51713">
        <ele>1505.56</ele>
        <time>2026-01-14T13:40:02Z</time>
      </trkpt>
      <trkpt lat="42.52996" lon="0.51712">
        <ele>1506.12</ele>
        <time>2026-01-14T13:40:26Z</time>
      </trkpt>
      <trkpt lat="42.52996" lon="0.51716">
        <ele>1504.69</ele>
        <time>2026-01-14T13:40:52Z</time>
      </trkpt>
      <trkpt lat="42.53006" lon="0.51716">
        <ele>1504.42</ele>
        <time>2026-01-14T13:40:58Z</time>
      </trkpt>
      <trkpt lat="42.53011" lon="0.51718">
        <ele>1504.53</ele>
        <time>2026-01-14T13:41:01Z</time>
      </trkpt>
      <trkpt lat="42.53018" lon="0.51723">
        <ele>1503.97</ele>
        <time>2026-01-14T13:41:06Z</time>
      </trkpt>
      <trkpt lat="42.53028" lon="0.51751">
        <ele>1501.29</ele>
        <time>2026-01-14T13:41:22Z</time>
      </trkpt>
      <trkpt lat="42.53028" lon="0.51764">
        <ele>1499.81</ele>
        <time>2026-01-14T13:41:29Z</time>
      </trkpt>
      <trkpt lat="42.53038" lon="0.51765">
        <ele>1497.76</ele>
        <time>2026-01-14T13:41:37Z</time>
      </trkpt>
      <trkpt lat="42.53045" lon="0.51742">
        <ele>1494.19</ele>
        <time>2026-01-14T13:41:49Z</time>
      </trkpt>
      <trkpt lat="42.53044" lon="0.51727">
        <ele>1490.06</ele>
        <time>2026-01-14T13:41:58Z</time>
      </trkpt>
      <trkpt lat="42.53044" lon="0.51725">
        <ele>1494.33</ele>
        <time>2026-01-14T13:41:59Z</time>
      </trkpt>
      <trkpt lat="42.5304" lon="0.51706">
        <ele>1490.91</ele>
        <time>2026-01-14T13:42:08Z</time>
      </trkpt>
      <trkpt lat="42.53039" lon="0.51702">
        <ele>1490.09</ele>
        <time>2026-01-14T13:42:10Z</time>
      </trkpt>
      <trkpt lat="42.53038" lon="0.51698">
        <ele>1489.73</ele>
        <time>2026-01-14T13:42:12Z</time>
      </trkpt>
      <trkpt lat="42.53036" lon="0.51689">
        <ele>1489.53</ele>
        <time>2026-01-14T13:42:25Z</time>
      </trkpt>
    </trkseg>
  </trk>
</gpx>